<?xml version="1.0" encoding="UTF-8" standalone="no" ?>
<gpx xmlns="http://www.topografix.com/GPX/1/1" xmlns:xsi="http://www.w3.org/2001/XMLSchema-instance" xsi:schemaLocation="http://www.topografix.com/GPX/1/1 http://www.topografix.com/GPX/1/1/gpx.xsd" version="1.1" creator="VisuGPX - https://www.visugpx.com">
  <metadata>
    <name>Poissy Les Charmilles - Foret de St Germain</name>
  </metadata>
  <trk>
    <name><![CDATA[Poissy Les Charmilles - Foret de St Germain_1]]></name>
    <trkseg>
      <trkpt lat="48.92359" lon="2.05397">
        <ele>50.9</ele>
        <time>2022-03-22T08:52:08Z</time>
      </trkpt>
      <trkpt lat="48.92354" lon="2.05398">
        <ele>51.7</ele>
        <time>2022-03-22T08:52:43Z</time>
      </trkpt>
      <trkpt lat="48.92355" lon="2.05405">
        <ele>51.8</ele>
        <time>2022-03-22T08:52:46Z</time>
      </trkpt>
      <trkpt lat="48.92361" lon="2.05407">
        <ele>52</ele>
        <time>2022-03-22T08:52:53Z</time>
      </trkpt>
      <trkpt lat="48.92366" lon="2.05402">
        <ele>51.8</ele>
        <time>2022-03-22T08:52:57Z</time>
      </trkpt>
      <trkpt lat="48.9237" lon="2.05398">
        <ele>51.4</ele>
        <time>2022-03-22T08:53:00Z</time>
      </trkpt>
      <trkpt lat="48.92375" lon="2.05397">
        <ele>51.7</ele>
        <time>2022-03-22T08:53:03Z</time>
      </trkpt>
      <trkpt lat="48.92379" lon="2.05399">
        <ele>51.9</ele>
        <time>2022-03-22T08:53:07Z</time>
      </trkpt>
      <trkpt lat="48.92382" lon="2.05405">
        <ele>51.6</ele>
        <time>2022-03-22T08:53:10Z</time>
      </trkpt>
      <trkpt lat="48.92382" lon="2.05413">
        <ele>50.8</ele>
        <time>2022-03-22T08:53:14Z</time>
      </trkpt>
      <trkpt lat="48.92382" lon="2.05419">
        <ele>49.9</ele>
        <time>2022-03-22T08:53:19Z</time>
      </trkpt>
      <trkpt lat="48.92379" lon="2.05425">
        <ele>49.1</ele>
        <time>2022-03-22T08:53:23Z</time>
      </trkpt>
      <trkpt lat="48.92383" lon="2.05432">
        <ele>47.7</ele>
        <time>2022-03-22T08:53:28Z</time>
      </trkpt>
      <trkpt lat="48.92387" lon="2.05437">
        <ele>46.7</ele>
        <time>2022-03-22T08:53:32Z</time>
      </trkpt>
      <trkpt lat="48.92392" lon="2.0544">
        <ele>46</ele>
        <time>2022-03-22T08:53:37Z</time>
      </trkpt>
      <trkpt lat="48.92396" lon="2.05444">
        <ele>44</ele>
        <time>2022-03-22T08:53:43Z</time>
      </trkpt>
      <trkpt lat="48.92392" lon="2.05439">
        <ele>40</ele>
        <time>2022-03-22T08:53:52Z</time>
      </trkpt>
      <trkpt lat="48.92389" lon="2.05434">
        <ele>40</ele>
        <time>2022-03-22T08:54:02Z</time>
      </trkpt>
      <trkpt lat="48.92393" lon="2.05439">
        <ele>40.6</ele>
        <time>2022-03-22T08:54:07Z</time>
      </trkpt>
      <trkpt lat="48.92395" lon="2.05445">
        <ele>41.7</ele>
        <time>2022-03-22T08:54:14Z</time>
      </trkpt>
      <trkpt lat="48.92399" lon="2.05449">
        <ele>43.2</ele>
        <time>2022-03-22T08:54:21Z</time>
      </trkpt>
      <trkpt lat="48.92396" lon="2.05444">
        <ele>43.7</ele>
        <time>2022-03-22T08:54:30Z</time>
      </trkpt>
      <trkpt lat="48.92392" lon="2.05446">
        <ele>47.4</ele>
        <time>2022-03-22T08:54:52Z</time>
      </trkpt>
      <trkpt lat="48.92387" lon="2.05449">
        <ele>51.8</ele>
        <time>2022-03-22T08:55:16Z</time>
      </trkpt>
      <trkpt lat="48.92389" lon="2.05442">
        <ele>50.6</ele>
        <time>2022-03-22T08:56:18Z</time>
      </trkpt>
      <trkpt lat="48.92393" lon="2.05448">
        <ele>50.4</ele>
        <time>2022-03-22T08:57:02Z</time>
      </trkpt>
      <trkpt lat="48.92396" lon="2.05453">
        <ele>50.9</ele>
        <time>2022-03-22T08:57:06Z</time>
      </trkpt>
      <trkpt lat="48.924" lon="2.05459">
        <ele>50.8</ele>
        <time>2022-03-22T08:57:09Z</time>
      </trkpt>
      <trkpt lat="48.92403" lon="2.05464">
        <ele>50.7</ele>
        <time>2022-03-22T08:57:12Z</time>
      </trkpt>
      <trkpt lat="48.92407" lon="2.05469">
        <ele>51.2</ele>
        <time>2022-03-22T08:57:17Z</time>
      </trkpt>
      <trkpt lat="48.92412" lon="2.05474">
        <ele>51.9</ele>
        <time>2022-03-22T08:57:21Z</time>
      </trkpt>
      <trkpt lat="48.92416" lon="2.0548">
        <ele>52</ele>
        <time>2022-03-22T08:57:26Z</time>
      </trkpt>
      <trkpt lat="48.92421" lon="2.05485">
        <ele>51.6</ele>
        <time>2022-03-22T08:57:30Z</time>
      </trkpt>
      <trkpt lat="48.92426" lon="2.0549">
        <ele>51.3</ele>
        <time>2022-03-22T08:57:34Z</time>
      </trkpt>
      <trkpt lat="48.92431" lon="2.05486">
        <ele>51.4</ele>
        <time>2022-03-22T08:57:38Z</time>
      </trkpt>
      <trkpt lat="48.92435" lon="2.05493">
        <ele>51.3</ele>
        <time>2022-03-22T08:57:42Z</time>
      </trkpt>
      <trkpt lat="48.92437" lon="2.055">
        <ele>51.1</ele>
        <time>2022-03-22T08:57:46Z</time>
      </trkpt>
      <trkpt lat="48.92441" lon="2.05506">
        <ele>51.7</ele>
        <time>2022-03-22T08:57:50Z</time>
      </trkpt>
      <trkpt lat="48.92444" lon="2.05513">
        <ele>53.1</ele>
        <time>2022-03-22T08:57:55Z</time>
      </trkpt>
      <trkpt lat="48.92448" lon="2.05519">
        <ele>54.4</ele>
        <time>2022-03-22T08:57:59Z</time>
      </trkpt>
      <trkpt lat="48.92451" lon="2.05525">
        <ele>54.2</ele>
        <time>2022-03-22T08:58:03Z</time>
      </trkpt>
      <trkpt lat="48.92455" lon="2.05529">
        <ele>54.1</ele>
        <time>2022-03-22T08:58:08Z</time>
      </trkpt>
      <trkpt lat="48.9246" lon="2.05535">
        <ele>58.3</ele>
        <time>2022-03-22T08:58:31Z</time>
      </trkpt>
      <trkpt lat="48.92465" lon="2.05538">
        <ele>58.3</ele>
        <time>2022-03-22T08:58:33Z</time>
      </trkpt>
      <trkpt lat="48.92468" lon="2.05542">
        <ele>58.1</ele>
        <time>2022-03-22T08:58:36Z</time>
      </trkpt>
      <trkpt lat="48.92472" lon="2.05547">
        <ele>56.7</ele>
        <time>2022-03-22T08:58:40Z</time>
      </trkpt>
      <trkpt lat="48.92476" lon="2.05554">
        <ele>54.6</ele>
        <time>2022-03-22T08:58:45Z</time>
      </trkpt>
      <trkpt lat="48.92478" lon="2.0556">
        <ele>53.4</ele>
        <time>2022-03-22T08:58:48Z</time>
      </trkpt>
      <trkpt lat="48.92482" lon="2.05566">
        <ele>53</ele>
        <time>2022-03-22T08:58:53Z</time>
      </trkpt>
      <trkpt lat="48.92486" lon="2.05571">
        <ele>54</ele>
        <time>2022-03-22T08:58:57Z</time>
      </trkpt>
      <trkpt lat="48.92489" lon="2.05576">
        <ele>54.2</ele>
        <time>2022-03-22T08:59:00Z</time>
      </trkpt>
      <trkpt lat="48.92493" lon="2.05582">
        <ele>53.8</ele>
        <time>2022-03-22T08:59:04Z</time>
      </trkpt>
      <trkpt lat="48.92497" lon="2.05587">
        <ele>53.6</ele>
        <time>2022-03-22T08:59:08Z</time>
      </trkpt>
      <trkpt lat="48.92501" lon="2.05591">
        <ele>53.9</ele>
        <time>2022-03-22T08:59:11Z</time>
      </trkpt>
      <trkpt lat="48.92505" lon="2.05597">
        <ele>54.3</ele>
        <time>2022-03-22T08:59:16Z</time>
      </trkpt>
      <trkpt lat="48.92509" lon="2.05602">
        <ele>54.2</ele>
        <time>2022-03-22T08:59:19Z</time>
      </trkpt>
      <trkpt lat="48.92512" lon="2.05606">
        <ele>54.1</ele>
        <time>2022-03-22T08:59:23Z</time>
      </trkpt>
      <trkpt lat="48.92516" lon="2.05611">
        <ele>54.2</ele>
        <time>2022-03-22T08:59:26Z</time>
      </trkpt>
      <trkpt lat="48.92521" lon="2.05615">
        <ele>54.2</ele>
        <time>2022-03-22T08:59:30Z</time>
      </trkpt>
      <trkpt lat="48.92526" lon="2.0562">
        <ele>53.6</ele>
        <time>2022-03-22T08:59:34Z</time>
      </trkpt>
      <trkpt lat="48.9253" lon="2.05624">
        <ele>52.9</ele>
        <time>2022-03-22T08:59:38Z</time>
      </trkpt>
      <trkpt lat="48.92535" lon="2.05628">
        <ele>51.5</ele>
        <time>2022-03-22T08:59:42Z</time>
      </trkpt>
      <trkpt lat="48.92539" lon="2.05632">
        <ele>50.2</ele>
        <time>2022-03-22T08:59:45Z</time>
      </trkpt>
      <trkpt lat="48.92544" lon="2.05637">
        <ele>49.3</ele>
        <time>2022-03-22T08:59:49Z</time>
      </trkpt>
      <trkpt lat="48.92549" lon="2.05642">
        <ele>48.6</ele>
        <time>2022-03-22T08:59:53Z</time>
      </trkpt>
      <trkpt lat="48.92554" lon="2.05647">
        <ele>48.3</ele>
        <time>2022-03-22T08:59:57Z</time>
      </trkpt>
      <trkpt lat="48.92558" lon="2.05651">
        <ele>48.2</ele>
        <time>2022-03-22T09:00:02Z</time>
      </trkpt>
      <trkpt lat="48.92563" lon="2.05655">
        <ele>48.5</ele>
        <time>2022-03-22T09:00:05Z</time>
      </trkpt>
      <trkpt lat="48.92567" lon="2.05661">
        <ele>48.6</ele>
        <time>2022-03-22T09:00:09Z</time>
      </trkpt>
      <trkpt lat="48.92572" lon="2.05667">
        <ele>48.5</ele>
        <time>2022-03-22T09:00:13Z</time>
      </trkpt>
      <trkpt lat="48.92575" lon="2.05672">
        <ele>48.3</ele>
        <time>2022-03-22T09:00:17Z</time>
      </trkpt>
      <trkpt lat="48.9258" lon="2.05677">
        <ele>47.5</ele>
        <time>2022-03-22T09:00:21Z</time>
      </trkpt>
      <trkpt lat="48.92584" lon="2.05681">
        <ele>46.8</ele>
        <time>2022-03-22T09:00:24Z</time>
      </trkpt>
      <trkpt lat="48.92588" lon="2.05685">
        <ele>46.4</ele>
        <time>2022-03-22T09:00:27Z</time>
      </trkpt>
      <trkpt lat="48.92593" lon="2.05691">
        <ele>46.1</ele>
        <time>2022-03-22T09:00:31Z</time>
      </trkpt>
      <trkpt lat="48.92596" lon="2.05695">
        <ele>46.4</ele>
        <time>2022-03-22T09:00:35Z</time>
      </trkpt>
      <trkpt lat="48.92601" lon="2.05702">
        <ele>47.6</ele>
        <time>2022-03-22T09:00:38Z</time>
      </trkpt>
      <trkpt lat="48.92604" lon="2.05707">
        <ele>48.4</ele>
        <time>2022-03-22T09:00:41Z</time>
      </trkpt>
      <trkpt lat="48.92608" lon="2.05713">
        <ele>48.3</ele>
        <time>2022-03-22T09:00:44Z</time>
      </trkpt>
      <trkpt lat="48.92611" lon="2.05719">
        <ele>47.7</ele>
        <time>2022-03-22T09:00:48Z</time>
      </trkpt>
      <trkpt lat="48.92616" lon="2.05723">
        <ele>46.7</ele>
        <time>2022-03-22T09:00:52Z</time>
      </trkpt>
      <trkpt lat="48.92621" lon="2.05727">
        <ele>45.8</ele>
        <time>2022-03-22T09:00:55Z</time>
      </trkpt>
      <trkpt lat="48.92625" lon="2.05732">
        <ele>45.9</ele>
        <time>2022-03-22T09:00:58Z</time>
      </trkpt>
      <trkpt lat="48.9263" lon="2.05736">
        <ele>45.9</ele>
        <time>2022-03-22T09:01:02Z</time>
      </trkpt>
      <trkpt lat="48.92633" lon="2.05741">
        <ele>46.1</ele>
        <time>2022-03-22T09:01:04Z</time>
      </trkpt>
      <trkpt lat="48.92637" lon="2.05746">
        <ele>46.1</ele>
        <time>2022-03-22T09:01:08Z</time>
      </trkpt>
      <trkpt lat="48.92644" lon="2.05754">
        <ele>47</ele>
        <time>2022-03-22T09:01:15Z</time>
      </trkpt>
      <trkpt lat="48.92648" lon="2.05757">
        <ele>47.2</ele>
        <time>2022-03-22T09:01:18Z</time>
      </trkpt>
      <trkpt lat="48.92653" lon="2.05762">
        <ele>47.6</ele>
        <time>2022-03-22T09:01:21Z</time>
      </trkpt>
      <trkpt lat="48.92656" lon="2.05767">
        <ele>48.1</ele>
        <time>2022-03-22T09:01:24Z</time>
      </trkpt>
      <trkpt lat="48.92659" lon="2.05774">
        <ele>49.2</ele>
        <time>2022-03-22T09:01:27Z</time>
      </trkpt>
      <trkpt lat="48.92663" lon="2.05779">
        <ele>49.8</ele>
        <time>2022-03-22T09:01:31Z</time>
      </trkpt>
      <trkpt lat="48.92667" lon="2.05785">
        <ele>50.4</ele>
        <time>2022-03-22T09:01:34Z</time>
      </trkpt>
      <trkpt lat="48.92671" lon="2.05792">
        <ele>50.5</ele>
        <time>2022-03-22T09:01:38Z</time>
      </trkpt>
      <trkpt lat="48.92675" lon="2.05799">
        <ele>51</ele>
        <time>2022-03-22T09:01:42Z</time>
      </trkpt>
      <trkpt lat="48.92678" lon="2.05803">
        <ele>51.1</ele>
        <time>2022-03-22T09:01:46Z</time>
      </trkpt>
      <trkpt lat="48.92683" lon="2.05808">
        <ele>51</ele>
        <time>2022-03-22T09:01:49Z</time>
      </trkpt>
      <trkpt lat="48.92771" lon="2.05916">
        <ele>56.9</ele>
        <time>2022-03-22T09:03:06Z</time>
      </trkpt>
      <trkpt lat="48.92805" lon="2.05964">
        <ele>59.4</ele>
        <time>2022-03-22T09:03:38Z</time>
      </trkpt>
      <trkpt lat="48.92814" lon="2.05975">
        <ele>61.6</ele>
        <time>2022-03-22T09:03:45Z</time>
      </trkpt>
      <trkpt lat="48.92823" lon="2.05982">
        <ele>59.2</ele>
        <time>2022-03-22T09:03:51Z</time>
      </trkpt>
      <trkpt lat="48.92827" lon="2.05986">
        <ele>57.9</ele>
        <time>2022-03-22T09:03:54Z</time>
      </trkpt>
      <trkpt lat="48.92831" lon="2.05989">
        <ele>57.5</ele>
        <time>2022-03-22T09:03:57Z</time>
      </trkpt>
      <trkpt lat="48.92837" lon="2.05991">
        <ele>57.4</ele>
        <time>2022-03-22T09:04:01Z</time>
      </trkpt>
      <trkpt lat="48.92841" lon="2.05987">
        <ele>57</ele>
        <time>2022-03-22T09:04:05Z</time>
      </trkpt>
      <trkpt lat="48.92844" lon="2.05981">
        <ele>56.5</ele>
        <time>2022-03-22T09:04:07Z</time>
      </trkpt>
      <trkpt lat="48.92847" lon="2.05975">
        <ele>56.2</ele>
        <time>2022-03-22T09:04:10Z</time>
      </trkpt>
      <trkpt lat="48.9285" lon="2.05969">
        <ele>56.5</ele>
        <time>2022-03-22T09:04:13Z</time>
      </trkpt>
      <trkpt lat="48.92854" lon="2.05963">
        <ele>56.5</ele>
        <time>2022-03-22T09:04:16Z</time>
      </trkpt>
      <trkpt lat="48.92857" lon="2.05957">
        <ele>56.2</ele>
        <time>2022-03-22T09:04:20Z</time>
      </trkpt>
      <trkpt lat="48.92861" lon="2.05952">
        <ele>55.5</ele>
        <time>2022-03-22T09:04:24Z</time>
      </trkpt>
      <trkpt lat="48.92865" lon="2.05949">
        <ele>55.6</ele>
        <time>2022-03-22T09:04:27Z</time>
      </trkpt>
      <trkpt lat="48.92868" lon="2.05942">
        <ele>57.6</ele>
        <time>2022-03-22T09:04:31Z</time>
      </trkpt>
      <trkpt lat="48.92871" lon="2.05933">
        <ele>58.6</ele>
        <time>2022-03-22T09:04:35Z</time>
      </trkpt>
      <trkpt lat="48.92873" lon="2.05926">
        <ele>58.5</ele>
        <time>2022-03-22T09:04:38Z</time>
      </trkpt>
      <trkpt lat="48.92877" lon="2.05921">
        <ele>57.9</ele>
        <time>2022-03-22T09:04:41Z</time>
      </trkpt>
      <trkpt lat="48.9288" lon="2.05914">
        <ele>56.8</ele>
        <time>2022-03-22T09:04:45Z</time>
      </trkpt>
      <trkpt lat="48.92884" lon="2.05907">
        <ele>55</ele>
        <time>2022-03-22T09:04:50Z</time>
      </trkpt>
      <trkpt lat="48.92888" lon="2.05901">
        <ele>53.3</ele>
        <time>2022-03-22T09:04:54Z</time>
      </trkpt>
      <trkpt lat="48.92892" lon="2.05896">
        <ele>53.2</ele>
        <time>2022-03-22T09:04:57Z</time>
      </trkpt>
      <trkpt lat="48.92895" lon="2.05891">
        <ele>53.4</ele>
        <time>2022-03-22T09:05:00Z</time>
      </trkpt>
      <trkpt lat="48.92899" lon="2.05884">
        <ele>53.2</ele>
        <time>2022-03-22T09:05:03Z</time>
      </trkpt>
      <trkpt lat="48.92902" lon="2.05878">
        <ele>52.4</ele>
        <time>2022-03-22T09:05:07Z</time>
      </trkpt>
      <trkpt lat="48.92906" lon="2.05871">
        <ele>52.3</ele>
        <time>2022-03-22T09:05:11Z</time>
      </trkpt>
      <trkpt lat="48.92911" lon="2.05865">
        <ele>53.6</ele>
        <time>2022-03-22T09:05:15Z</time>
      </trkpt>
      <trkpt lat="48.92914" lon="2.05859">
        <ele>54.2</ele>
        <time>2022-03-22T09:05:19Z</time>
      </trkpt>
      <trkpt lat="48.92918" lon="2.05854">
        <ele>54.5</ele>
        <time>2022-03-22T09:05:22Z</time>
      </trkpt>
      <trkpt lat="48.92921" lon="2.05849">
        <ele>54.2</ele>
        <time>2022-03-22T09:05:24Z</time>
      </trkpt>
      <trkpt lat="48.92925" lon="2.05844">
        <ele>53.5</ele>
        <time>2022-03-22T09:05:27Z</time>
      </trkpt>
      <trkpt lat="48.92928" lon="2.05839">
        <ele>52.7</ele>
        <time>2022-03-22T09:05:30Z</time>
      </trkpt>
      <trkpt lat="48.92931" lon="2.05834">
        <ele>52.4</ele>
        <time>2022-03-22T09:05:33Z</time>
      </trkpt>
      <trkpt lat="48.92935" lon="2.05828">
        <ele>52.6</ele>
        <time>2022-03-22T09:05:37Z</time>
      </trkpt>
      <trkpt lat="48.92939" lon="2.05822">
        <ele>52.5</ele>
        <time>2022-03-22T09:05:40Z</time>
      </trkpt>
      <trkpt lat="48.92942" lon="2.05816">
        <ele>52</ele>
        <time>2022-03-22T09:05:44Z</time>
      </trkpt>
      <trkpt lat="48.92947" lon="2.0582">
        <ele>51.7</ele>
        <time>2022-03-22T09:05:50Z</time>
      </trkpt>
      <trkpt lat="48.92951" lon="2.05825">
        <ele>50.5</ele>
        <time>2022-03-22T09:05:53Z</time>
      </trkpt>
      <trkpt lat="48.92954" lon="2.05829">
        <ele>48.9</ele>
        <time>2022-03-22T09:05:56Z</time>
      </trkpt>
      <trkpt lat="48.92957" lon="2.05835">
        <ele>46.9</ele>
        <time>2022-03-22T09:06:00Z</time>
      </trkpt>
      <trkpt lat="48.92956" lon="2.05843">
        <ele>46</ele>
        <time>2022-03-22T09:06:03Z</time>
      </trkpt>
      <trkpt lat="48.92954" lon="2.0585">
        <ele>45</ele>
        <time>2022-03-22T09:06:06Z</time>
      </trkpt>
      <trkpt lat="48.92952" lon="2.05856">
        <ele>43.8</ele>
        <time>2022-03-22T09:06:09Z</time>
      </trkpt>
      <trkpt lat="48.92951" lon="2.05864">
        <ele>42.6</ele>
        <time>2022-03-22T09:06:13Z</time>
      </trkpt>
      <trkpt lat="48.92951" lon="2.05872">
        <ele>42.8</ele>
        <time>2022-03-22T09:06:17Z</time>
      </trkpt>
      <trkpt lat="48.9295" lon="2.0588">
        <ele>44</ele>
        <time>2022-03-22T09:06:21Z</time>
      </trkpt>
      <trkpt lat="48.9295" lon="2.05888">
        <ele>45.7</ele>
        <time>2022-03-22T09:06:26Z</time>
      </trkpt>
      <trkpt lat="48.92951" lon="2.05896">
        <ele>46.7</ele>
        <time>2022-03-22T09:06:30Z</time>
      </trkpt>
      <trkpt lat="48.92952" lon="2.05904">
        <ele>46.3</ele>
        <time>2022-03-22T09:06:34Z</time>
      </trkpt>
      <trkpt lat="48.92955" lon="2.0591">
        <ele>46.8</ele>
        <time>2022-03-22T09:06:37Z</time>
      </trkpt>
      <trkpt lat="48.92958" lon="2.05916">
        <ele>46.9</ele>
        <time>2022-03-22T09:06:41Z</time>
      </trkpt>
      <trkpt lat="48.92961" lon="2.05922">
        <ele>47</ele>
        <time>2022-03-22T09:06:44Z</time>
      </trkpt>
      <trkpt lat="48.92965" lon="2.05929">
        <ele>46.8</ele>
        <time>2022-03-22T09:06:48Z</time>
      </trkpt>
      <trkpt lat="48.92968" lon="2.05936">
        <ele>46.7</ele>
        <time>2022-03-22T09:06:51Z</time>
      </trkpt>
      <trkpt lat="48.92971" lon="2.05942">
        <ele>46.5</ele>
        <time>2022-03-22T09:06:55Z</time>
      </trkpt>
      <trkpt lat="48.92974" lon="2.05949">
        <ele>47.1</ele>
        <time>2022-03-22T09:06:59Z</time>
      </trkpt>
      <trkpt lat="48.92977" lon="2.05956">
        <ele>47.6</ele>
        <time>2022-03-22T09:07:03Z</time>
      </trkpt>
      <trkpt lat="48.9298" lon="2.05962">
        <ele>48.7</ele>
        <time>2022-03-22T09:07:06Z</time>
      </trkpt>
      <trkpt lat="48.92982" lon="2.05969">
        <ele>49.5</ele>
        <time>2022-03-22T09:07:09Z</time>
      </trkpt>
      <trkpt lat="48.92984" lon="2.05976">
        <ele>50.3</ele>
        <time>2022-03-22T09:07:13Z</time>
      </trkpt>
      <trkpt lat="48.92984" lon="2.05984">
        <ele>51.3</ele>
        <time>2022-03-22T09:07:17Z</time>
      </trkpt>
      <trkpt lat="48.92986" lon="2.05992">
        <ele>51.7</ele>
        <time>2022-03-22T09:07:21Z</time>
      </trkpt>
      <trkpt lat="48.92987" lon="2.06001">
        <ele>51.4</ele>
        <time>2022-03-22T09:07:25Z</time>
      </trkpt>
      <trkpt lat="48.92989" lon="2.06009">
        <ele>50.3</ele>
        <time>2022-03-22T09:07:30Z</time>
      </trkpt>
      <trkpt lat="48.9299" lon="2.06016">
        <ele>49.7</ele>
        <time>2022-03-22T09:07:33Z</time>
      </trkpt>
      <trkpt lat="48.92992" lon="2.06023">
        <ele>49.7</ele>
        <time>2022-03-22T09:07:38Z</time>
      </trkpt>
      <trkpt lat="48.92997" lon="2.06025">
        <ele>49.9</ele>
        <time>2022-03-22T09:07:41Z</time>
      </trkpt>
      <trkpt lat="48.93003" lon="2.06025">
        <ele>48.9</ele>
        <time>2022-03-22T09:07:45Z</time>
      </trkpt>
      <trkpt lat="48.93009" lon="2.06028">
        <ele>47.7</ele>
        <time>2022-03-22T09:07:50Z</time>
      </trkpt>
      <trkpt lat="48.93012" lon="2.06032">
        <ele>47.3</ele>
        <time>2022-03-22T09:07:53Z</time>
      </trkpt>
      <trkpt lat="48.93016" lon="2.06038">
        <ele>47.1</ele>
        <time>2022-03-22T09:07:57Z</time>
      </trkpt>
      <trkpt lat="48.93018" lon="2.06046">
        <ele>46.1</ele>
        <time>2022-03-22T09:08:01Z</time>
      </trkpt>
      <trkpt lat="48.93018" lon="2.06054">
        <ele>44.9</ele>
        <time>2022-03-22T09:08:04Z</time>
      </trkpt>
      <trkpt lat="48.93019" lon="2.06061">
        <ele>43.6</ele>
        <time>2022-03-22T09:08:08Z</time>
      </trkpt>
      <trkpt lat="48.93022" lon="2.06067">
        <ele>42.8</ele>
        <time>2022-03-22T09:08:12Z</time>
      </trkpt>
      <trkpt lat="48.93027" lon="2.06071">
        <ele>43.7</ele>
        <time>2022-03-22T09:08:16Z</time>
      </trkpt>
      <trkpt lat="48.9303" lon="2.06076">
        <ele>46</ele>
        <time>2022-03-22T09:08:19Z</time>
      </trkpt>
      <trkpt lat="48.93035" lon="2.0608">
        <ele>48.9</ele>
        <time>2022-03-22T09:08:23Z</time>
      </trkpt>
      <trkpt lat="48.93042" lon="2.06081">
        <ele>48.7</ele>
        <time>2022-03-22T09:08:27Z</time>
      </trkpt>
      <trkpt lat="48.93047" lon="2.06081">
        <ele>48.6</ele>
        <time>2022-03-22T09:08:31Z</time>
      </trkpt>
      <trkpt lat="48.93052" lon="2.06081">
        <ele>49.2</ele>
        <time>2022-03-22T09:08:33Z</time>
      </trkpt>
      <trkpt lat="48.93056" lon="2.06083">
        <ele>50.5</ele>
        <time>2022-03-22T09:08:36Z</time>
      </trkpt>
      <trkpt lat="48.93062" lon="2.06086">
        <ele>52.2</ele>
        <time>2022-03-22T09:08:40Z</time>
      </trkpt>
      <trkpt lat="48.93067" lon="2.06089">
        <ele>53.1</ele>
        <time>2022-03-22T09:08:44Z</time>
      </trkpt>
      <trkpt lat="48.93071" lon="2.06091">
        <ele>53.9</ele>
        <time>2022-03-22T09:08:47Z</time>
      </trkpt>
      <trkpt lat="48.93077" lon="2.06095">
        <ele>54.5</ele>
        <time>2022-03-22T09:08:50Z</time>
      </trkpt>
      <trkpt lat="48.93082" lon="2.06098">
        <ele>54.3</ele>
        <time>2022-03-22T09:08:54Z</time>
      </trkpt>
      <trkpt lat="48.93087" lon="2.061">
        <ele>53.5</ele>
        <time>2022-03-22T09:08:58Z</time>
      </trkpt>
      <trkpt lat="48.93091" lon="2.06105">
        <ele>52.6</ele>
        <time>2022-03-22T09:09:01Z</time>
      </trkpt>
      <trkpt lat="48.93094" lon="2.06111">
        <ele>52.4</ele>
        <time>2022-03-22T09:09:05Z</time>
      </trkpt>
      <trkpt lat="48.93096" lon="2.06117">
        <ele>52.5</ele>
        <time>2022-03-22T09:09:08Z</time>
      </trkpt>
      <trkpt lat="48.93098" lon="2.06125">
        <ele>52.7</ele>
        <time>2022-03-22T09:09:12Z</time>
      </trkpt>
      <trkpt lat="48.93098" lon="2.06132">
        <ele>52.9</ele>
        <time>2022-03-22T09:09:15Z</time>
      </trkpt>
      <trkpt lat="48.931" lon="2.06139">
        <ele>53.9</ele>
        <time>2022-03-22T09:09:19Z</time>
      </trkpt>
      <trkpt lat="48.93104" lon="2.06144">
        <ele>54</ele>
        <time>2022-03-22T09:09:23Z</time>
      </trkpt>
      <trkpt lat="48.93105" lon="2.06152">
        <ele>52.8</ele>
        <time>2022-03-22T09:09:28Z</time>
      </trkpt>
      <trkpt lat="48.93105" lon="2.0616">
        <ele>52.1</ele>
        <time>2022-03-22T09:09:32Z</time>
      </trkpt>
      <trkpt lat="48.93103" lon="2.06166">
        <ele>51.8</ele>
        <time>2022-03-22T09:09:35Z</time>
      </trkpt>
      <trkpt lat="48.93101" lon="2.06173">
        <ele>51.5</ele>
        <time>2022-03-22T09:09:39Z</time>
      </trkpt>
      <trkpt lat="48.93099" lon="2.06181">
        <ele>51.7</ele>
        <time>2022-03-22T09:09:43Z</time>
      </trkpt>
      <trkpt lat="48.93097" lon="2.06187">
        <ele>52.7</ele>
        <time>2022-03-22T09:09:47Z</time>
      </trkpt>
      <trkpt lat="48.93096" lon="2.06195">
        <ele>52.9</ele>
        <time>2022-03-22T09:09:52Z</time>
      </trkpt>
      <trkpt lat="48.931" lon="2.062">
        <ele>51.2</ele>
        <time>2022-03-22T09:09:55Z</time>
      </trkpt>
      <trkpt lat="48.93104" lon="2.06203">
        <ele>50.9</ele>
        <time>2022-03-22T09:09:58Z</time>
      </trkpt>
      <trkpt lat="48.93109" lon="2.06209">
        <ele>50.3</ele>
        <time>2022-03-22T09:10:02Z</time>
      </trkpt>
      <trkpt lat="48.93112" lon="2.06216">
        <ele>49.4</ele>
        <time>2022-03-22T09:10:07Z</time>
      </trkpt>
      <trkpt lat="48.93114" lon="2.06226">
        <ele>47.9</ele>
        <time>2022-03-22T09:10:12Z</time>
      </trkpt>
      <trkpt lat="48.93115" lon="2.06233">
        <ele>46.6</ele>
        <time>2022-03-22T09:10:15Z</time>
      </trkpt>
      <trkpt lat="48.93118" lon="2.0624">
        <ele>46.3</ele>
        <time>2022-03-22T09:10:19Z</time>
      </trkpt>
      <trkpt lat="48.93121" lon="2.06248">
        <ele>46.4</ele>
        <time>2022-03-22T09:10:24Z</time>
      </trkpt>
      <trkpt lat="48.93121" lon="2.06255">
        <ele>46.5</ele>
        <time>2022-03-22T09:10:27Z</time>
      </trkpt>
      <trkpt lat="48.9312" lon="2.06263">
        <ele>46.1</ele>
        <time>2022-03-22T09:10:31Z</time>
      </trkpt>
      <trkpt lat="48.93122" lon="2.06271">
        <ele>45.5</ele>
        <time>2022-03-22T09:10:36Z</time>
      </trkpt>
      <trkpt lat="48.93124" lon="2.06279">
        <ele>44.5</ele>
        <time>2022-03-22T09:10:40Z</time>
      </trkpt>
      <trkpt lat="48.93126" lon="2.06285">
        <ele>44.5</ele>
        <time>2022-03-22T09:10:43Z</time>
      </trkpt>
      <trkpt lat="48.93129" lon="2.06291">
        <ele>45.7</ele>
        <time>2022-03-22T09:10:47Z</time>
      </trkpt>
      <trkpt lat="48.93132" lon="2.06297">
        <ele>48</ele>
        <time>2022-03-22T09:10:50Z</time>
      </trkpt>
      <trkpt lat="48.93134" lon="2.06305">
        <ele>50.4</ele>
        <time>2022-03-22T09:10:53Z</time>
      </trkpt>
      <trkpt lat="48.93136" lon="2.06313">
        <ele>53</ele>
        <time>2022-03-22T09:10:57Z</time>
      </trkpt>
      <trkpt lat="48.93138" lon="2.0632">
        <ele>53.9</ele>
        <time>2022-03-22T09:11:00Z</time>
      </trkpt>
      <trkpt lat="48.93143" lon="2.06326">
        <ele>54.3</ele>
        <time>2022-03-22T09:11:05Z</time>
      </trkpt>
      <trkpt lat="48.93148" lon="2.06329">
        <ele>54</ele>
        <time>2022-03-22T09:11:08Z</time>
      </trkpt>
      <trkpt lat="48.93153" lon="2.06332">
        <ele>54.1</ele>
        <time>2022-03-22T09:11:12Z</time>
      </trkpt>
      <trkpt lat="48.93158" lon="2.06335">
        <ele>55.1</ele>
        <time>2022-03-22T09:11:16Z</time>
      </trkpt>
      <trkpt lat="48.93162" lon="2.0634">
        <ele>55.3</ele>
        <time>2022-03-22T09:11:20Z</time>
      </trkpt>
      <trkpt lat="48.93166" lon="2.06343">
        <ele>55.3</ele>
        <time>2022-03-22T09:11:24Z</time>
      </trkpt>
      <trkpt lat="48.93172" lon="2.06344">
        <ele>55.2</ele>
        <time>2022-03-22T09:11:28Z</time>
      </trkpt>
      <trkpt lat="48.93178" lon="2.06344">
        <ele>54.9</ele>
        <time>2022-03-22T09:11:31Z</time>
      </trkpt>
      <trkpt lat="48.93184" lon="2.06343">
        <ele>55</ele>
        <time>2022-03-22T09:11:35Z</time>
      </trkpt>
      <trkpt lat="48.9319" lon="2.06343">
        <ele>55.2</ele>
        <time>2022-03-22T09:11:38Z</time>
      </trkpt>
      <trkpt lat="48.93196" lon="2.06343">
        <ele>56.4</ele>
        <time>2022-03-22T09:11:42Z</time>
      </trkpt>
      <trkpt lat="48.93202" lon="2.06341">
        <ele>57.1</ele>
        <time>2022-03-22T09:11:46Z</time>
      </trkpt>
      <trkpt lat="48.93206" lon="2.06339">
        <ele>56.8</ele>
        <time>2022-03-22T09:11:49Z</time>
      </trkpt>
      <trkpt lat="48.9321" lon="2.06332">
        <ele>55.5</ele>
        <time>2022-03-22T09:11:52Z</time>
      </trkpt>
      <trkpt lat="48.93212" lon="2.06325">
        <ele>55.1</ele>
        <time>2022-03-22T09:11:55Z</time>
      </trkpt>
      <trkpt lat="48.93215" lon="2.06318">
        <ele>55.2</ele>
        <time>2022-03-22T09:11:58Z</time>
      </trkpt>
      <trkpt lat="48.93219" lon="2.06312">
        <ele>55.2</ele>
        <time>2022-03-22T09:12:02Z</time>
      </trkpt>
      <trkpt lat="48.93223" lon="2.06307">
        <ele>54.8</ele>
        <time>2022-03-22T09:12:05Z</time>
      </trkpt>
      <trkpt lat="48.93229" lon="2.06305">
        <ele>53.5</ele>
        <time>2022-03-22T09:12:09Z</time>
      </trkpt>
      <trkpt lat="48.93233" lon="2.06305">
        <ele>52.9</ele>
        <time>2022-03-22T09:12:12Z</time>
      </trkpt>
      <trkpt lat="48.93239" lon="2.06304">
        <ele>52</ele>
        <time>2022-03-22T09:12:18Z</time>
      </trkpt>
      <trkpt lat="48.93244" lon="2.06304">
        <ele>50.9</ele>
        <time>2022-03-22T09:12:21Z</time>
      </trkpt>
      <trkpt lat="48.93251" lon="2.06305">
        <ele>50.7</ele>
        <time>2022-03-22T09:12:26Z</time>
      </trkpt>
      <trkpt lat="48.93256" lon="2.06305">
        <ele>50.7</ele>
        <time>2022-03-22T09:12:29Z</time>
      </trkpt>
      <trkpt lat="48.93261" lon="2.06305">
        <ele>50.3</ele>
        <time>2022-03-22T09:12:33Z</time>
      </trkpt>
      <trkpt lat="48.93266" lon="2.06305">
        <ele>48.4</ele>
        <time>2022-03-22T09:12:36Z</time>
      </trkpt>
      <trkpt lat="48.93271" lon="2.06305">
        <ele>47.5</ele>
        <time>2022-03-22T09:12:40Z</time>
      </trkpt>
      <trkpt lat="48.93277" lon="2.06303">
        <ele>47.3</ele>
        <time>2022-03-22T09:12:44Z</time>
      </trkpt>
      <trkpt lat="48.93282" lon="2.06301">
        <ele>46.7</ele>
        <time>2022-03-22T09:12:49Z</time>
      </trkpt>
      <trkpt lat="48.93288" lon="2.06302">
        <ele>45.9</ele>
        <time>2022-03-22T09:12:53Z</time>
      </trkpt>
      <trkpt lat="48.93292" lon="2.06305">
        <ele>45.1</ele>
        <time>2022-03-22T09:12:56Z</time>
      </trkpt>
      <trkpt lat="48.93296" lon="2.06309">
        <ele>44.6</ele>
        <time>2022-03-22T09:13:00Z</time>
      </trkpt>
      <trkpt lat="48.93302" lon="2.06312">
        <ele>43.8</ele>
        <time>2022-03-22T09:13:04Z</time>
      </trkpt>
      <trkpt lat="48.93306" lon="2.06315">
        <ele>43.8</ele>
        <time>2022-03-22T09:13:08Z</time>
      </trkpt>
      <trkpt lat="48.93311" lon="2.06317">
        <ele>44.2</ele>
        <time>2022-03-22T09:13:11Z</time>
      </trkpt>
      <trkpt lat="48.93316" lon="2.06319">
        <ele>45.5</ele>
        <time>2022-03-22T09:13:15Z</time>
      </trkpt>
      <trkpt lat="48.93321" lon="2.06319">
        <ele>46.7</ele>
        <time>2022-03-22T09:13:19Z</time>
      </trkpt>
      <trkpt lat="48.93326" lon="2.0632">
        <ele>47.5</ele>
        <time>2022-03-22T09:13:23Z</time>
      </trkpt>
      <trkpt lat="48.9333" lon="2.06322">
        <ele>47.6</ele>
        <time>2022-03-22T09:13:25Z</time>
      </trkpt>
      <trkpt lat="48.93334" lon="2.06325">
        <ele>47.3</ele>
        <time>2022-03-22T09:13:28Z</time>
      </trkpt>
      <trkpt lat="48.93338" lon="2.06329">
        <ele>46.9</ele>
        <time>2022-03-22T09:13:32Z</time>
      </trkpt>
      <trkpt lat="48.93341" lon="2.06335">
        <ele>47.1</ele>
        <time>2022-03-22T09:13:35Z</time>
      </trkpt>
      <trkpt lat="48.93344" lon="2.06341">
        <ele>47.3</ele>
        <time>2022-03-22T09:13:38Z</time>
      </trkpt>
      <trkpt lat="48.93348" lon="2.06346">
        <ele>48.4</ele>
        <time>2022-03-22T09:13:42Z</time>
      </trkpt>
      <trkpt lat="48.93352" lon="2.0635">
        <ele>49.6</ele>
        <time>2022-03-22T09:13:46Z</time>
      </trkpt>
      <trkpt lat="48.93356" lon="2.06354">
        <ele>50.2</ele>
        <time>2022-03-22T09:13:49Z</time>
      </trkpt>
      <trkpt lat="48.93361" lon="2.06357">
        <ele>50.1</ele>
        <time>2022-03-22T09:13:53Z</time>
      </trkpt>
      <trkpt lat="48.93366" lon="2.06358">
        <ele>49.1</ele>
        <time>2022-03-22T09:13:57Z</time>
      </trkpt>
      <trkpt lat="48.93371" lon="2.0636">
        <ele>47.7</ele>
        <time>2022-03-22T09:14:02Z</time>
      </trkpt>
      <trkpt lat="48.93377" lon="2.06364">
        <ele>47.2</ele>
        <time>2022-03-22T09:14:05Z</time>
      </trkpt>
      <trkpt lat="48.93382" lon="2.06368">
        <ele>48.1</ele>
        <time>2022-03-22T09:14:09Z</time>
      </trkpt>
      <trkpt lat="48.93385" lon="2.06374">
        <ele>49</ele>
        <time>2022-03-22T09:14:13Z</time>
      </trkpt>
      <trkpt lat="48.93389" lon="2.06381">
        <ele>49.4</ele>
        <time>2022-03-22T09:14:17Z</time>
      </trkpt>
      <trkpt lat="48.9339" lon="2.06388">
        <ele>49.5</ele>
        <time>2022-03-22T09:14:20Z</time>
      </trkpt>
      <trkpt lat="48.93391" lon="2.06395">
        <ele>49.5</ele>
        <time>2022-03-22T09:14:24Z</time>
      </trkpt>
      <trkpt lat="48.93394" lon="2.06402">
        <ele>49.2</ele>
        <time>2022-03-22T09:14:27Z</time>
      </trkpt>
      <trkpt lat="48.93395" lon="2.06409">
        <ele>48.2</ele>
        <time>2022-03-22T09:14:30Z</time>
      </trkpt>
      <trkpt lat="48.93398" lon="2.06417">
        <ele>47.1</ele>
        <time>2022-03-22T09:14:34Z</time>
      </trkpt>
      <trkpt lat="48.934" lon="2.06425">
        <ele>46.8</ele>
        <time>2022-03-22T09:14:38Z</time>
      </trkpt>
      <trkpt lat="48.93403" lon="2.06432">
        <ele>47.2</ele>
        <time>2022-03-22T09:14:43Z</time>
      </trkpt>
      <trkpt lat="48.93406" lon="2.06438">
        <ele>47.8</ele>
        <time>2022-03-22T09:14:47Z</time>
      </trkpt>
      <trkpt lat="48.9341" lon="2.0644">
        <ele>49</ele>
        <time>2022-03-22T09:14:51Z</time>
      </trkpt>
      <trkpt lat="48.93416" lon="2.06442">
        <ele>49.9</ele>
        <time>2022-03-22T09:14:55Z</time>
      </trkpt>
      <trkpt lat="48.93421" lon="2.06444">
        <ele>50.7</ele>
        <time>2022-03-22T09:14:58Z</time>
      </trkpt>
      <trkpt lat="48.93426" lon="2.06444">
        <ele>51.7</ele>
        <time>2022-03-22T09:15:02Z</time>
      </trkpt>
      <trkpt lat="48.93431" lon="2.0644">
        <ele>51.7</ele>
        <time>2022-03-22T09:15:06Z</time>
      </trkpt>
      <trkpt lat="48.93435" lon="2.06436">
        <ele>51.9</ele>
        <time>2022-03-22T09:15:09Z</time>
      </trkpt>
      <trkpt lat="48.93439" lon="2.06433">
        <ele>51.8</ele>
        <time>2022-03-22T09:15:13Z</time>
      </trkpt>
      <trkpt lat="48.93444" lon="2.06429">
        <ele>52.3</ele>
        <time>2022-03-22T09:15:17Z</time>
      </trkpt>
      <trkpt lat="48.93449" lon="2.06423">
        <ele>52.9</ele>
        <time>2022-03-22T09:15:20Z</time>
      </trkpt>
      <trkpt lat="48.93453" lon="2.06416">
        <ele>54.2</ele>
        <time>2022-03-22T09:15:24Z</time>
      </trkpt>
      <trkpt lat="48.93457" lon="2.06409">
        <ele>54.3</ele>
        <time>2022-03-22T09:15:28Z</time>
      </trkpt>
      <trkpt lat="48.9346" lon="2.06404">
        <ele>53.6</ele>
        <time>2022-03-22T09:15:31Z</time>
      </trkpt>
      <trkpt lat="48.93464" lon="2.06398">
        <ele>52.8</ele>
        <time>2022-03-22T09:15:36Z</time>
      </trkpt>
      <trkpt lat="48.93467" lon="2.06392">
        <ele>52.5</ele>
        <time>2022-03-22T09:15:39Z</time>
      </trkpt>
      <trkpt lat="48.93471" lon="2.06387">
        <ele>51.8</ele>
        <time>2022-03-22T09:15:43Z</time>
      </trkpt>
      <trkpt lat="48.93474" lon="2.06381">
        <ele>50.6</ele>
        <time>2022-03-22T09:15:46Z</time>
      </trkpt>
      <trkpt lat="48.9348" lon="2.06379">
        <ele>48.7</ele>
        <time>2022-03-22T09:15:50Z</time>
      </trkpt>
      <trkpt lat="48.93485" lon="2.06379">
        <ele>46.9</ele>
        <time>2022-03-22T09:15:54Z</time>
      </trkpt>
      <trkpt lat="48.93489" lon="2.06377">
        <ele>46.3</ele>
        <time>2022-03-22T09:15:57Z</time>
      </trkpt>
      <trkpt lat="48.93495" lon="2.06375">
        <ele>46</ele>
        <time>2022-03-22T09:16:02Z</time>
      </trkpt>
      <trkpt lat="48.935" lon="2.06372">
        <ele>45.1</ele>
        <time>2022-03-22T09:16:06Z</time>
      </trkpt>
      <trkpt lat="48.93505" lon="2.0637">
        <ele>44.8</ele>
        <time>2022-03-22T09:16:09Z</time>
      </trkpt>
      <trkpt lat="48.9351" lon="2.06371">
        <ele>44.6</ele>
        <time>2022-03-22T09:16:13Z</time>
      </trkpt>
      <trkpt lat="48.93515" lon="2.06374">
        <ele>44.3</ele>
        <time>2022-03-22T09:16:17Z</time>
      </trkpt>
      <trkpt lat="48.9352" lon="2.06378">
        <ele>43.8</ele>
        <time>2022-03-22T09:16:22Z</time>
      </trkpt>
      <trkpt lat="48.93524" lon="2.06382">
        <ele>43.9</ele>
        <time>2022-03-22T09:16:26Z</time>
      </trkpt>
      <trkpt lat="48.93528" lon="2.06388">
        <ele>44.4</ele>
        <time>2022-03-22T09:16:29Z</time>
      </trkpt>
      <trkpt lat="48.9353" lon="2.06395">
        <ele>44.1</ele>
        <time>2022-03-22T09:16:33Z</time>
      </trkpt>
      <trkpt lat="48.93532" lon="2.06403">
        <ele>43.9</ele>
        <time>2022-03-22T09:16:37Z</time>
      </trkpt>
      <trkpt lat="48.93535" lon="2.06408">
        <ele>43.7</ele>
        <time>2022-03-22T09:16:41Z</time>
      </trkpt>
      <trkpt lat="48.93539" lon="2.06413">
        <ele>42.8</ele>
        <time>2022-03-22T09:16:44Z</time>
      </trkpt>
      <trkpt lat="48.93542" lon="2.06417">
        <ele>41.4</ele>
        <time>2022-03-22T09:16:48Z</time>
      </trkpt>
      <trkpt lat="48.93546" lon="2.06422">
        <ele>40.2</ele>
        <time>2022-03-22T09:16:52Z</time>
      </trkpt>
      <trkpt lat="48.9355" lon="2.06428">
        <ele>40</ele>
        <time>2022-03-22T09:16:56Z</time>
      </trkpt>
      <trkpt lat="48.93552" lon="2.06435">
        <ele>40.5</ele>
        <time>2022-03-22T09:16:59Z</time>
      </trkpt>
      <trkpt lat="48.93555" lon="2.06444">
        <ele>41.1</ele>
        <time>2022-03-22T09:17:04Z</time>
      </trkpt>
      <trkpt lat="48.93559" lon="2.06448">
        <ele>41.7</ele>
        <time>2022-03-22T09:17:07Z</time>
      </trkpt>
      <trkpt lat="48.93563" lon="2.06451">
        <ele>42.5</ele>
        <time>2022-03-22T09:17:11Z</time>
      </trkpt>
      <trkpt lat="48.93568" lon="2.06453">
        <ele>43.1</ele>
        <time>2022-03-22T09:17:14Z</time>
      </trkpt>
      <trkpt lat="48.93573" lon="2.06455">
        <ele>43.3</ele>
        <time>2022-03-22T09:17:18Z</time>
      </trkpt>
      <trkpt lat="48.93578" lon="2.06462">
        <ele>42.9</ele>
        <time>2022-03-22T09:17:23Z</time>
      </trkpt>
      <trkpt lat="48.93581" lon="2.06468">
        <ele>42.8</ele>
        <time>2022-03-22T09:17:27Z</time>
      </trkpt>
      <trkpt lat="48.93584" lon="2.06474">
        <ele>42.4</ele>
        <time>2022-03-22T09:17:30Z</time>
      </trkpt>
      <trkpt lat="48.93588" lon="2.0648">
        <ele>42.1</ele>
        <time>2022-03-22T09:17:34Z</time>
      </trkpt>
      <trkpt lat="48.93591" lon="2.06486">
        <ele>41.5</ele>
        <time>2022-03-22T09:17:38Z</time>
      </trkpt>
      <trkpt lat="48.93595" lon="2.06492">
        <ele>42.3</ele>
        <time>2022-03-22T09:17:42Z</time>
      </trkpt>
      <trkpt lat="48.936" lon="2.06495">
        <ele>42.8</ele>
        <time>2022-03-22T09:17:45Z</time>
      </trkpt>
      <trkpt lat="48.93605" lon="2.06498">
        <ele>42.1</ele>
        <time>2022-03-22T09:17:49Z</time>
      </trkpt>
      <trkpt lat="48.93609" lon="2.06502">
        <ele>41.6</ele>
        <time>2022-03-22T09:17:53Z</time>
      </trkpt>
      <trkpt lat="48.93614" lon="2.06507">
        <ele>41.4</ele>
        <time>2022-03-22T09:17:56Z</time>
      </trkpt>
      <trkpt lat="48.93619" lon="2.06511">
        <ele>41.7</ele>
        <time>2022-03-22T09:18:00Z</time>
      </trkpt>
      <trkpt lat="48.93623" lon="2.06516">
        <ele>41.7</ele>
        <time>2022-03-22T09:18:04Z</time>
      </trkpt>
      <trkpt lat="48.93627" lon="2.0652">
        <ele>41.7</ele>
        <time>2022-03-22T09:18:08Z</time>
      </trkpt>
      <trkpt lat="48.93631" lon="2.06525">
        <ele>41.4</ele>
        <time>2022-03-22T09:18:12Z</time>
      </trkpt>
      <trkpt lat="48.93636" lon="2.06529">
        <ele>41.1</ele>
        <time>2022-03-22T09:18:18Z</time>
      </trkpt>
      <trkpt lat="48.93641" lon="2.06535">
        <ele>41</ele>
        <time>2022-03-22T09:18:22Z</time>
      </trkpt>
      <trkpt lat="48.93644" lon="2.0654">
        <ele>41.2</ele>
        <time>2022-03-22T09:18:27Z</time>
      </trkpt>
      <trkpt lat="48.9364" lon="2.06534">
        <ele>41.8</ele>
        <time>2022-03-22T09:18:32Z</time>
      </trkpt>
      <trkpt lat="48.93635" lon="2.06533">
        <ele>42.4</ele>
        <time>2022-03-22T09:18:36Z</time>
      </trkpt>
      <trkpt lat="48.9363" lon="2.06533">
        <ele>42.4</ele>
        <time>2022-03-22T09:18:39Z</time>
      </trkpt>
      <trkpt lat="48.93624" lon="2.06536">
        <ele>42.2</ele>
        <time>2022-03-22T09:18:43Z</time>
      </trkpt>
      <trkpt lat="48.93619" lon="2.06539">
        <ele>41.8</ele>
        <time>2022-03-22T09:18:47Z</time>
      </trkpt>
      <trkpt lat="48.93614" lon="2.06542">
        <ele>41.3</ele>
        <time>2022-03-22T09:18:51Z</time>
      </trkpt>
      <trkpt lat="48.93609" lon="2.06544">
        <ele>40.5</ele>
        <time>2022-03-22T09:18:56Z</time>
      </trkpt>
      <trkpt lat="48.93604" lon="2.06546">
        <ele>39.5</ele>
        <time>2022-03-22T09:18:59Z</time>
      </trkpt>
      <trkpt lat="48.93598" lon="2.06547">
        <ele>39</ele>
        <time>2022-03-22T09:19:03Z</time>
      </trkpt>
      <trkpt lat="48.93593" lon="2.06549">
        <ele>38.9</ele>
        <time>2022-03-22T09:19:07Z</time>
      </trkpt>
      <trkpt lat="48.93588" lon="2.06552">
        <ele>39.5</ele>
        <time>2022-03-22T09:19:11Z</time>
      </trkpt>
      <trkpt lat="48.93583" lon="2.06553">
        <ele>41.2</ele>
        <time>2022-03-22T09:19:15Z</time>
      </trkpt>
      <trkpt lat="48.93579" lon="2.06554">
        <ele>43.3</ele>
        <time>2022-03-22T09:19:19Z</time>
      </trkpt>
      <trkpt lat="48.93573" lon="2.06555">
        <ele>44.2</ele>
        <time>2022-03-22T09:19:23Z</time>
      </trkpt>
      <trkpt lat="48.93569" lon="2.06555">
        <ele>44.1</ele>
        <time>2022-03-22T09:19:26Z</time>
      </trkpt>
      <trkpt lat="48.93564" lon="2.06555">
        <ele>44.6</ele>
        <time>2022-03-22T09:19:30Z</time>
      </trkpt>
      <trkpt lat="48.93559" lon="2.06557">
        <ele>45</ele>
        <time>2022-03-22T09:19:34Z</time>
      </trkpt>
      <trkpt lat="48.93554" lon="2.06558">
        <ele>45.4</ele>
        <time>2022-03-22T09:19:38Z</time>
      </trkpt>
      <trkpt lat="48.93549" lon="2.06559">
        <ele>46.1</ele>
        <time>2022-03-22T09:19:42Z</time>
      </trkpt>
      <trkpt lat="48.93545" lon="2.06561">
        <ele>46.5</ele>
        <time>2022-03-22T09:19:46Z</time>
      </trkpt>
      <trkpt lat="48.9354" lon="2.06563">
        <ele>47.1</ele>
        <time>2022-03-22T09:19:50Z</time>
      </trkpt>
      <trkpt lat="48.93535" lon="2.06564">
        <ele>48.3</ele>
        <time>2022-03-22T09:19:54Z</time>
      </trkpt>
      <trkpt lat="48.93529" lon="2.06566">
        <ele>49.3</ele>
        <time>2022-03-22T09:19:59Z</time>
      </trkpt>
      <trkpt lat="48.93524" lon="2.0657">
        <ele>48.9</ele>
        <time>2022-03-22T09:20:03Z</time>
      </trkpt>
      <trkpt lat="48.93519" lon="2.06572">
        <ele>48</ele>
        <time>2022-03-22T09:20:08Z</time>
      </trkpt>
      <trkpt lat="48.93514" lon="2.06574">
        <ele>47.8</ele>
        <time>2022-03-22T09:20:12Z</time>
      </trkpt>
      <trkpt lat="48.93509" lon="2.06576">
        <ele>49.1</ele>
        <time>2022-03-22T09:20:16Z</time>
      </trkpt>
      <trkpt lat="48.93504" lon="2.06577">
        <ele>50.2</ele>
        <time>2022-03-22T09:20:20Z</time>
      </trkpt>
      <trkpt lat="48.93499" lon="2.06577">
        <ele>50.3</ele>
        <time>2022-03-22T09:20:24Z</time>
      </trkpt>
      <trkpt lat="48.93494" lon="2.06578">
        <ele>50.1</ele>
        <time>2022-03-22T09:20:28Z</time>
      </trkpt>
      <trkpt lat="48.93489" lon="2.0658">
        <ele>49.4</ele>
        <time>2022-03-22T09:20:31Z</time>
      </trkpt>
      <trkpt lat="48.93484" lon="2.06582">
        <ele>49.1</ele>
        <time>2022-03-22T09:20:35Z</time>
      </trkpt>
      <trkpt lat="48.9348" lon="2.06584">
        <ele>48.8</ele>
        <time>2022-03-22T09:20:39Z</time>
      </trkpt>
      <trkpt lat="48.93475" lon="2.06585">
        <ele>48.9</ele>
        <time>2022-03-22T09:20:43Z</time>
      </trkpt>
      <trkpt lat="48.93471" lon="2.06588">
        <ele>49</ele>
        <time>2022-03-22T09:20:47Z</time>
      </trkpt>
      <trkpt lat="48.93466" lon="2.0659">
        <ele>50.2</ele>
        <time>2022-03-22T09:20:51Z</time>
      </trkpt>
      <trkpt lat="48.9346" lon="2.06591">
        <ele>50.7</ele>
        <time>2022-03-22T09:20:55Z</time>
      </trkpt>
      <trkpt lat="48.93455" lon="2.06593">
        <ele>51</ele>
        <time>2022-03-22T09:21:00Z</time>
      </trkpt>
      <trkpt lat="48.9345" lon="2.06595">
        <ele>51.7</ele>
        <time>2022-03-22T09:21:03Z</time>
      </trkpt>
      <trkpt lat="48.93446" lon="2.06597">
        <ele>52.6</ele>
        <time>2022-03-22T09:21:07Z</time>
      </trkpt>
      <trkpt lat="48.93441" lon="2.06599">
        <ele>53.2</ele>
        <time>2022-03-22T09:21:12Z</time>
      </trkpt>
      <trkpt lat="48.93436" lon="2.06602">
        <ele>54.1</ele>
        <time>2022-03-22T09:21:16Z</time>
      </trkpt>
      <trkpt lat="48.93431" lon="2.06602">
        <ele>54.8</ele>
        <time>2022-03-22T09:21:19Z</time>
      </trkpt>
      <trkpt lat="48.93426" lon="2.06603">
        <ele>54.8</ele>
        <time>2022-03-22T09:21:23Z</time>
      </trkpt>
      <trkpt lat="48.93421" lon="2.06604">
        <ele>54.5</ele>
        <time>2022-03-22T09:21:27Z</time>
      </trkpt>
      <trkpt lat="48.93415" lon="2.06606">
        <ele>54.5</ele>
        <time>2022-03-22T09:21:31Z</time>
      </trkpt>
      <trkpt lat="48.9341" lon="2.06609">
        <ele>53.8</ele>
        <time>2022-03-22T09:21:36Z</time>
      </trkpt>
      <trkpt lat="48.93405" lon="2.06612">
        <ele>52.6</ele>
        <time>2022-03-22T09:21:41Z</time>
      </trkpt>
      <trkpt lat="48.93399" lon="2.06615">
        <ele>52.6</ele>
        <time>2022-03-22T09:21:45Z</time>
      </trkpt>
      <trkpt lat="48.93394" lon="2.06617">
        <ele>53.8</ele>
        <time>2022-03-22T09:21:50Z</time>
      </trkpt>
      <trkpt lat="48.93389" lon="2.06618">
        <ele>54.6</ele>
        <time>2022-03-22T09:21:54Z</time>
      </trkpt>
      <trkpt lat="48.93384" lon="2.0662">
        <ele>54.5</ele>
        <time>2022-03-22T09:21:57Z</time>
      </trkpt>
      <trkpt lat="48.93379" lon="2.06621">
        <ele>54.3</ele>
        <time>2022-03-22T09:22:01Z</time>
      </trkpt>
      <trkpt lat="48.93373" lon="2.06622">
        <ele>54.1</ele>
        <time>2022-03-22T09:22:05Z</time>
      </trkpt>
      <trkpt lat="48.93368" lon="2.06623">
        <ele>54.4</ele>
        <time>2022-03-22T09:22:09Z</time>
      </trkpt>
      <trkpt lat="48.93363" lon="2.06624">
        <ele>55.3</ele>
        <time>2022-03-22T09:22:13Z</time>
      </trkpt>
      <trkpt lat="48.93358" lon="2.06626">
        <ele>56.8</ele>
        <time>2022-03-22T09:22:17Z</time>
      </trkpt>
      <trkpt lat="48.93355" lon="2.06632">
        <ele>57.9</ele>
        <time>2022-03-22T09:22:22Z</time>
      </trkpt>
      <trkpt lat="48.93357" lon="2.06639">
        <ele>58</ele>
        <time>2022-03-22T09:22:25Z</time>
      </trkpt>
      <trkpt lat="48.93362" lon="2.06644">
        <ele>57.7</ele>
        <time>2022-03-22T09:22:29Z</time>
      </trkpt>
      <trkpt lat="48.93366" lon="2.06648">
        <ele>56.6</ele>
        <time>2022-03-22T09:22:32Z</time>
      </trkpt>
      <trkpt lat="48.93368" lon="2.06641">
        <ele>57.1</ele>
        <time>2022-03-22T09:24:17Z</time>
      </trkpt>
      <trkpt lat="48.93372" lon="2.06645">
        <ele>54</ele>
        <time>2022-03-22T09:24:47Z</time>
      </trkpt>
      <trkpt lat="48.93374" lon="2.06652">
        <ele>50.4</ele>
        <time>2022-03-22T09:24:53Z</time>
      </trkpt>
      <trkpt lat="48.93378" lon="2.06655">
        <ele>50.4</ele>
        <time>2022-03-22T09:24:56Z</time>
      </trkpt>
      <trkpt lat="48.93384" lon="2.0666">
        <ele>50.6</ele>
        <time>2022-03-22T09:24:59Z</time>
      </trkpt>
      <trkpt lat="48.93388" lon="2.06664">
        <ele>50.9</ele>
        <time>2022-03-22T09:25:03Z</time>
      </trkpt>
      <trkpt lat="48.93391" lon="2.0667">
        <ele>51.9</ele>
        <time>2022-03-22T09:25:07Z</time>
      </trkpt>
      <trkpt lat="48.93394" lon="2.06676">
        <ele>52.5</ele>
        <time>2022-03-22T09:25:10Z</time>
      </trkpt>
      <trkpt lat="48.93396" lon="2.06683">
        <ele>52.9</ele>
        <time>2022-03-22T09:25:13Z</time>
      </trkpt>
      <trkpt lat="48.93399" lon="2.0669">
        <ele>53.4</ele>
        <time>2022-03-22T09:25:17Z</time>
      </trkpt>
      <trkpt lat="48.93403" lon="2.06697">
        <ele>55.1</ele>
        <time>2022-03-22T09:25:21Z</time>
      </trkpt>
      <trkpt lat="48.93406" lon="2.06703">
        <ele>56.6</ele>
        <time>2022-03-22T09:25:24Z</time>
      </trkpt>
      <trkpt lat="48.93409" lon="2.0671">
        <ele>57.1</ele>
        <time>2022-03-22T09:25:27Z</time>
      </trkpt>
      <trkpt lat="48.93413" lon="2.06715">
        <ele>55.8</ele>
        <time>2022-03-22T09:25:31Z</time>
      </trkpt>
      <trkpt lat="48.93417" lon="2.06719">
        <ele>54.6</ele>
        <time>2022-03-22T09:25:35Z</time>
      </trkpt>
      <trkpt lat="48.93422" lon="2.06723">
        <ele>54.3</ele>
        <time>2022-03-22T09:25:39Z</time>
      </trkpt>
      <trkpt lat="48.93426" lon="2.06725">
        <ele>54.2</ele>
        <time>2022-03-22T09:25:43Z</time>
      </trkpt>
      <trkpt lat="48.9343" lon="2.0673">
        <ele>54</ele>
        <time>2022-03-22T09:25:47Z</time>
      </trkpt>
      <trkpt lat="48.93434" lon="2.06735">
        <ele>53.8</ele>
        <time>2022-03-22T09:25:50Z</time>
      </trkpt>
      <trkpt lat="48.93438" lon="2.0674">
        <ele>53.1</ele>
        <time>2022-03-22T09:25:54Z</time>
      </trkpt>
      <trkpt lat="48.93442" lon="2.06745">
        <ele>52.5</ele>
        <time>2022-03-22T09:25:58Z</time>
      </trkpt>
      <trkpt lat="48.93447" lon="2.06749">
        <ele>52.5</ele>
        <time>2022-03-22T09:26:02Z</time>
      </trkpt>
      <trkpt lat="48.93451" lon="2.06755">
        <ele>52.8</ele>
        <time>2022-03-22T09:26:05Z</time>
      </trkpt>
      <trkpt lat="48.93455" lon="2.0676">
        <ele>53.6</ele>
        <time>2022-03-22T09:26:08Z</time>
      </trkpt>
      <trkpt lat="48.93459" lon="2.06765">
        <ele>54.1</ele>
        <time>2022-03-22T09:26:12Z</time>
      </trkpt>
      <trkpt lat="48.93463" lon="2.06769">
        <ele>54.4</ele>
        <time>2022-03-22T09:26:15Z</time>
      </trkpt>
      <trkpt lat="48.93467" lon="2.06773">
        <ele>54.7</ele>
        <time>2022-03-22T09:26:19Z</time>
      </trkpt>
      <trkpt lat="48.93471" lon="2.06777">
        <ele>54.5</ele>
        <time>2022-03-22T09:26:23Z</time>
      </trkpt>
      <trkpt lat="48.93475" lon="2.06782">
        <ele>53.7</ele>
        <time>2022-03-22T09:26:26Z</time>
      </trkpt>
      <trkpt lat="48.93479" lon="2.06786">
        <ele>53.6</ele>
        <time>2022-03-22T09:26:30Z</time>
      </trkpt>
      <trkpt lat="48.93484" lon="2.06792">
        <ele>53.8</ele>
        <time>2022-03-22T09:26:35Z</time>
      </trkpt>
      <trkpt lat="48.93488" lon="2.06798">
        <ele>54.2</ele>
        <time>2022-03-22T09:26:39Z</time>
      </trkpt>
      <trkpt lat="48.93492" lon="2.06802">
        <ele>54</ele>
        <time>2022-03-22T09:26:42Z</time>
      </trkpt>
      <trkpt lat="48.93496" lon="2.06808">
        <ele>52.8</ele>
        <time>2022-03-22T09:26:47Z</time>
      </trkpt>
      <trkpt lat="48.93497" lon="2.06815">
        <ele>51.5</ele>
        <time>2022-03-22T09:26:50Z</time>
      </trkpt>
      <trkpt lat="48.935" lon="2.06821">
        <ele>51</ele>
        <time>2022-03-22T09:26:54Z</time>
      </trkpt>
      <trkpt lat="48.93503" lon="2.06827">
        <ele>51.1</ele>
        <time>2022-03-22T09:26:58Z</time>
      </trkpt>
      <trkpt lat="48.93507" lon="2.06832">
        <ele>51.9</ele>
        <time>2022-03-22T09:27:02Z</time>
      </trkpt>
      <trkpt lat="48.93511" lon="2.06836">
        <ele>52.9</ele>
        <time>2022-03-22T09:27:05Z</time>
      </trkpt>
      <trkpt lat="48.93515" lon="2.0684">
        <ele>53.8</ele>
        <time>2022-03-22T09:27:08Z</time>
      </trkpt>
      <trkpt lat="48.9352" lon="2.06843">
        <ele>53.8</ele>
        <time>2022-03-22T09:27:12Z</time>
      </trkpt>
      <trkpt lat="48.93525" lon="2.06848">
        <ele>53.5</ele>
        <time>2022-03-22T09:27:17Z</time>
      </trkpt>
      <trkpt lat="48.9353" lon="2.06854">
        <ele>53.1</ele>
        <time>2022-03-22T09:27:20Z</time>
      </trkpt>
      <trkpt lat="48.93534" lon="2.06861">
        <ele>53.2</ele>
        <time>2022-03-22T09:27:24Z</time>
      </trkpt>
      <trkpt lat="48.93537" lon="2.06866">
        <ele>53.8</ele>
        <time>2022-03-22T09:27:28Z</time>
      </trkpt>
      <trkpt lat="48.93542" lon="2.06872">
        <ele>54.3</ele>
        <time>2022-03-22T09:27:32Z</time>
      </trkpt>
      <trkpt lat="48.93546" lon="2.06878">
        <ele>54.5</ele>
        <time>2022-03-22T09:27:35Z</time>
      </trkpt>
      <trkpt lat="48.93549" lon="2.06884">
        <ele>54.8</ele>
        <time>2022-03-22T09:27:39Z</time>
      </trkpt>
      <trkpt lat="48.93553" lon="2.06889">
        <ele>54.3</ele>
        <time>2022-03-22T09:27:43Z</time>
      </trkpt>
      <trkpt lat="48.93557" lon="2.06894">
        <ele>53.4</ele>
        <time>2022-03-22T09:27:47Z</time>
      </trkpt>
      <trkpt lat="48.93561" lon="2.06899">
        <ele>52.5</ele>
        <time>2022-03-22T09:27:50Z</time>
      </trkpt>
      <trkpt lat="48.93566" lon="2.06904">
        <ele>52.4</ele>
        <time>2022-03-22T09:27:54Z</time>
      </trkpt>
      <trkpt lat="48.9357" lon="2.06908">
        <ele>52.7</ele>
        <time>2022-03-22T09:27:58Z</time>
      </trkpt>
      <trkpt lat="48.93574" lon="2.06912">
        <ele>53.5</ele>
        <time>2022-03-22T09:28:01Z</time>
      </trkpt>
      <trkpt lat="48.93577" lon="2.06917">
        <ele>53.7</ele>
        <time>2022-03-22T09:28:04Z</time>
      </trkpt>
      <trkpt lat="48.93581" lon="2.06923">
        <ele>52.8</ele>
        <time>2022-03-22T09:28:08Z</time>
      </trkpt>
      <trkpt lat="48.93585" lon="2.0693">
        <ele>50.8</ele>
        <time>2022-03-22T09:28:13Z</time>
      </trkpt>
      <trkpt lat="48.93589" lon="2.06935">
        <ele>50.2</ele>
        <time>2022-03-22T09:28:17Z</time>
      </trkpt>
      <trkpt lat="48.93593" lon="2.0694">
        <ele>50.7</ele>
        <time>2022-03-22T09:28:20Z</time>
      </trkpt>
      <trkpt lat="48.93597" lon="2.06945">
        <ele>51.3</ele>
        <time>2022-03-22T09:28:24Z</time>
      </trkpt>
      <trkpt lat="48.93599" lon="2.06952">
        <ele>52</ele>
        <time>2022-03-22T09:28:29Z</time>
      </trkpt>
      <trkpt lat="48.936" lon="2.06959">
        <ele>52.3</ele>
        <time>2022-03-22T09:28:33Z</time>
      </trkpt>
      <trkpt lat="48.93604" lon="2.06963">
        <ele>51.3</ele>
        <time>2022-03-22T09:28:39Z</time>
      </trkpt>
      <trkpt lat="48.93609" lon="2.06968">
        <ele>50.7</ele>
        <time>2022-03-22T09:28:44Z</time>
      </trkpt>
      <trkpt lat="48.93614" lon="2.06972">
        <ele>49.6</ele>
        <time>2022-03-22T09:28:48Z</time>
      </trkpt>
      <trkpt lat="48.93619" lon="2.06977">
        <ele>49.3</ele>
        <time>2022-03-22T09:28:51Z</time>
      </trkpt>
      <trkpt lat="48.93623" lon="2.06984">
        <ele>49.9</ele>
        <time>2022-03-22T09:28:55Z</time>
      </trkpt>
      <trkpt lat="48.93626" lon="2.06989">
        <ele>50.5</ele>
        <time>2022-03-22T09:28:59Z</time>
      </trkpt>
      <trkpt lat="48.9363" lon="2.06995">
        <ele>50.9</ele>
        <time>2022-03-22T09:29:02Z</time>
      </trkpt>
      <trkpt lat="48.93633" lon="2.07">
        <ele>51.1</ele>
        <time>2022-03-22T09:29:06Z</time>
      </trkpt>
      <trkpt lat="48.93637" lon="2.07005">
        <ele>51</ele>
        <time>2022-03-22T09:29:10Z</time>
      </trkpt>
      <trkpt lat="48.93641" lon="2.07009">
        <ele>51.3</ele>
        <time>2022-03-22T09:29:13Z</time>
      </trkpt>
      <trkpt lat="48.93645" lon="2.07015">
        <ele>51.8</ele>
        <time>2022-03-22T09:29:16Z</time>
      </trkpt>
      <trkpt lat="48.9365" lon="2.07019">
        <ele>51.9</ele>
        <time>2022-03-22T09:29:20Z</time>
      </trkpt>
      <trkpt lat="48.93655" lon="2.07024">
        <ele>51.3</ele>
        <time>2022-03-22T09:29:24Z</time>
      </trkpt>
      <trkpt lat="48.93659" lon="2.07029">
        <ele>50.5</ele>
        <time>2022-03-22T09:29:27Z</time>
      </trkpt>
      <trkpt lat="48.93663" lon="2.07035">
        <ele>50.3</ele>
        <time>2022-03-22T09:29:31Z</time>
      </trkpt>
      <trkpt lat="48.93667" lon="2.0704">
        <ele>50.4</ele>
        <time>2022-03-22T09:29:35Z</time>
      </trkpt>
      <trkpt lat="48.9367" lon="2.07044">
        <ele>50.3</ele>
        <time>2022-03-22T09:29:37Z</time>
      </trkpt>
      <trkpt lat="48.93674" lon="2.07048">
        <ele>50</ele>
        <time>2022-03-22T09:29:40Z</time>
      </trkpt>
      <trkpt lat="48.93679" lon="2.07055">
        <ele>50.1</ele>
        <time>2022-03-22T09:29:44Z</time>
      </trkpt>
      <trkpt lat="48.93682" lon="2.07061">
        <ele>50.1</ele>
        <time>2022-03-22T09:29:48Z</time>
      </trkpt>
      <trkpt lat="48.93686" lon="2.07067">
        <ele>50</ele>
        <time>2022-03-22T09:29:51Z</time>
      </trkpt>
      <trkpt lat="48.9369" lon="2.07073">
        <ele>49.5</ele>
        <time>2022-03-22T09:29:55Z</time>
      </trkpt>
      <trkpt lat="48.93693" lon="2.07078">
        <ele>49.6</ele>
        <time>2022-03-22T09:29:58Z</time>
      </trkpt>
      <trkpt lat="48.93697" lon="2.07083">
        <ele>49.9</ele>
        <time>2022-03-22T09:30:02Z</time>
      </trkpt>
      <trkpt lat="48.93701" lon="2.07088">
        <ele>50.5</ele>
        <time>2022-03-22T09:30:05Z</time>
      </trkpt>
      <trkpt lat="48.93704" lon="2.07093">
        <ele>51</ele>
        <time>2022-03-22T09:30:09Z</time>
      </trkpt>
      <trkpt lat="48.93708" lon="2.07098">
        <ele>51.6</ele>
        <time>2022-03-22T09:30:13Z</time>
      </trkpt>
      <trkpt lat="48.93713" lon="2.07103">
        <ele>52.4</ele>
        <time>2022-03-22T09:30:17Z</time>
      </trkpt>
      <trkpt lat="48.93718" lon="2.07108">
        <ele>52.8</ele>
        <time>2022-03-22T09:30:20Z</time>
      </trkpt>
      <trkpt lat="48.93722" lon="2.07112">
        <ele>52.6</ele>
        <time>2022-03-22T09:30:23Z</time>
      </trkpt>
      <trkpt lat="48.93726" lon="2.07116">
        <ele>52.5</ele>
        <time>2022-03-22T09:30:27Z</time>
      </trkpt>
      <trkpt lat="48.9373" lon="2.0712">
        <ele>52.8</ele>
        <time>2022-03-22T09:30:30Z</time>
      </trkpt>
      <trkpt lat="48.93735" lon="2.07125">
        <ele>53.3</ele>
        <time>2022-03-22T09:30:34Z</time>
      </trkpt>
      <trkpt lat="48.93738" lon="2.07129">
        <ele>53.4</ele>
        <time>2022-03-22T09:30:37Z</time>
      </trkpt>
      <trkpt lat="48.93742" lon="2.07135">
        <ele>52.3</ele>
        <time>2022-03-22T09:30:42Z</time>
      </trkpt>
      <trkpt lat="48.93746" lon="2.07141">
        <ele>51</ele>
        <time>2022-03-22T09:30:45Z</time>
      </trkpt>
      <trkpt lat="48.93751" lon="2.07147">
        <ele>50.7</ele>
        <time>2022-03-22T09:30:49Z</time>
      </trkpt>
      <trkpt lat="48.93754" lon="2.07151">
        <ele>50.9</ele>
        <time>2022-03-22T09:30:53Z</time>
      </trkpt>
      <trkpt lat="48.93758" lon="2.07157">
        <ele>51</ele>
        <time>2022-03-22T09:30:56Z</time>
      </trkpt>
      <trkpt lat="48.93763" lon="2.07162">
        <ele>50.9</ele>
        <time>2022-03-22T09:31:00Z</time>
      </trkpt>
      <trkpt lat="48.93767" lon="2.07166">
        <ele>51</ele>
        <time>2022-03-22T09:31:04Z</time>
      </trkpt>
      <trkpt lat="48.93771" lon="2.07171">
        <ele>51.1</ele>
        <time>2022-03-22T09:31:07Z</time>
      </trkpt>
      <trkpt lat="48.93775" lon="2.07177">
        <ele>51.8</ele>
        <time>2022-03-22T09:31:11Z</time>
      </trkpt>
      <trkpt lat="48.93779" lon="2.07182">
        <ele>51.8</ele>
        <time>2022-03-22T09:31:15Z</time>
      </trkpt>
      <trkpt lat="48.93784" lon="2.07186">
        <ele>51.6</ele>
        <time>2022-03-22T09:31:19Z</time>
      </trkpt>
      <trkpt lat="48.93789" lon="2.0719">
        <ele>51.3</ele>
        <time>2022-03-22T09:31:22Z</time>
      </trkpt>
      <trkpt lat="48.93793" lon="2.07195">
        <ele>52.1</ele>
        <time>2022-03-22T09:31:26Z</time>
      </trkpt>
      <trkpt lat="48.93796" lon="2.072">
        <ele>52.8</ele>
        <time>2022-03-22T09:31:30Z</time>
      </trkpt>
      <trkpt lat="48.93793" lon="2.07207">
        <ele>52.4</ele>
        <time>2022-03-22T09:31:35Z</time>
      </trkpt>
      <trkpt lat="48.9379" lon="2.07212">
        <ele>50.4</ele>
        <time>2022-03-22T09:31:40Z</time>
      </trkpt>
      <trkpt lat="48.93784" lon="2.07213">
        <ele>48.7</ele>
        <time>2022-03-22T09:31:44Z</time>
      </trkpt>
      <trkpt lat="48.9378" lon="2.07217">
        <ele>48.2</ele>
        <time>2022-03-22T09:31:48Z</time>
      </trkpt>
      <trkpt lat="48.93776" lon="2.07221">
        <ele>48.7</ele>
        <time>2022-03-22T09:31:53Z</time>
      </trkpt>
      <trkpt lat="48.93772" lon="2.07225">
        <ele>50.2</ele>
        <time>2022-03-22T09:31:57Z</time>
      </trkpt>
      <trkpt lat="48.93768" lon="2.0723">
        <ele>51.4</ele>
        <time>2022-03-22T09:32:03Z</time>
      </trkpt>
      <trkpt lat="48.93764" lon="2.07236">
        <ele>52.2</ele>
        <time>2022-03-22T09:32:08Z</time>
      </trkpt>
      <trkpt lat="48.9376" lon="2.07238">
        <ele>54.6</ele>
        <time>2022-03-22T09:32:13Z</time>
      </trkpt>
      <trkpt lat="48.93757" lon="2.07244">
        <ele>56.7</ele>
        <time>2022-03-22T09:32:17Z</time>
      </trkpt>
      <trkpt lat="48.93753" lon="2.07251">
        <ele>57.6</ele>
        <time>2022-03-22T09:32:22Z</time>
      </trkpt>
      <trkpt lat="48.93749" lon="2.07255">
        <ele>58.6</ele>
        <time>2022-03-22T09:32:26Z</time>
      </trkpt>
      <trkpt lat="48.93745" lon="2.0726">
        <ele>60.7</ele>
        <time>2022-03-22T09:32:31Z</time>
      </trkpt>
      <trkpt lat="48.93745" lon="2.07268">
        <ele>62.3</ele>
        <time>2022-03-22T09:32:35Z</time>
      </trkpt>
      <trkpt lat="48.9374" lon="2.07273">
        <ele>62.1</ele>
        <time>2022-03-22T09:32:39Z</time>
      </trkpt>
      <trkpt lat="48.93736" lon="2.07277">
        <ele>60.8</ele>
        <time>2022-03-22T09:32:43Z</time>
      </trkpt>
      <trkpt lat="48.93732" lon="2.07282">
        <ele>60.8</ele>
        <time>2022-03-22T09:32:47Z</time>
      </trkpt>
      <trkpt lat="48.93728" lon="2.07287">
        <ele>61.8</ele>
        <time>2022-03-22T09:32:51Z</time>
      </trkpt>
      <trkpt lat="48.93724" lon="2.07291">
        <ele>62.1</ele>
        <time>2022-03-22T09:32:55Z</time>
      </trkpt>
      <trkpt lat="48.9372" lon="2.07296">
        <ele>62</ele>
        <time>2022-03-22T09:32:59Z</time>
      </trkpt>
      <trkpt lat="48.93716" lon="2.07302">
        <ele>61.4</ele>
        <time>2022-03-22T09:33:03Z</time>
      </trkpt>
      <trkpt lat="48.93711" lon="2.07308">
        <ele>61.2</ele>
        <time>2022-03-22T09:33:08Z</time>
      </trkpt>
      <trkpt lat="48.93707" lon="2.07313">
        <ele>61.2</ele>
        <time>2022-03-22T09:33:12Z</time>
      </trkpt>
      <trkpt lat="48.93703" lon="2.07318">
        <ele>61.9</ele>
        <time>2022-03-22T09:33:16Z</time>
      </trkpt>
      <trkpt lat="48.93699" lon="2.07323">
        <ele>63.1</ele>
        <time>2022-03-22T09:33:20Z</time>
      </trkpt>
      <trkpt lat="48.93696" lon="2.0733">
        <ele>63.5</ele>
        <time>2022-03-22T09:33:24Z</time>
      </trkpt>
      <trkpt lat="48.93694" lon="2.07336">
        <ele>62.2</ele>
        <time>2022-03-22T09:33:29Z</time>
      </trkpt>
      <trkpt lat="48.9369" lon="2.07342">
        <ele>61</ele>
        <time>2022-03-22T09:33:33Z</time>
      </trkpt>
      <trkpt lat="48.93684" lon="2.07348">
        <ele>60.6</ele>
        <time>2022-03-22T09:33:37Z</time>
      </trkpt>
      <trkpt lat="48.93681" lon="2.07352">
        <ele>60.5</ele>
        <time>2022-03-22T09:33:41Z</time>
      </trkpt>
      <trkpt lat="48.93677" lon="2.07357">
        <ele>60.5</ele>
        <time>2022-03-22T09:33:44Z</time>
      </trkpt>
      <trkpt lat="48.93673" lon="2.07362">
        <ele>60.5</ele>
        <time>2022-03-22T09:33:49Z</time>
      </trkpt>
      <trkpt lat="48.9367" lon="2.07368">
        <ele>61</ele>
        <time>2022-03-22T09:33:52Z</time>
      </trkpt>
      <trkpt lat="48.93667" lon="2.07373">
        <ele>61.7</ele>
        <time>2022-03-22T09:33:56Z</time>
      </trkpt>
      <trkpt lat="48.93664" lon="2.0738">
        <ele>61.6</ele>
        <time>2022-03-22T09:34:00Z</time>
      </trkpt>
      <trkpt lat="48.93662" lon="2.07386">
        <ele>61</ele>
        <time>2022-03-22T09:34:03Z</time>
      </trkpt>
      <trkpt lat="48.93657" lon="2.07391">
        <ele>61</ele>
        <time>2022-03-22T09:34:07Z</time>
      </trkpt>
      <trkpt lat="48.93654" lon="2.07396">
        <ele>61.2</ele>
        <time>2022-03-22T09:34:11Z</time>
      </trkpt>
      <trkpt lat="48.93651" lon="2.07402">
        <ele>60.8</ele>
        <time>2022-03-22T09:34:15Z</time>
      </trkpt>
      <trkpt lat="48.93648" lon="2.07408">
        <ele>60.6</ele>
        <time>2022-03-22T09:34:19Z</time>
      </trkpt>
      <trkpt lat="48.93644" lon="2.07413">
        <ele>60.7</ele>
        <time>2022-03-22T09:34:35Z</time>
      </trkpt>
      <trkpt lat="48.93641" lon="2.07419">
        <ele>60.8</ele>
        <time>2022-03-22T09:34:38Z</time>
      </trkpt>
      <trkpt lat="48.93637" lon="2.07423">
        <ele>60.4</ele>
        <time>2022-03-22T09:34:41Z</time>
      </trkpt>
      <trkpt lat="48.93632" lon="2.07428">
        <ele>59.8</ele>
        <time>2022-03-22T09:34:45Z</time>
      </trkpt>
      <trkpt lat="48.93628" lon="2.07433">
        <ele>58.7</ele>
        <time>2022-03-22T09:34:49Z</time>
      </trkpt>
      <trkpt lat="48.93623" lon="2.0744">
        <ele>57.6</ele>
        <time>2022-03-22T09:34:54Z</time>
      </trkpt>
      <trkpt lat="48.93619" lon="2.07444">
        <ele>57.1</ele>
        <time>2022-03-22T09:34:57Z</time>
      </trkpt>
      <trkpt lat="48.93616" lon="2.07448">
        <ele>56.9</ele>
        <time>2022-03-22T09:35:00Z</time>
      </trkpt>
      <trkpt lat="48.9361" lon="2.07447">
        <ele>57</ele>
        <time>2022-03-22T09:35:06Z</time>
      </trkpt>
      <trkpt lat="48.93609" lon="2.0744">
        <ele>54.8</ele>
        <time>2022-03-22T09:35:45Z</time>
      </trkpt>
      <trkpt lat="48.93612" lon="2.07448">
        <ele>55.2</ele>
        <time>2022-03-22T09:36:01Z</time>
      </trkpt>
      <trkpt lat="48.93607" lon="2.07445">
        <ele>52.9</ele>
        <time>2022-03-22T09:37:31Z</time>
      </trkpt>
      <trkpt lat="48.93601" lon="2.07441">
        <ele>52.8</ele>
        <time>2022-03-22T09:37:35Z</time>
      </trkpt>
      <trkpt lat="48.93597" lon="2.07438">
        <ele>52.9</ele>
        <time>2022-03-22T09:37:37Z</time>
      </trkpt>
      <trkpt lat="48.93592" lon="2.07437">
        <ele>52.3</ele>
        <time>2022-03-22T09:37:40Z</time>
      </trkpt>
      <trkpt lat="48.93587" lon="2.07435">
        <ele>51.9</ele>
        <time>2022-03-22T09:37:44Z</time>
      </trkpt>
      <trkpt lat="48.93581" lon="2.07433">
        <ele>51.7</ele>
        <time>2022-03-22T09:37:48Z</time>
      </trkpt>
      <trkpt lat="48.93577" lon="2.07431">
        <ele>52.1</ele>
        <time>2022-03-22T09:37:51Z</time>
      </trkpt>
      <trkpt lat="48.93571" lon="2.07429">
        <ele>52</ele>
        <time>2022-03-22T09:37:56Z</time>
      </trkpt>
      <trkpt lat="48.93566" lon="2.07427">
        <ele>52</ele>
        <time>2022-03-22T09:38:00Z</time>
      </trkpt>
      <trkpt lat="48.93561" lon="2.07425">
        <ele>52.1</ele>
        <time>2022-03-22T09:38:03Z</time>
      </trkpt>
      <trkpt lat="48.93556" lon="2.07423">
        <ele>52.5</ele>
        <time>2022-03-22T09:38:07Z</time>
      </trkpt>
      <trkpt lat="48.93551" lon="2.07421">
        <ele>53</ele>
        <time>2022-03-22T09:38:11Z</time>
      </trkpt>
      <trkpt lat="48.93546" lon="2.0742">
        <ele>53.1</ele>
        <time>2022-03-22T09:38:15Z</time>
      </trkpt>
      <trkpt lat="48.93541" lon="2.07417">
        <ele>52.6</ele>
        <time>2022-03-22T09:38:18Z</time>
      </trkpt>
      <trkpt lat="48.93535" lon="2.07415">
        <ele>52.2</ele>
        <time>2022-03-22T09:38:22Z</time>
      </trkpt>
      <trkpt lat="48.93531" lon="2.07413">
        <ele>52.4</ele>
        <time>2022-03-22T09:38:26Z</time>
      </trkpt>
      <trkpt lat="48.93525" lon="2.07411">
        <ele>52.6</ele>
        <time>2022-03-22T09:38:30Z</time>
      </trkpt>
      <trkpt lat="48.9352" lon="2.07409">
        <ele>53.1</ele>
        <time>2022-03-22T09:38:33Z</time>
      </trkpt>
      <trkpt lat="48.93515" lon="2.07407">
        <ele>53.4</ele>
        <time>2022-03-22T09:38:37Z</time>
      </trkpt>
      <trkpt lat="48.93509" lon="2.07404">
        <ele>53.7</ele>
        <time>2022-03-22T09:38:42Z</time>
      </trkpt>
      <trkpt lat="48.93504" lon="2.07403">
        <ele>53.8</ele>
        <time>2022-03-22T09:38:45Z</time>
      </trkpt>
      <trkpt lat="48.93499" lon="2.07402">
        <ele>53.4</ele>
        <time>2022-03-22T09:38:50Z</time>
      </trkpt>
      <trkpt lat="48.93495" lon="2.074">
        <ele>52.3</ele>
        <time>2022-03-22T09:38:53Z</time>
      </trkpt>
      <trkpt lat="48.9349" lon="2.07397">
        <ele>50.9</ele>
        <time>2022-03-22T09:38:56Z</time>
      </trkpt>
      <trkpt lat="48.93485" lon="2.07395">
        <ele>50.2</ele>
        <time>2022-03-22T09:39:00Z</time>
      </trkpt>
      <trkpt lat="48.93481" lon="2.07394">
        <ele>50.5</ele>
        <time>2022-03-22T09:39:03Z</time>
      </trkpt>
      <trkpt lat="48.93476" lon="2.07392">
        <ele>51.1</ele>
        <time>2022-03-22T09:39:07Z</time>
      </trkpt>
      <trkpt lat="48.9347" lon="2.07391">
        <ele>51.5</ele>
        <time>2022-03-22T09:39:11Z</time>
      </trkpt>
      <trkpt lat="48.93464" lon="2.07389">
        <ele>51.1</ele>
        <time>2022-03-22T09:39:15Z</time>
      </trkpt>
      <trkpt lat="48.93459" lon="2.07387">
        <ele>50.5</ele>
        <time>2022-03-22T09:39:19Z</time>
      </trkpt>
      <trkpt lat="48.93454" lon="2.07385">
        <ele>50.3</ele>
        <time>2022-03-22T09:39:22Z</time>
      </trkpt>
      <trkpt lat="48.93449" lon="2.07382">
        <ele>50.2</ele>
        <time>2022-03-22T09:39:27Z</time>
      </trkpt>
      <trkpt lat="48.93444" lon="2.0738">
        <ele>49.3</ele>
        <time>2022-03-22T09:39:30Z</time>
      </trkpt>
      <trkpt lat="48.93439" lon="2.07378">
        <ele>48.8</ele>
        <time>2022-03-22T09:39:34Z</time>
      </trkpt>
      <trkpt lat="48.93434" lon="2.07378">
        <ele>49</ele>
        <time>2022-03-22T09:39:37Z</time>
      </trkpt>
      <trkpt lat="48.93428" lon="2.07377">
        <ele>49.3</ele>
        <time>2022-03-22T09:39:41Z</time>
      </trkpt>
      <trkpt lat="48.93423" lon="2.07374">
        <ele>49.1</ele>
        <time>2022-03-22T09:39:45Z</time>
      </trkpt>
      <trkpt lat="48.93418" lon="2.07372">
        <ele>49.1</ele>
        <time>2022-03-22T09:39:48Z</time>
      </trkpt>
      <trkpt lat="48.93413" lon="2.07369">
        <ele>49.1</ele>
        <time>2022-03-22T09:39:51Z</time>
      </trkpt>
      <trkpt lat="48.93407" lon="2.07366">
        <ele>48.7</ele>
        <time>2022-03-22T09:39:55Z</time>
      </trkpt>
      <trkpt lat="48.93402" lon="2.07364">
        <ele>47.5</ele>
        <time>2022-03-22T09:39:59Z</time>
      </trkpt>
      <trkpt lat="48.93395" lon="2.07362">
        <ele>46.3</ele>
        <time>2022-03-22T09:40:03Z</time>
      </trkpt>
      <trkpt lat="48.93391" lon="2.07361">
        <ele>46</ele>
        <time>2022-03-22T09:40:06Z</time>
      </trkpt>
      <trkpt lat="48.93385" lon="2.07361">
        <ele>46.2</ele>
        <time>2022-03-22T09:40:11Z</time>
      </trkpt>
      <trkpt lat="48.93381" lon="2.07359">
        <ele>46.1</ele>
        <time>2022-03-22T09:40:14Z</time>
      </trkpt>
      <trkpt lat="48.93376" lon="2.07355">
        <ele>45.6</ele>
        <time>2022-03-22T09:40:18Z</time>
      </trkpt>
      <trkpt lat="48.93371" lon="2.07353">
        <ele>45.5</ele>
        <time>2022-03-22T09:40:22Z</time>
      </trkpt>
      <trkpt lat="48.93366" lon="2.07351">
        <ele>46.2</ele>
        <time>2022-03-22T09:40:25Z</time>
      </trkpt>
      <trkpt lat="48.9336" lon="2.07349">
        <ele>46.8</ele>
        <time>2022-03-22T09:40:29Z</time>
      </trkpt>
      <trkpt lat="48.93355" lon="2.07348">
        <ele>47</ele>
        <time>2022-03-22T09:40:33Z</time>
      </trkpt>
      <trkpt lat="48.93351" lon="2.07353">
        <ele>47.5</ele>
        <time>2022-03-22T09:40:37Z</time>
      </trkpt>
      <trkpt lat="48.93348" lon="2.0736">
        <ele>48.7</ele>
        <time>2022-03-22T09:40:41Z</time>
      </trkpt>
      <trkpt lat="48.93344" lon="2.07367">
        <ele>50.3</ele>
        <time>2022-03-22T09:40:46Z</time>
      </trkpt>
      <trkpt lat="48.9334" lon="2.07372">
        <ele>51.6</ele>
        <time>2022-03-22T09:40:50Z</time>
      </trkpt>
      <trkpt lat="48.93337" lon="2.07377">
        <ele>52.3</ele>
        <time>2022-03-22T09:40:54Z</time>
      </trkpt>
      <trkpt lat="48.93333" lon="2.07383">
        <ele>52.9</ele>
        <time>2022-03-22T09:40:59Z</time>
      </trkpt>
      <trkpt lat="48.93329" lon="2.07387">
        <ele>53.3</ele>
        <time>2022-03-22T09:41:04Z</time>
      </trkpt>
      <trkpt lat="48.93324" lon="2.07392">
        <ele>53.1</ele>
        <time>2022-03-22T09:41:09Z</time>
      </trkpt>
      <trkpt lat="48.93321" lon="2.07397">
        <ele>52.9</ele>
        <time>2022-03-22T09:41:12Z</time>
      </trkpt>
      <trkpt lat="48.93317" lon="2.07403">
        <ele>54.2</ele>
        <time>2022-03-22T09:41:17Z</time>
      </trkpt>
      <trkpt lat="48.93313" lon="2.07408">
        <ele>55.7</ele>
        <time>2022-03-22T09:41:20Z</time>
      </trkpt>
      <trkpt lat="48.9331" lon="2.07413">
        <ele>57.1</ele>
        <time>2022-03-22T09:41:24Z</time>
      </trkpt>
      <trkpt lat="48.93306" lon="2.07417">
        <ele>57.5</ele>
        <time>2022-03-22T09:41:28Z</time>
      </trkpt>
      <trkpt lat="48.93302" lon="2.07422">
        <ele>57.9</ele>
        <time>2022-03-22T09:41:32Z</time>
      </trkpt>
      <trkpt lat="48.93297" lon="2.07425">
        <ele>57.6</ele>
        <time>2022-03-22T09:41:36Z</time>
      </trkpt>
      <trkpt lat="48.93293" lon="2.0743">
        <ele>57</ele>
        <time>2022-03-22T09:41:40Z</time>
      </trkpt>
      <trkpt lat="48.93288" lon="2.07434">
        <ele>57.9</ele>
        <time>2022-03-22T09:41:45Z</time>
      </trkpt>
      <trkpt lat="48.93285" lon="2.07439">
        <ele>59.6</ele>
        <time>2022-03-22T09:41:49Z</time>
      </trkpt>
      <trkpt lat="48.93281" lon="2.07445">
        <ele>61</ele>
        <time>2022-03-22T09:41:55Z</time>
      </trkpt>
      <trkpt lat="48.93278" lon="2.0745">
        <ele>61.5</ele>
        <time>2022-03-22T09:42:00Z</time>
      </trkpt>
      <trkpt lat="48.93277" lon="2.07457">
        <ele>61.5</ele>
        <time>2022-03-22T09:42:04Z</time>
      </trkpt>
      <trkpt lat="48.93274" lon="2.07464">
        <ele>61.9</ele>
        <time>2022-03-22T09:42:09Z</time>
      </trkpt>
      <trkpt lat="48.9327" lon="2.07469">
        <ele>63.3</ele>
        <time>2022-03-22T09:42:15Z</time>
      </trkpt>
      <trkpt lat="48.93266" lon="2.07474">
        <ele>63.1</ele>
        <time>2022-03-22T09:42:19Z</time>
      </trkpt>
      <trkpt lat="48.93262" lon="2.07478">
        <ele>63.1</ele>
        <time>2022-03-22T09:42:22Z</time>
      </trkpt>
      <trkpt lat="48.93259" lon="2.07483">
        <ele>63.4</ele>
        <time>2022-03-22T09:42:26Z</time>
      </trkpt>
      <trkpt lat="48.93255" lon="2.07488">
        <ele>63.9</ele>
        <time>2022-03-22T09:42:29Z</time>
      </trkpt>
      <trkpt lat="48.93252" lon="2.07492">
        <ele>63.8</ele>
        <time>2022-03-22T09:42:32Z</time>
      </trkpt>
      <trkpt lat="48.93248" lon="2.07497">
        <ele>62.7</ele>
        <time>2022-03-22T09:42:36Z</time>
      </trkpt>
      <trkpt lat="48.93244" lon="2.07502">
        <ele>61.8</ele>
        <time>2022-03-22T09:42:39Z</time>
      </trkpt>
      <trkpt lat="48.93241" lon="2.07507">
        <ele>60.8</ele>
        <time>2022-03-22T09:42:43Z</time>
      </trkpt>
      <trkpt lat="48.93238" lon="2.07512">
        <ele>60.7</ele>
        <time>2022-03-22T09:42:46Z</time>
      </trkpt>
      <trkpt lat="48.93235" lon="2.07518">
        <ele>60.7</ele>
        <time>2022-03-22T09:42:50Z</time>
      </trkpt>
      <trkpt lat="48.93231" lon="2.07522">
        <ele>61.9</ele>
        <time>2022-03-22T09:42:53Z</time>
      </trkpt>
      <trkpt lat="48.93228" lon="2.07527">
        <ele>62.7</ele>
        <time>2022-03-22T09:42:57Z</time>
      </trkpt>
      <trkpt lat="48.93224" lon="2.07531">
        <ele>63.9</ele>
        <time>2022-03-22T09:43:00Z</time>
      </trkpt>
      <trkpt lat="48.9322" lon="2.07535">
        <ele>64.4</ele>
        <time>2022-03-22T09:43:03Z</time>
      </trkpt>
      <trkpt lat="48.93217" lon="2.0754">
        <ele>64.8</ele>
        <time>2022-03-22T09:43:07Z</time>
      </trkpt>
      <trkpt lat="48.93214" lon="2.07546">
        <ele>65</ele>
        <time>2022-03-22T09:43:11Z</time>
      </trkpt>
      <trkpt lat="48.9321" lon="2.07551">
        <ele>64.9</ele>
        <time>2022-03-22T09:43:14Z</time>
      </trkpt>
      <trkpt lat="48.93207" lon="2.07556">
        <ele>64.8</ele>
        <time>2022-03-22T09:43:18Z</time>
      </trkpt>
      <trkpt lat="48.93204" lon="2.07561">
        <ele>64.5</ele>
        <time>2022-03-22T09:43:21Z</time>
      </trkpt>
      <trkpt lat="48.93201" lon="2.07566">
        <ele>64.3</ele>
        <time>2022-03-22T09:43:25Z</time>
      </trkpt>
      <trkpt lat="48.93197" lon="2.07572">
        <ele>64.3</ele>
        <time>2022-03-22T09:43:28Z</time>
      </trkpt>
      <trkpt lat="48.93193" lon="2.07577">
        <ele>63.4</ele>
        <time>2022-03-22T09:43:32Z</time>
      </trkpt>
      <trkpt lat="48.93189" lon="2.07582">
        <ele>62.7</ele>
        <time>2022-03-22T09:43:36Z</time>
      </trkpt>
      <trkpt lat="48.93185" lon="2.07587">
        <ele>62.9</ele>
        <time>2022-03-22T09:43:40Z</time>
      </trkpt>
      <trkpt lat="48.93181" lon="2.07594">
        <ele>64.7</ele>
        <time>2022-03-22T09:43:44Z</time>
      </trkpt>
      <trkpt lat="48.93178" lon="2.076">
        <ele>66.3</ele>
        <time>2022-03-22T09:43:49Z</time>
      </trkpt>
      <trkpt lat="48.93175" lon="2.07606">
        <ele>66.6</ele>
        <time>2022-03-22T09:43:52Z</time>
      </trkpt>
      <trkpt lat="48.93171" lon="2.07611">
        <ele>66.3</ele>
        <time>2022-03-22T09:43:56Z</time>
      </trkpt>
      <trkpt lat="48.93166" lon="2.07615">
        <ele>65.4</ele>
        <time>2022-03-22T09:44:00Z</time>
      </trkpt>
      <trkpt lat="48.93162" lon="2.07619">
        <ele>65.2</ele>
        <time>2022-03-22T09:44:04Z</time>
      </trkpt>
      <trkpt lat="48.93157" lon="2.07624">
        <ele>65.2</ele>
        <time>2022-03-22T09:44:09Z</time>
      </trkpt>
      <trkpt lat="48.93152" lon="2.07623">
        <ele>65.6</ele>
        <time>2022-03-22T09:44:14Z</time>
      </trkpt>
      <trkpt lat="48.93151" lon="2.0763">
        <ele>68.6</ele>
        <time>2022-03-22T09:44:41Z</time>
      </trkpt>
      <trkpt lat="48.93148" lon="2.07635">
        <ele>61.9</ele>
        <time>2022-03-22T09:44:48Z</time>
      </trkpt>
      <trkpt lat="48.93144" lon="2.07631">
        <ele>58.1</ele>
        <time>2022-03-22T09:44:55Z</time>
      </trkpt>
      <trkpt lat="48.93139" lon="2.07623">
        <ele>57.9</ele>
        <time>2022-03-22T09:45:00Z</time>
      </trkpt>
      <trkpt lat="48.93136" lon="2.07617">
        <ele>58.7</ele>
        <time>2022-03-22T09:45:03Z</time>
      </trkpt>
      <trkpt lat="48.93135" lon="2.07608">
        <ele>60.2</ele>
        <time>2022-03-22T09:45:06Z</time>
      </trkpt>
      <trkpt lat="48.93133" lon="2.07601">
        <ele>61.5</ele>
        <time>2022-03-22T09:45:09Z</time>
      </trkpt>
      <trkpt lat="48.93132" lon="2.07595">
        <ele>62.3</ele>
        <time>2022-03-22T09:45:12Z</time>
      </trkpt>
      <trkpt lat="48.9313" lon="2.07587">
        <ele>62.5</ele>
        <time>2022-03-22T09:45:17Z</time>
      </trkpt>
      <trkpt lat="48.93126" lon="2.07581">
        <ele>63.5</ele>
        <time>2022-03-22T09:45:21Z</time>
      </trkpt>
      <trkpt lat="48.93123" lon="2.07577">
        <ele>64</ele>
        <time>2022-03-22T09:45:25Z</time>
      </trkpt>
      <trkpt lat="48.93118" lon="2.07573">
        <ele>63.7</ele>
        <time>2022-03-22T09:45:29Z</time>
      </trkpt>
      <trkpt lat="48.93113" lon="2.07569">
        <ele>63.2</ele>
        <time>2022-03-22T09:45:34Z</time>
      </trkpt>
      <trkpt lat="48.9311" lon="2.07564">
        <ele>63.5</ele>
        <time>2022-03-22T09:45:38Z</time>
      </trkpt>
      <trkpt lat="48.93106" lon="2.07558">
        <ele>64.6</ele>
        <time>2022-03-22T09:45:42Z</time>
      </trkpt>
      <trkpt lat="48.93101" lon="2.07553">
        <ele>64.9</ele>
        <time>2022-03-22T09:45:45Z</time>
      </trkpt>
      <trkpt lat="48.93097" lon="2.07548">
        <ele>65.1</ele>
        <time>2022-03-22T09:45:49Z</time>
      </trkpt>
      <trkpt lat="48.93093" lon="2.07542">
        <ele>65.9</ele>
        <time>2022-03-22T09:45:53Z</time>
      </trkpt>
      <trkpt lat="48.93089" lon="2.07537">
        <ele>66.1</ele>
        <time>2022-03-22T09:45:57Z</time>
      </trkpt>
      <trkpt lat="48.93086" lon="2.07532">
        <ele>65.6</ele>
        <time>2022-03-22T09:46:01Z</time>
      </trkpt>
      <trkpt lat="48.93082" lon="2.07527">
        <ele>65.7</ele>
        <time>2022-03-22T09:46:04Z</time>
      </trkpt>
      <trkpt lat="48.93079" lon="2.07521">
        <ele>66.4</ele>
        <time>2022-03-22T09:46:07Z</time>
      </trkpt>
      <trkpt lat="48.93076" lon="2.07517">
        <ele>67.2</ele>
        <time>2022-03-22T09:46:11Z</time>
      </trkpt>
      <trkpt lat="48.93071" lon="2.07512">
        <ele>67.6</ele>
        <time>2022-03-22T09:46:14Z</time>
      </trkpt>
      <trkpt lat="48.93068" lon="2.07508">
        <ele>67.4</ele>
        <time>2022-03-22T09:46:18Z</time>
      </trkpt>
      <trkpt lat="48.93063" lon="2.07504">
        <ele>66.6</ele>
        <time>2022-03-22T09:46:22Z</time>
      </trkpt>
      <trkpt lat="48.93059" lon="2.075">
        <ele>65.6</ele>
        <time>2022-03-22T09:46:27Z</time>
      </trkpt>
      <trkpt lat="48.93055" lon="2.07495">
        <ele>64.8</ele>
        <time>2022-03-22T09:46:31Z</time>
      </trkpt>
      <trkpt lat="48.93051" lon="2.07491">
        <ele>64.5</ele>
        <time>2022-03-22T09:46:34Z</time>
      </trkpt>
      <trkpt lat="48.93047" lon="2.07485">
        <ele>64.6</ele>
        <time>2022-03-22T09:46:39Z</time>
      </trkpt>
      <trkpt lat="48.93043" lon="2.0748">
        <ele>64.2</ele>
        <time>2022-03-22T09:46:43Z</time>
      </trkpt>
      <trkpt lat="48.93039" lon="2.07473">
        <ele>64.1</ele>
        <time>2022-03-22T09:46:46Z</time>
      </trkpt>
      <trkpt lat="48.93035" lon="2.07467">
        <ele>64.3</ele>
        <time>2022-03-22T09:46:50Z</time>
      </trkpt>
      <trkpt lat="48.93031" lon="2.07461">
        <ele>65.2</ele>
        <time>2022-03-22T09:46:54Z</time>
      </trkpt>
      <trkpt lat="48.93027" lon="2.07455">
        <ele>66.1</ele>
        <time>2022-03-22T09:46:58Z</time>
      </trkpt>
      <trkpt lat="48.93024" lon="2.0745">
        <ele>66.8</ele>
        <time>2022-03-22T09:47:02Z</time>
      </trkpt>
      <trkpt lat="48.93019" lon="2.07446">
        <ele>66.7</ele>
        <time>2022-03-22T09:47:06Z</time>
      </trkpt>
      <trkpt lat="48.93015" lon="2.07442">
        <ele>66.6</ele>
        <time>2022-03-22T09:47:09Z</time>
      </trkpt>
      <trkpt lat="48.9301" lon="2.07438">
        <ele>66.3</ele>
        <time>2022-03-22T09:47:13Z</time>
      </trkpt>
      <trkpt lat="48.93006" lon="2.07433">
        <ele>66.2</ele>
        <time>2022-03-22T09:47:17Z</time>
      </trkpt>
      <trkpt lat="48.93002" lon="2.07426">
        <ele>66.4</ele>
        <time>2022-03-22T09:47:21Z</time>
      </trkpt>
      <trkpt lat="48.92999" lon="2.0742">
        <ele>67.6</ele>
        <time>2022-03-22T09:47:25Z</time>
      </trkpt>
      <trkpt lat="48.92994" lon="2.07414">
        <ele>69.6</ele>
        <time>2022-03-22T09:47:29Z</time>
      </trkpt>
      <trkpt lat="48.92991" lon="2.07408">
        <ele>71.1</ele>
        <time>2022-03-22T09:47:33Z</time>
      </trkpt>
      <trkpt lat="48.92987" lon="2.07402">
        <ele>71.7</ele>
        <time>2022-03-22T09:47:36Z</time>
      </trkpt>
      <trkpt lat="48.92983" lon="2.07396">
        <ele>70.7</ele>
        <time>2022-03-22T09:47:40Z</time>
      </trkpt>
      <trkpt lat="48.92979" lon="2.07391">
        <ele>69.9</ele>
        <time>2022-03-22T09:47:44Z</time>
      </trkpt>
      <trkpt lat="48.92974" lon="2.07387">
        <ele>69.2</ele>
        <time>2022-03-22T09:47:48Z</time>
      </trkpt>
      <trkpt lat="48.9297" lon="2.07382">
        <ele>68.9</ele>
        <time>2022-03-22T09:47:52Z</time>
      </trkpt>
      <trkpt lat="48.92965" lon="2.07378">
        <ele>69.3</ele>
        <time>2022-03-22T09:47:55Z</time>
      </trkpt>
      <trkpt lat="48.9296" lon="2.07374">
        <ele>70.5</ele>
        <time>2022-03-22T09:47:59Z</time>
      </trkpt>
      <trkpt lat="48.92956" lon="2.07369">
        <ele>70.9</ele>
        <time>2022-03-22T09:48:03Z</time>
      </trkpt>
      <trkpt lat="48.92951" lon="2.07365">
        <ele>70.4</ele>
        <time>2022-03-22T09:48:07Z</time>
      </trkpt>
      <trkpt lat="48.92946" lon="2.0736">
        <ele>69.5</ele>
        <time>2022-03-22T09:48:10Z</time>
      </trkpt>
      <trkpt lat="48.92942" lon="2.07355">
        <ele>68.9</ele>
        <time>2022-03-22T09:48:14Z</time>
      </trkpt>
      <trkpt lat="48.92939" lon="2.07351">
        <ele>68.8</ele>
        <time>2022-03-22T09:48:17Z</time>
      </trkpt>
      <trkpt lat="48.92934" lon="2.07346">
        <ele>68.3</ele>
        <time>2022-03-22T09:48:22Z</time>
      </trkpt>
      <trkpt lat="48.9293" lon="2.07341">
        <ele>68.1</ele>
        <time>2022-03-22T09:48:25Z</time>
      </trkpt>
      <trkpt lat="48.92927" lon="2.07336">
        <ele>67.5</ele>
        <time>2022-03-22T09:48:29Z</time>
      </trkpt>
      <trkpt lat="48.92923" lon="2.07331">
        <ele>66.9</ele>
        <time>2022-03-22T09:48:32Z</time>
      </trkpt>
      <trkpt lat="48.92919" lon="2.07327">
        <ele>66.6</ele>
        <time>2022-03-22T09:48:36Z</time>
      </trkpt>
      <trkpt lat="48.92916" lon="2.07321">
        <ele>67.1</ele>
        <time>2022-03-22T09:48:40Z</time>
      </trkpt>
      <trkpt lat="48.92912" lon="2.07316">
        <ele>67.5</ele>
        <time>2022-03-22T09:48:43Z</time>
      </trkpt>
      <trkpt lat="48.92908" lon="2.07311">
        <ele>67.2</ele>
        <time>2022-03-22T09:48:47Z</time>
      </trkpt>
      <trkpt lat="48.92904" lon="2.07306">
        <ele>65.9</ele>
        <time>2022-03-22T09:48:51Z</time>
      </trkpt>
      <trkpt lat="48.92899" lon="2.073">
        <ele>64.6</ele>
        <time>2022-03-22T09:48:56Z</time>
      </trkpt>
      <trkpt lat="48.92895" lon="2.07294">
        <ele>63.6</ele>
        <time>2022-03-22T09:49:00Z</time>
      </trkpt>
      <trkpt lat="48.92891" lon="2.07291">
        <ele>62.8</ele>
        <time>2022-03-22T09:49:04Z</time>
      </trkpt>
      <trkpt lat="48.92886" lon="2.07287">
        <ele>61.6</ele>
        <time>2022-03-22T09:49:08Z</time>
      </trkpt>
      <trkpt lat="48.92882" lon="2.07284">
        <ele>61.1</ele>
        <time>2022-03-22T09:49:11Z</time>
      </trkpt>
      <trkpt lat="48.92877" lon="2.0728">
        <ele>60.3</ele>
        <time>2022-03-22T09:49:15Z</time>
      </trkpt>
      <trkpt lat="48.92874" lon="2.07275">
        <ele>59.7</ele>
        <time>2022-03-22T09:49:20Z</time>
      </trkpt>
      <trkpt lat="48.9287" lon="2.07269">
        <ele>59</ele>
        <time>2022-03-22T09:49:25Z</time>
      </trkpt>
      <trkpt lat="48.92867" lon="2.07265">
        <ele>58.6</ele>
        <time>2022-03-22T09:49:28Z</time>
      </trkpt>
      <trkpt lat="48.92863" lon="2.07261">
        <ele>58.6</ele>
        <time>2022-03-22T09:49:32Z</time>
      </trkpt>
      <trkpt lat="48.92859" lon="2.07254">
        <ele>59.6</ele>
        <time>2022-03-22T09:49:35Z</time>
      </trkpt>
      <trkpt lat="48.92855" lon="2.07248">
        <ele>61</ele>
        <time>2022-03-22T09:49:39Z</time>
      </trkpt>
      <trkpt lat="48.92851" lon="2.07243">
        <ele>61.1</ele>
        <time>2022-03-22T09:49:43Z</time>
      </trkpt>
      <trkpt lat="48.92846" lon="2.0724">
        <ele>61</ele>
        <time>2022-03-22T09:49:46Z</time>
      </trkpt>
      <trkpt lat="48.92841" lon="2.07241">
        <ele>60.5</ele>
        <time>2022-03-22T09:49:50Z</time>
      </trkpt>
      <trkpt lat="48.92838" lon="2.07247">
        <ele>59.6</ele>
        <time>2022-03-22T09:49:54Z</time>
      </trkpt>
      <trkpt lat="48.9284" lon="2.07255">
        <ele>59.9</ele>
        <time>2022-03-22T09:50:11Z</time>
      </trkpt>
      <trkpt lat="48.9284" lon="2.07262">
        <ele>61.4</ele>
        <time>2022-03-22T09:50:33Z</time>
      </trkpt>
      <trkpt lat="48.92836" lon="2.07267">
        <ele>60.4</ele>
        <time>2022-03-22T09:51:33Z</time>
      </trkpt>
      <trkpt lat="48.92839" lon="2.07272">
        <ele>59.7</ele>
        <time>2022-03-22T09:51:39Z</time>
      </trkpt>
      <trkpt lat="48.92835" lon="2.07278">
        <ele>59</ele>
        <time>2022-03-22T09:52:04Z</time>
      </trkpt>
      <trkpt lat="48.9283" lon="2.07282">
        <ele>59.5</ele>
        <time>2022-03-22T09:52:06Z</time>
      </trkpt>
      <trkpt lat="48.92825" lon="2.07285">
        <ele>60.3</ele>
        <time>2022-03-22T09:52:09Z</time>
      </trkpt>
      <trkpt lat="48.92822" lon="2.0729">
        <ele>62.6</ele>
        <time>2022-03-22T09:52:12Z</time>
      </trkpt>
      <trkpt lat="48.92818" lon="2.07296">
        <ele>64.7</ele>
        <time>2022-03-22T09:52:15Z</time>
      </trkpt>
      <trkpt lat="48.92816" lon="2.07302">
        <ele>66.2</ele>
        <time>2022-03-22T09:52:20Z</time>
      </trkpt>
      <trkpt lat="48.92814" lon="2.0731">
        <ele>67</ele>
        <time>2022-03-22T09:52:25Z</time>
      </trkpt>
      <trkpt lat="48.92811" lon="2.07318">
        <ele>67.3</ele>
        <time>2022-03-22T09:52:29Z</time>
      </trkpt>
      <trkpt lat="48.9281" lon="2.07324">
        <ele>67.4</ele>
        <time>2022-03-22T09:52:33Z</time>
      </trkpt>
      <trkpt lat="48.92807" lon="2.07332">
        <ele>68</ele>
        <time>2022-03-22T09:52:37Z</time>
      </trkpt>
      <trkpt lat="48.92805" lon="2.07339">
        <ele>68.9</ele>
        <time>2022-03-22T09:52:41Z</time>
      </trkpt>
      <trkpt lat="48.92803" lon="2.07347">
        <ele>69.2</ele>
        <time>2022-03-22T09:52:45Z</time>
      </trkpt>
      <trkpt lat="48.92802" lon="2.07353">
        <ele>69.7</ele>
        <time>2022-03-22T09:52:50Z</time>
      </trkpt>
      <trkpt lat="48.928" lon="2.07361">
        <ele>69.8</ele>
        <time>2022-03-22T09:52:54Z</time>
      </trkpt>
      <trkpt lat="48.92799" lon="2.07368">
        <ele>69.2</ele>
        <time>2022-03-22T09:52:57Z</time>
      </trkpt>
      <trkpt lat="48.92797" lon="2.07374">
        <ele>68.5</ele>
        <time>2022-03-22T09:53:01Z</time>
      </trkpt>
      <trkpt lat="48.92793" lon="2.07381">
        <ele>68.2</ele>
        <time>2022-03-22T09:53:05Z</time>
      </trkpt>
      <trkpt lat="48.92792" lon="2.07389">
        <ele>68</ele>
        <time>2022-03-22T09:53:10Z</time>
      </trkpt>
      <trkpt lat="48.92794" lon="2.07395">
        <ele>67.7</ele>
        <time>2022-03-22T09:53:16Z</time>
      </trkpt>
      <trkpt lat="48.92792" lon="2.07403">
        <ele>68.5</ele>
        <time>2022-03-22T09:53:21Z</time>
      </trkpt>
      <trkpt lat="48.92789" lon="2.0741">
        <ele>69.5</ele>
        <time>2022-03-22T09:53:25Z</time>
      </trkpt>
      <trkpt lat="48.92786" lon="2.07416">
        <ele>69.4</ele>
        <time>2022-03-22T09:53:28Z</time>
      </trkpt>
      <trkpt lat="48.92782" lon="2.07422">
        <ele>69.4</ele>
        <time>2022-03-22T09:53:32Z</time>
      </trkpt>
      <trkpt lat="48.92779" lon="2.07428">
        <ele>68.8</ele>
        <time>2022-03-22T09:53:36Z</time>
      </trkpt>
      <trkpt lat="48.92777" lon="2.07434">
        <ele>67.4</ele>
        <time>2022-03-22T09:53:40Z</time>
      </trkpt>
      <trkpt lat="48.92774" lon="2.07441">
        <ele>66.9</ele>
        <time>2022-03-22T09:53:44Z</time>
      </trkpt>
      <trkpt lat="48.92772" lon="2.07449">
        <ele>68</ele>
        <time>2022-03-22T09:53:48Z</time>
      </trkpt>
      <trkpt lat="48.92769" lon="2.07456">
        <ele>69.5</ele>
        <time>2022-03-22T09:53:53Z</time>
      </trkpt>
      <trkpt lat="48.92767" lon="2.07464">
        <ele>70.9</ele>
        <time>2022-03-22T09:53:58Z</time>
      </trkpt>
      <trkpt lat="48.92763" lon="2.07471">
        <ele>70.9</ele>
        <time>2022-03-22T09:54:02Z</time>
      </trkpt>
      <trkpt lat="48.92759" lon="2.07477">
        <ele>69.8</ele>
        <time>2022-03-22T09:54:07Z</time>
      </trkpt>
      <trkpt lat="48.92757" lon="2.07484">
        <ele>70.1</ele>
        <time>2022-03-22T09:54:11Z</time>
      </trkpt>
      <trkpt lat="48.92754" lon="2.07491">
        <ele>69.8</ele>
        <time>2022-03-22T09:54:15Z</time>
      </trkpt>
      <trkpt lat="48.92752" lon="2.07497">
        <ele>68.7</ele>
        <time>2022-03-22T09:54:19Z</time>
      </trkpt>
      <trkpt lat="48.9275" lon="2.07504">
        <ele>67.8</ele>
        <time>2022-03-22T09:54:23Z</time>
      </trkpt>
      <trkpt lat="48.92748" lon="2.07511">
        <ele>67.6</ele>
        <time>2022-03-22T09:54:27Z</time>
      </trkpt>
      <trkpt lat="48.92746" lon="2.07519">
        <ele>68.5</ele>
        <time>2022-03-22T09:54:31Z</time>
      </trkpt>
      <trkpt lat="48.92743" lon="2.07526">
        <ele>70.3</ele>
        <time>2022-03-22T09:54:36Z</time>
      </trkpt>
      <trkpt lat="48.92741" lon="2.07532">
        <ele>71.3</ele>
        <time>2022-03-22T09:54:40Z</time>
      </trkpt>
      <trkpt lat="48.92738" lon="2.07539">
        <ele>72</ele>
        <time>2022-03-22T09:54:44Z</time>
      </trkpt>
      <trkpt lat="48.92736" lon="2.07545">
        <ele>72.3</ele>
        <time>2022-03-22T09:54:48Z</time>
      </trkpt>
      <trkpt lat="48.92734" lon="2.07552">
        <ele>72.5</ele>
        <time>2022-03-22T09:54:52Z</time>
      </trkpt>
      <trkpt lat="48.92731" lon="2.07559">
        <ele>72.2</ele>
        <time>2022-03-22T09:54:57Z</time>
      </trkpt>
      <trkpt lat="48.92729" lon="2.07565">
        <ele>71.4</ele>
        <time>2022-03-22T09:55:01Z</time>
      </trkpt>
      <trkpt lat="48.92726" lon="2.07572">
        <ele>70.5</ele>
        <time>2022-03-22T09:55:05Z</time>
      </trkpt>
      <trkpt lat="48.92723" lon="2.07579">
        <ele>70.4</ele>
        <time>2022-03-22T09:55:09Z</time>
      </trkpt>
      <trkpt lat="48.92721" lon="2.07585">
        <ele>71</ele>
        <time>2022-03-22T09:55:13Z</time>
      </trkpt>
      <trkpt lat="48.92718" lon="2.07592">
        <ele>70.8</ele>
        <time>2022-03-22T09:55:17Z</time>
      </trkpt>
      <trkpt lat="48.92717" lon="2.076">
        <ele>70</ele>
        <time>2022-03-22T09:55:21Z</time>
      </trkpt>
      <trkpt lat="48.92715" lon="2.07607">
        <ele>69.7</ele>
        <time>2022-03-22T09:55:25Z</time>
      </trkpt>
      <trkpt lat="48.92713" lon="2.07614">
        <ele>70.5</ele>
        <time>2022-03-22T09:55:29Z</time>
      </trkpt>
      <trkpt lat="48.9271" lon="2.07621">
        <ele>71.2</ele>
        <time>2022-03-22T09:55:33Z</time>
      </trkpt>
      <trkpt lat="48.92707" lon="2.07627">
        <ele>72.1</ele>
        <time>2022-03-22T09:55:37Z</time>
      </trkpt>
      <trkpt lat="48.92706" lon="2.07634">
        <ele>71.7</ele>
        <time>2022-03-22T09:55:40Z</time>
      </trkpt>
      <trkpt lat="48.92704" lon="2.07641">
        <ele>69.9</ele>
        <time>2022-03-22T09:55:44Z</time>
      </trkpt>
      <trkpt lat="48.92703" lon="2.07648">
        <ele>68.1</ele>
        <time>2022-03-22T09:55:48Z</time>
      </trkpt>
      <trkpt lat="48.92701" lon="2.07655">
        <ele>66.7</ele>
        <time>2022-03-22T09:55:52Z</time>
      </trkpt>
      <trkpt lat="48.92698" lon="2.07663">
        <ele>65.7</ele>
        <time>2022-03-22T09:55:56Z</time>
      </trkpt>
      <trkpt lat="48.92696" lon="2.0767">
        <ele>64.8</ele>
        <time>2022-03-22T09:56:00Z</time>
      </trkpt>
      <trkpt lat="48.92693" lon="2.07677">
        <ele>64.6</ele>
        <time>2022-03-22T09:56:04Z</time>
      </trkpt>
      <trkpt lat="48.9269" lon="2.07685">
        <ele>65</ele>
        <time>2022-03-22T09:56:09Z</time>
      </trkpt>
      <trkpt lat="48.92687" lon="2.07691">
        <ele>65.9</ele>
        <time>2022-03-22T09:56:13Z</time>
      </trkpt>
      <trkpt lat="48.92682" lon="2.07691">
        <ele>66.5</ele>
        <time>2022-03-22T09:56:16Z</time>
      </trkpt>
      <trkpt lat="48.92678" lon="2.07686">
        <ele>66.3</ele>
        <time>2022-03-22T09:56:20Z</time>
      </trkpt>
      <trkpt lat="48.92676" lon="2.07679">
        <ele>65.6</ele>
        <time>2022-03-22T09:56:24Z</time>
      </trkpt>
      <trkpt lat="48.92678" lon="2.07672">
        <ele>64.8</ele>
        <time>2022-03-22T09:56:29Z</time>
      </trkpt>
      <trkpt lat="48.92676" lon="2.07664">
        <ele>64.9</ele>
        <time>2022-03-22T09:56:33Z</time>
      </trkpt>
      <trkpt lat="48.92672" lon="2.07658">
        <ele>66.2</ele>
        <time>2022-03-22T09:56:37Z</time>
      </trkpt>
      <trkpt lat="48.92667" lon="2.07654">
        <ele>67.2</ele>
        <time>2022-03-22T09:56:41Z</time>
      </trkpt>
      <trkpt lat="48.92663" lon="2.07649">
        <ele>67.3</ele>
        <time>2022-03-22T09:56:46Z</time>
      </trkpt>
      <trkpt lat="48.92659" lon="2.07646">
        <ele>67.2</ele>
        <time>2022-03-22T09:56:51Z</time>
      </trkpt>
      <trkpt lat="48.92654" lon="2.07647">
        <ele>66.9</ele>
        <time>2022-03-22T09:56:54Z</time>
      </trkpt>
      <trkpt lat="48.9265" lon="2.07643">
        <ele>66.3</ele>
        <time>2022-03-22T09:56:58Z</time>
      </trkpt>
      <trkpt lat="48.92647" lon="2.07637">
        <ele>65.4</ele>
        <time>2022-03-22T09:57:02Z</time>
      </trkpt>
      <trkpt lat="48.92644" lon="2.07632">
        <ele>65.2</ele>
        <time>2022-03-22T09:57:06Z</time>
      </trkpt>
      <trkpt lat="48.92641" lon="2.07625">
        <ele>65.4</ele>
        <time>2022-03-22T09:57:10Z</time>
      </trkpt>
      <trkpt lat="48.92637" lon="2.0762">
        <ele>65.4</ele>
        <time>2022-03-22T09:57:14Z</time>
      </trkpt>
      <trkpt lat="48.92633" lon="2.07614">
        <ele>66.1</ele>
        <time>2022-03-22T09:57:18Z</time>
      </trkpt>
      <trkpt lat="48.9263" lon="2.07609">
        <ele>66.6</ele>
        <time>2022-03-22T09:57:22Z</time>
      </trkpt>
      <trkpt lat="48.92626" lon="2.07603">
        <ele>66.8</ele>
        <time>2022-03-22T09:57:26Z</time>
      </trkpt>
      <trkpt lat="48.92622" lon="2.07599">
        <ele>67.4</ele>
        <time>2022-03-22T09:57:29Z</time>
      </trkpt>
      <trkpt lat="48.92619" lon="2.07593">
        <ele>68.4</ele>
        <time>2022-03-22T09:57:33Z</time>
      </trkpt>
      <trkpt lat="48.92616" lon="2.07588">
        <ele>68.9</ele>
        <time>2022-03-22T09:57:36Z</time>
      </trkpt>
      <trkpt lat="48.92611" lon="2.07583">
        <ele>69.1</ele>
        <time>2022-03-22T09:57:41Z</time>
      </trkpt>
      <trkpt lat="48.92607" lon="2.07577">
        <ele>68.8</ele>
        <time>2022-03-22T09:57:45Z</time>
      </trkpt>
      <trkpt lat="48.92604" lon="2.07571">
        <ele>68.9</ele>
        <time>2022-03-22T09:57:49Z</time>
      </trkpt>
      <trkpt lat="48.92602" lon="2.07563">
        <ele>69.4</ele>
        <time>2022-03-22T09:57:53Z</time>
      </trkpt>
      <trkpt lat="48.92599" lon="2.07555">
        <ele>70</ele>
        <time>2022-03-22T09:57:58Z</time>
      </trkpt>
      <trkpt lat="48.92596" lon="2.07551">
        <ele>70.3</ele>
        <time>2022-03-22T09:58:01Z</time>
      </trkpt>
      <trkpt lat="48.92591" lon="2.07545">
        <ele>70.4</ele>
        <time>2022-03-22T09:58:06Z</time>
      </trkpt>
      <trkpt lat="48.92588" lon="2.07539">
        <ele>70.5</ele>
        <time>2022-03-22T09:58:09Z</time>
      </trkpt>
      <trkpt lat="48.92584" lon="2.07534">
        <ele>69.6</ele>
        <time>2022-03-22T09:58:13Z</time>
      </trkpt>
      <trkpt lat="48.9258" lon="2.07529">
        <ele>69.3</ele>
        <time>2022-03-22T09:58:17Z</time>
      </trkpt>
      <trkpt lat="48.92575" lon="2.07525">
        <ele>69.6</ele>
        <time>2022-03-22T09:58:21Z</time>
      </trkpt>
      <trkpt lat="48.92571" lon="2.07518">
        <ele>69.6</ele>
        <time>2022-03-22T09:58:26Z</time>
      </trkpt>
      <trkpt lat="48.92568" lon="2.07512">
        <ele>69.7</ele>
        <time>2022-03-22T09:58:30Z</time>
      </trkpt>
      <trkpt lat="48.92565" lon="2.07504">
        <ele>70</ele>
        <time>2022-03-22T09:58:34Z</time>
      </trkpt>
      <trkpt lat="48.92561" lon="2.07498">
        <ele>69.8</ele>
        <time>2022-03-22T09:58:37Z</time>
      </trkpt>
      <trkpt lat="48.92557" lon="2.07494">
        <ele>69.5</ele>
        <time>2022-03-22T09:58:41Z</time>
      </trkpt>
      <trkpt lat="48.92553" lon="2.0749">
        <ele>69.2</ele>
        <time>2022-03-22T09:58:45Z</time>
      </trkpt>
      <trkpt lat="48.92548" lon="2.0749">
        <ele>69.4</ele>
        <time>2022-03-22T09:58:49Z</time>
      </trkpt>
      <trkpt lat="48.92544" lon="2.07496">
        <ele>69.8</ele>
        <time>2022-03-22T09:58:53Z</time>
      </trkpt>
      <trkpt lat="48.9254" lon="2.07503">
        <ele>69.3</ele>
        <time>2022-03-22T09:58:57Z</time>
      </trkpt>
      <trkpt lat="48.92535" lon="2.07507">
        <ele>68.3</ele>
        <time>2022-03-22T09:59:00Z</time>
      </trkpt>
      <trkpt lat="48.9253" lon="2.0751">
        <ele>67.9</ele>
        <time>2022-03-22T09:59:04Z</time>
      </trkpt>
      <trkpt lat="48.92525" lon="2.07513">
        <ele>68.4</ele>
        <time>2022-03-22T09:59:07Z</time>
      </trkpt>
      <trkpt lat="48.9252" lon="2.07515">
        <ele>68.8</ele>
        <time>2022-03-22T09:59:10Z</time>
      </trkpt>
      <trkpt lat="48.92516" lon="2.07518">
        <ele>68.4</ele>
        <time>2022-03-22T09:59:13Z</time>
      </trkpt>
      <trkpt lat="48.92512" lon="2.0752">
        <ele>68</ele>
        <time>2022-03-22T09:59:16Z</time>
      </trkpt>
      <trkpt lat="48.92506" lon="2.07524">
        <ele>68</ele>
        <time>2022-03-22T09:59:20Z</time>
      </trkpt>
      <trkpt lat="48.92502" lon="2.07528">
        <ele>68.5</ele>
        <time>2022-03-22T09:59:24Z</time>
      </trkpt>
      <trkpt lat="48.92499" lon="2.07534">
        <ele>68.6</ele>
        <time>2022-03-22T09:59:27Z</time>
      </trkpt>
      <trkpt lat="48.92495" lon="2.07538">
        <ele>68.5</ele>
        <time>2022-03-22T09:59:31Z</time>
      </trkpt>
      <trkpt lat="48.9249" lon="2.07539">
        <ele>67.9</ele>
        <time>2022-03-22T09:59:34Z</time>
      </trkpt>
      <trkpt lat="48.92485" lon="2.07543">
        <ele>67.8</ele>
        <time>2022-03-22T09:59:38Z</time>
      </trkpt>
      <trkpt lat="48.92481" lon="2.07545">
        <ele>68.4</ele>
        <time>2022-03-22T09:59:41Z</time>
      </trkpt>
      <trkpt lat="48.92476" lon="2.07548">
        <ele>70.2</ele>
        <time>2022-03-22T09:59:45Z</time>
      </trkpt>
      <trkpt lat="48.92472" lon="2.07552">
        <ele>70.9</ele>
        <time>2022-03-22T09:59:49Z</time>
      </trkpt>
      <trkpt lat="48.92469" lon="2.07556">
        <ele>71</ele>
        <time>2022-03-22T09:59:52Z</time>
      </trkpt>
      <trkpt lat="48.92464" lon="2.07561">
        <ele>70.6</ele>
        <time>2022-03-22T09:59:55Z</time>
      </trkpt>
      <trkpt lat="48.92459" lon="2.07567">
        <ele>70.2</ele>
        <time>2022-03-22T09:59:59Z</time>
      </trkpt>
      <trkpt lat="48.92454" lon="2.07571">
        <ele>69.5</ele>
        <time>2022-03-22T10:00:03Z</time>
      </trkpt>
      <trkpt lat="48.92449" lon="2.07575">
        <ele>68.8</ele>
        <time>2022-03-22T10:00:07Z</time>
      </trkpt>
      <trkpt lat="48.92444" lon="2.07579">
        <ele>67.5</ele>
        <time>2022-03-22T10:00:11Z</time>
      </trkpt>
      <trkpt lat="48.92439" lon="2.07582">
        <ele>67.4</ele>
        <time>2022-03-22T10:00:14Z</time>
      </trkpt>
      <trkpt lat="48.92434" lon="2.07585">
        <ele>69.3</ele>
        <time>2022-03-22T10:00:18Z</time>
      </trkpt>
      <trkpt lat="48.9243" lon="2.07591">
        <ele>71.9</ele>
        <time>2022-03-22T10:00:22Z</time>
      </trkpt>
      <trkpt lat="48.92425" lon="2.07595">
        <ele>73.2</ele>
        <time>2022-03-22T10:00:27Z</time>
      </trkpt>
      <trkpt lat="48.92421" lon="2.07599">
        <ele>72.9</ele>
        <time>2022-03-22T10:00:31Z</time>
      </trkpt>
      <trkpt lat="48.92417" lon="2.07605">
        <ele>71.2</ele>
        <time>2022-03-22T10:00:34Z</time>
      </trkpt>
      <trkpt lat="48.92412" lon="2.07609">
        <ele>68.9</ele>
        <time>2022-03-22T10:00:38Z</time>
      </trkpt>
      <trkpt lat="48.92406" lon="2.07612">
        <ele>68.7</ele>
        <time>2022-03-22T10:00:43Z</time>
      </trkpt>
      <trkpt lat="48.92402" lon="2.07616">
        <ele>70.2</ele>
        <time>2022-03-22T10:00:46Z</time>
      </trkpt>
      <trkpt lat="48.92397" lon="2.07619">
        <ele>72.6</ele>
        <time>2022-03-22T10:00:50Z</time>
      </trkpt>
      <trkpt lat="48.92392" lon="2.07622">
        <ele>74.5</ele>
        <time>2022-03-22T10:00:54Z</time>
      </trkpt>
      <trkpt lat="48.92387" lon="2.07624">
        <ele>75.9</ele>
        <time>2022-03-22T10:00:56Z</time>
      </trkpt>
      <trkpt lat="48.92382" lon="2.07626">
        <ele>75.9</ele>
        <time>2022-03-22T10:01:00Z</time>
      </trkpt>
      <trkpt lat="48.92377" lon="2.07631">
        <ele>74.8</ele>
        <time>2022-03-22T10:01:04Z</time>
      </trkpt>
      <trkpt lat="48.92373" lon="2.07637">
        <ele>73.7</ele>
        <time>2022-03-22T10:01:12Z</time>
      </trkpt>
      <trkpt lat="48.92368" lon="2.07642">
        <ele>73.4</ele>
        <time>2022-03-22T10:01:15Z</time>
      </trkpt>
      <trkpt lat="48.92363" lon="2.07646">
        <ele>72.1</ele>
        <time>2022-03-22T10:01:19Z</time>
      </trkpt>
      <trkpt lat="48.92358" lon="2.07652">
        <ele>69.3</ele>
        <time>2022-03-22T10:01:23Z</time>
      </trkpt>
      <trkpt lat="48.92354" lon="2.07657">
        <ele>68.5</ele>
        <time>2022-03-22T10:01:27Z</time>
      </trkpt>
      <trkpt lat="48.9235" lon="2.07662">
        <ele>68.1</ele>
        <time>2022-03-22T10:01:30Z</time>
      </trkpt>
      <trkpt lat="48.92346" lon="2.07667">
        <ele>68.1</ele>
        <time>2022-03-22T10:01:33Z</time>
      </trkpt>
      <trkpt lat="48.92341" lon="2.07672">
        <ele>67.9</ele>
        <time>2022-03-22T10:01:37Z</time>
      </trkpt>
      <trkpt lat="48.92337" lon="2.07676">
        <ele>68.4</ele>
        <time>2022-03-22T10:01:41Z</time>
      </trkpt>
      <trkpt lat="48.92332" lon="2.0768">
        <ele>68.4</ele>
        <time>2022-03-22T10:01:45Z</time>
      </trkpt>
      <trkpt lat="48.92328" lon="2.07684">
        <ele>68.3</ele>
        <time>2022-03-22T10:01:49Z</time>
      </trkpt>
      <trkpt lat="48.92322" lon="2.07689">
        <ele>69</ele>
        <time>2022-03-22T10:01:54Z</time>
      </trkpt>
      <trkpt lat="48.92316" lon="2.0769">
        <ele>70.7</ele>
        <time>2022-03-22T10:01:58Z</time>
      </trkpt>
      <trkpt lat="48.9231" lon="2.07693">
        <ele>71.6</ele>
        <time>2022-03-22T10:02:01Z</time>
      </trkpt>
      <trkpt lat="48.92305" lon="2.07695">
        <ele>72.2</ele>
        <time>2022-03-22T10:02:05Z</time>
      </trkpt>
      <trkpt lat="48.923" lon="2.07699">
        <ele>72.5</ele>
        <time>2022-03-22T10:02:09Z</time>
      </trkpt>
      <trkpt lat="48.92295" lon="2.07701">
        <ele>72.3</ele>
        <time>2022-03-22T10:02:12Z</time>
      </trkpt>
      <trkpt lat="48.92291" lon="2.07705">
        <ele>72.4</ele>
        <time>2022-03-22T10:02:16Z</time>
      </trkpt>
      <trkpt lat="48.92287" lon="2.07711">
        <ele>72.3</ele>
        <time>2022-03-22T10:02:20Z</time>
      </trkpt>
      <trkpt lat="48.92283" lon="2.07715">
        <ele>72.5</ele>
        <time>2022-03-22T10:02:28Z</time>
      </trkpt>
      <trkpt lat="48.9228" lon="2.07722">
        <ele>72.5</ele>
        <time>2022-03-22T10:02:35Z</time>
      </trkpt>
      <trkpt lat="48.92278" lon="2.07728">
        <ele>71.7</ele>
        <time>2022-03-22T10:02:41Z</time>
      </trkpt>
      <trkpt lat="48.92276" lon="2.07721">
        <ele>67.8</ele>
        <time>2022-03-22T10:04:25Z</time>
      </trkpt>
      <trkpt lat="48.92272" lon="2.07716">
        <ele>67.4</ele>
        <time>2022-03-22T10:04:29Z</time>
      </trkpt>
      <trkpt lat="48.92269" lon="2.07708">
        <ele>67.9</ele>
        <time>2022-03-22T10:04:33Z</time>
      </trkpt>
      <trkpt lat="48.92265" lon="2.07703">
        <ele>68.5</ele>
        <time>2022-03-22T10:04:36Z</time>
      </trkpt>
      <trkpt lat="48.92261" lon="2.07699">
        <ele>69.2</ele>
        <time>2022-03-22T10:04:41Z</time>
      </trkpt>
      <trkpt lat="48.92257" lon="2.07696">
        <ele>69.5</ele>
        <time>2022-03-22T10:04:45Z</time>
      </trkpt>
      <trkpt lat="48.92252" lon="2.07694">
        <ele>69.9</ele>
        <time>2022-03-22T10:04:49Z</time>
      </trkpt>
      <trkpt lat="48.92246" lon="2.07694">
        <ele>69.6</ele>
        <time>2022-03-22T10:04:53Z</time>
      </trkpt>
      <trkpt lat="48.92242" lon="2.07693">
        <ele>69.2</ele>
        <time>2022-03-22T10:04:57Z</time>
      </trkpt>
      <trkpt lat="48.92237" lon="2.07692">
        <ele>69.1</ele>
        <time>2022-03-22T10:05:01Z</time>
      </trkpt>
      <trkpt lat="48.92232" lon="2.07689">
        <ele>70.2</ele>
        <time>2022-03-22T10:05:04Z</time>
      </trkpt>
      <trkpt lat="48.92227" lon="2.07685">
        <ele>71.8</ele>
        <time>2022-03-22T10:05:08Z</time>
      </trkpt>
      <trkpt lat="48.92222" lon="2.07682">
        <ele>73.3</ele>
        <time>2022-03-22T10:05:12Z</time>
      </trkpt>
      <trkpt lat="48.92217" lon="2.0768">
        <ele>73.7</ele>
        <time>2022-03-22T10:05:16Z</time>
      </trkpt>
      <trkpt lat="48.92212" lon="2.07679">
        <ele>73.2</ele>
        <time>2022-03-22T10:05:20Z</time>
      </trkpt>
      <trkpt lat="48.92207" lon="2.07678">
        <ele>72.3</ele>
        <time>2022-03-22T10:05:23Z</time>
      </trkpt>
      <trkpt lat="48.92201" lon="2.07675">
        <ele>72.3</ele>
        <time>2022-03-22T10:05:27Z</time>
      </trkpt>
      <trkpt lat="48.92197" lon="2.07674">
        <ele>72.6</ele>
        <time>2022-03-22T10:05:29Z</time>
      </trkpt>
      <trkpt lat="48.92191" lon="2.07672">
        <ele>72.6</ele>
        <time>2022-03-22T10:05:33Z</time>
      </trkpt>
      <trkpt lat="48.92186" lon="2.07668">
        <ele>72.1</ele>
        <time>2022-03-22T10:05:37Z</time>
      </trkpt>
      <trkpt lat="48.92182" lon="2.07666">
        <ele>72.5</ele>
        <time>2022-03-22T10:05:40Z</time>
      </trkpt>
      <trkpt lat="48.92177" lon="2.07664">
        <ele>72.9</ele>
        <time>2022-03-22T10:05:44Z</time>
      </trkpt>
      <trkpt lat="48.92173" lon="2.07661">
        <ele>73.1</ele>
        <time>2022-03-22T10:05:47Z</time>
      </trkpt>
      <trkpt lat="48.92168" lon="2.07659">
        <ele>73.1</ele>
        <time>2022-03-22T10:05:51Z</time>
      </trkpt>
      <trkpt lat="48.92162" lon="2.07657">
        <ele>73.3</ele>
        <time>2022-03-22T10:05:55Z</time>
      </trkpt>
      <trkpt lat="48.92157" lon="2.07654">
        <ele>73.3</ele>
        <time>2022-03-22T10:05:59Z</time>
      </trkpt>
      <trkpt lat="48.92152" lon="2.07652">
        <ele>72.8</ele>
        <time>2022-03-22T10:06:03Z</time>
      </trkpt>
      <trkpt lat="48.92147" lon="2.07649">
        <ele>72.3</ele>
        <time>2022-03-22T10:06:06Z</time>
      </trkpt>
      <trkpt lat="48.92143" lon="2.07647">
        <ele>73.2</ele>
        <time>2022-03-22T10:06:10Z</time>
      </trkpt>
      <trkpt lat="48.92137" lon="2.07643">
        <ele>74.9</ele>
        <time>2022-03-22T10:06:14Z</time>
      </trkpt>
      <trkpt lat="48.92131" lon="2.07641">
        <ele>76.1</ele>
        <time>2022-03-22T10:06:18Z</time>
      </trkpt>
      <trkpt lat="48.92127" lon="2.07639">
        <ele>76.1</ele>
        <time>2022-03-22T10:06:22Z</time>
      </trkpt>
      <trkpt lat="48.92121" lon="2.07635">
        <ele>75.8</ele>
        <time>2022-03-22T10:06:27Z</time>
      </trkpt>
      <trkpt lat="48.92116" lon="2.07634">
        <ele>75.4</ele>
        <time>2022-03-22T10:06:31Z</time>
      </trkpt>
      <trkpt lat="48.92111" lon="2.07634">
        <ele>74.6</ele>
        <time>2022-03-22T10:06:35Z</time>
      </trkpt>
      <trkpt lat="48.92106" lon="2.07634">
        <ele>74</ele>
        <time>2022-03-22T10:06:38Z</time>
      </trkpt>
      <trkpt lat="48.92101" lon="2.07633">
        <ele>74.3</ele>
        <time>2022-03-22T10:06:42Z</time>
      </trkpt>
      <trkpt lat="48.92096" lon="2.07631">
        <ele>74</ele>
        <time>2022-03-22T10:06:47Z</time>
      </trkpt>
      <trkpt lat="48.92091" lon="2.07627">
        <ele>73.3</ele>
        <time>2022-03-22T10:06:52Z</time>
      </trkpt>
      <trkpt lat="48.92086" lon="2.07624">
        <ele>72.4</ele>
        <time>2022-03-22T10:06:56Z</time>
      </trkpt>
      <trkpt lat="48.92081" lon="2.07621">
        <ele>71.7</ele>
        <time>2022-03-22T10:07:00Z</time>
      </trkpt>
      <trkpt lat="48.92076" lon="2.07618">
        <ele>71.7</ele>
        <time>2022-03-22T10:07:03Z</time>
      </trkpt>
      <trkpt lat="48.92071" lon="2.07616">
        <ele>71.7</ele>
        <time>2022-03-22T10:07:08Z</time>
      </trkpt>
      <trkpt lat="48.92066" lon="2.07614">
        <ele>71.5</ele>
        <time>2022-03-22T10:07:12Z</time>
      </trkpt>
      <trkpt lat="48.92062" lon="2.07611">
        <ele>71.9</ele>
        <time>2022-03-22T10:07:16Z</time>
      </trkpt>
      <trkpt lat="48.92057" lon="2.07609">
        <ele>72.2</ele>
        <time>2022-03-22T10:07:20Z</time>
      </trkpt>
      <trkpt lat="48.92052" lon="2.07608">
        <ele>72.2</ele>
        <time>2022-03-22T10:07:23Z</time>
      </trkpt>
      <trkpt lat="48.92047" lon="2.07605">
        <ele>72.1</ele>
        <time>2022-03-22T10:07:27Z</time>
      </trkpt>
      <trkpt lat="48.92042" lon="2.07602">
        <ele>72.3</ele>
        <time>2022-03-22T10:07:31Z</time>
      </trkpt>
      <trkpt lat="48.92037" lon="2.076">
        <ele>72.8</ele>
        <time>2022-03-22T10:07:35Z</time>
      </trkpt>
      <trkpt lat="48.92032" lon="2.07598">
        <ele>73.1</ele>
        <time>2022-03-22T10:07:39Z</time>
      </trkpt>
      <trkpt lat="48.92027" lon="2.07595">
        <ele>72.9</ele>
        <time>2022-03-22T10:07:42Z</time>
      </trkpt>
      <trkpt lat="48.92022" lon="2.07593">
        <ele>72.2</ele>
        <time>2022-03-22T10:07:46Z</time>
      </trkpt>
      <trkpt lat="48.92017" lon="2.07591">
        <ele>71.5</ele>
        <time>2022-03-22T10:07:50Z</time>
      </trkpt>
      <trkpt lat="48.92011" lon="2.07589">
        <ele>71.5</ele>
        <time>2022-03-22T10:07:55Z</time>
      </trkpt>
      <trkpt lat="48.92006" lon="2.07586">
        <ele>71.9</ele>
        <time>2022-03-22T10:07:59Z</time>
      </trkpt>
      <trkpt lat="48.92001" lon="2.07583">
        <ele>72.5</ele>
        <time>2022-03-22T10:08:02Z</time>
      </trkpt>
      <trkpt lat="48.91997" lon="2.07578">
        <ele>72.9</ele>
        <time>2022-03-22T10:08:06Z</time>
      </trkpt>
      <trkpt lat="48.91992" lon="2.07575">
        <ele>73.2</ele>
        <time>2022-03-22T10:08:10Z</time>
      </trkpt>
      <trkpt lat="48.91987" lon="2.07572">
        <ele>73.6</ele>
        <time>2022-03-22T10:08:14Z</time>
      </trkpt>
      <trkpt lat="48.91982" lon="2.07569">
        <ele>74.1</ele>
        <time>2022-03-22T10:08:18Z</time>
      </trkpt>
      <trkpt lat="48.91977" lon="2.07567">
        <ele>75</ele>
        <time>2022-03-22T10:08:21Z</time>
      </trkpt>
      <trkpt lat="48.91972" lon="2.07566">
        <ele>76</ele>
        <time>2022-03-22T10:08:25Z</time>
      </trkpt>
      <trkpt lat="48.91967" lon="2.07564">
        <ele>76.3</ele>
        <time>2022-03-22T10:08:28Z</time>
      </trkpt>
      <trkpt lat="48.91962" lon="2.07562">
        <ele>76.3</ele>
        <time>2022-03-22T10:08:33Z</time>
      </trkpt>
      <trkpt lat="48.91957" lon="2.07559">
        <ele>76.5</ele>
        <time>2022-03-22T10:08:36Z</time>
      </trkpt>
      <trkpt lat="48.91952" lon="2.07556">
        <ele>75.3</ele>
        <time>2022-03-22T10:08:40Z</time>
      </trkpt>
      <trkpt lat="48.91947" lon="2.07554">
        <ele>73.9</ele>
        <time>2022-03-22T10:08:44Z</time>
      </trkpt>
      <trkpt lat="48.91941" lon="2.07553">
        <ele>73.4</ele>
        <time>2022-03-22T10:08:49Z</time>
      </trkpt>
      <trkpt lat="48.91936" lon="2.07552">
        <ele>75.2</ele>
        <time>2022-03-22T10:08:54Z</time>
      </trkpt>
      <trkpt lat="48.91931" lon="2.07549">
        <ele>76.8</ele>
        <time>2022-03-22T10:08:58Z</time>
      </trkpt>
      <trkpt lat="48.91926" lon="2.07546">
        <ele>77.1</ele>
        <time>2022-03-22T10:09:01Z</time>
      </trkpt>
      <trkpt lat="48.91921" lon="2.07544">
        <ele>77.2</ele>
        <time>2022-03-22T10:09:05Z</time>
      </trkpt>
      <trkpt lat="48.91916" lon="2.07543">
        <ele>76.5</ele>
        <time>2022-03-22T10:09:09Z</time>
      </trkpt>
      <trkpt lat="48.91911" lon="2.07542">
        <ele>76</ele>
        <time>2022-03-22T10:09:14Z</time>
      </trkpt>
      <trkpt lat="48.91906" lon="2.07537">
        <ele>76.1</ele>
        <time>2022-03-22T10:09:17Z</time>
      </trkpt>
      <trkpt lat="48.91902" lon="2.07532">
        <ele>77.1</ele>
        <time>2022-03-22T10:09:21Z</time>
      </trkpt>
      <trkpt lat="48.91897" lon="2.07527">
        <ele>77.8</ele>
        <time>2022-03-22T10:09:25Z</time>
      </trkpt>
      <trkpt lat="48.91891" lon="2.07525">
        <ele>77.6</ele>
        <time>2022-03-22T10:09:29Z</time>
      </trkpt>
      <trkpt lat="48.91887" lon="2.07521">
        <ele>77</ele>
        <time>2022-03-22T10:09:32Z</time>
      </trkpt>
      <trkpt lat="48.91883" lon="2.07519">
        <ele>76.6</ele>
        <time>2022-03-22T10:09:36Z</time>
      </trkpt>
      <trkpt lat="48.91878" lon="2.07518">
        <ele>76.3</ele>
        <time>2022-03-22T10:09:40Z</time>
      </trkpt>
      <trkpt lat="48.91873" lon="2.07517">
        <ele>76.3</ele>
        <time>2022-03-22T10:09:43Z</time>
      </trkpt>
      <trkpt lat="48.91868" lon="2.07517">
        <ele>74.8</ele>
        <time>2022-03-22T10:09:47Z</time>
      </trkpt>
      <trkpt lat="48.91862" lon="2.07516">
        <ele>72.9</ele>
        <time>2022-03-22T10:09:52Z</time>
      </trkpt>
      <trkpt lat="48.91858" lon="2.07512">
        <ele>72.8</ele>
        <time>2022-03-22T10:09:56Z</time>
      </trkpt>
      <trkpt lat="48.91854" lon="2.07509">
        <ele>73.6</ele>
        <time>2022-03-22T10:09:59Z</time>
      </trkpt>
      <trkpt lat="48.91849" lon="2.07505">
        <ele>73.8</ele>
        <time>2022-03-22T10:10:03Z</time>
      </trkpt>
      <trkpt lat="48.91845" lon="2.07502">
        <ele>74.1</ele>
        <time>2022-03-22T10:10:07Z</time>
      </trkpt>
      <trkpt lat="48.9184" lon="2.075">
        <ele>74.2</ele>
        <time>2022-03-22T10:10:10Z</time>
      </trkpt>
      <trkpt lat="48.91835" lon="2.07495">
        <ele>74.5</ele>
        <time>2022-03-22T10:10:14Z</time>
      </trkpt>
      <trkpt lat="48.91831" lon="2.07491">
        <ele>74.5</ele>
        <time>2022-03-22T10:10:18Z</time>
      </trkpt>
      <trkpt lat="48.91826" lon="2.07489">
        <ele>74.6</ele>
        <time>2022-03-22T10:10:22Z</time>
      </trkpt>
      <trkpt lat="48.91821" lon="2.07488">
        <ele>73.7</ele>
        <time>2022-03-22T10:10:26Z</time>
      </trkpt>
      <trkpt lat="48.91815" lon="2.07487">
        <ele>72.6</ele>
        <time>2022-03-22T10:10:30Z</time>
      </trkpt>
      <trkpt lat="48.9181" lon="2.07486">
        <ele>72.3</ele>
        <time>2022-03-22T10:10:33Z</time>
      </trkpt>
      <trkpt lat="48.91805" lon="2.07486">
        <ele>71.6</ele>
        <time>2022-03-22T10:10:37Z</time>
      </trkpt>
      <trkpt lat="48.91799" lon="2.07486">
        <ele>69.9</ele>
        <time>2022-03-22T10:10:41Z</time>
      </trkpt>
      <trkpt lat="48.91794" lon="2.07484">
        <ele>68.8</ele>
        <time>2022-03-22T10:10:46Z</time>
      </trkpt>
      <trkpt lat="48.9179" lon="2.07481">
        <ele>69.2</ele>
        <time>2022-03-22T10:10:50Z</time>
      </trkpt>
      <trkpt lat="48.91785" lon="2.07479">
        <ele>69.7</ele>
        <time>2022-03-22T10:10:53Z</time>
      </trkpt>
      <trkpt lat="48.9178" lon="2.07477">
        <ele>70.2</ele>
        <time>2022-03-22T10:10:56Z</time>
      </trkpt>
      <trkpt lat="48.91776" lon="2.07474">
        <ele>68.2</ele>
        <time>2022-03-22T10:11:02Z</time>
      </trkpt>
      <trkpt lat="48.91771" lon="2.07474">
        <ele>66.9</ele>
        <time>2022-03-22T10:11:05Z</time>
      </trkpt>
      <trkpt lat="48.91766" lon="2.0747">
        <ele>66.3</ele>
        <time>2022-03-22T10:11:10Z</time>
      </trkpt>
      <trkpt lat="48.91765" lon="2.07464">
        <ele>65.9</ele>
        <time>2022-03-22T10:11:14Z</time>
      </trkpt>
      <trkpt lat="48.91764" lon="2.07456">
        <ele>64.8</ele>
        <time>2022-03-22T10:11:18Z</time>
      </trkpt>
      <trkpt lat="48.91763" lon="2.07448">
        <ele>63.9</ele>
        <time>2022-03-22T10:11:22Z</time>
      </trkpt>
      <trkpt lat="48.91762" lon="2.07441">
        <ele>63.2</ele>
        <time>2022-03-22T10:11:26Z</time>
      </trkpt>
      <trkpt lat="48.91761" lon="2.07432">
        <ele>63.8</ele>
        <time>2022-03-22T10:11:30Z</time>
      </trkpt>
      <trkpt lat="48.9176" lon="2.07425">
        <ele>64.6</ele>
        <time>2022-03-22T10:11:34Z</time>
      </trkpt>
      <trkpt lat="48.91759" lon="2.07417">
        <ele>66.2</ele>
        <time>2022-03-22T10:11:37Z</time>
      </trkpt>
      <trkpt lat="48.91759" lon="2.0741">
        <ele>66.5</ele>
        <time>2022-03-22T10:11:41Z</time>
      </trkpt>
      <trkpt lat="48.91761" lon="2.07402">
        <ele>66.1</ele>
        <time>2022-03-22T10:11:45Z</time>
      </trkpt>
      <trkpt lat="48.91762" lon="2.07394">
        <ele>65</ele>
        <time>2022-03-22T10:11:49Z</time>
      </trkpt>
      <trkpt lat="48.91762" lon="2.07386">
        <ele>64.3</ele>
        <time>2022-03-22T10:11:52Z</time>
      </trkpt>
      <trkpt lat="48.91762" lon="2.07377">
        <ele>63.1</ele>
        <time>2022-03-22T10:11:56Z</time>
      </trkpt>
      <trkpt lat="48.91761" lon="2.0737">
        <ele>61.6</ele>
        <time>2022-03-22T10:12:00Z</time>
      </trkpt>
      <trkpt lat="48.91761" lon="2.07361">
        <ele>60.1</ele>
        <time>2022-03-22T10:12:05Z</time>
      </trkpt>
      <trkpt lat="48.91761" lon="2.07353">
        <ele>59.8</ele>
        <time>2022-03-22T10:12:09Z</time>
      </trkpt>
      <trkpt lat="48.91761" lon="2.07345">
        <ele>60.3</ele>
        <time>2022-03-22T10:12:13Z</time>
      </trkpt>
      <trkpt lat="48.91761" lon="2.07337">
        <ele>60.4</ele>
        <time>2022-03-22T10:12:18Z</time>
      </trkpt>
      <trkpt lat="48.91762" lon="2.07329">
        <ele>59.8</ele>
        <time>2022-03-22T10:12:22Z</time>
      </trkpt>
      <trkpt lat="48.91762" lon="2.07321">
        <ele>60</ele>
        <time>2022-03-22T10:12:26Z</time>
      </trkpt>
      <trkpt lat="48.91762" lon="2.07312">
        <ele>61.3</ele>
        <time>2022-03-22T10:12:31Z</time>
      </trkpt>
      <trkpt lat="48.91762" lon="2.07305">
        <ele>62.1</ele>
        <time>2022-03-22T10:12:34Z</time>
      </trkpt>
      <trkpt lat="48.91762" lon="2.07297">
        <ele>62.5</ele>
        <time>2022-03-22T10:12:37Z</time>
      </trkpt>
      <trkpt lat="48.91762" lon="2.07289">
        <ele>62.4</ele>
        <time>2022-03-22T10:12:41Z</time>
      </trkpt>
      <trkpt lat="48.91762" lon="2.0728">
        <ele>63.8</ele>
        <time>2022-03-22T10:12:45Z</time>
      </trkpt>
      <trkpt lat="48.91762" lon="2.07272">
        <ele>65.2</ele>
        <time>2022-03-22T10:12:49Z</time>
      </trkpt>
      <trkpt lat="48.91763" lon="2.07265">
        <ele>65.5</ele>
        <time>2022-03-22T10:12:53Z</time>
      </trkpt>
      <trkpt lat="48.91764" lon="2.07257">
        <ele>64.5</ele>
        <time>2022-03-22T10:12:56Z</time>
      </trkpt>
      <trkpt lat="48.91767" lon="2.07251">
        <ele>64.4</ele>
        <time>2022-03-22T10:12:59Z</time>
      </trkpt>
      <trkpt lat="48.91769" lon="2.07244">
        <ele>65.4</ele>
        <time>2022-03-22T10:13:02Z</time>
      </trkpt>
      <trkpt lat="48.91769" lon="2.07236">
        <ele>67</ele>
        <time>2022-03-22T10:13:05Z</time>
      </trkpt>
      <trkpt lat="48.91769" lon="2.07229">
        <ele>67.8</ele>
        <time>2022-03-22T10:13:09Z</time>
      </trkpt>
      <trkpt lat="48.91769" lon="2.07221">
        <ele>68.5</ele>
        <time>2022-03-22T10:13:12Z</time>
      </trkpt>
      <trkpt lat="48.91768" lon="2.07214">
        <ele>68</ele>
        <time>2022-03-22T10:13:16Z</time>
      </trkpt>
      <trkpt lat="48.91767" lon="2.07207">
        <ele>66.5</ele>
        <time>2022-03-22T10:13:20Z</time>
      </trkpt>
      <trkpt lat="48.91767" lon="2.07199">
        <ele>65.7</ele>
        <time>2022-03-22T10:13:24Z</time>
      </trkpt>
      <trkpt lat="48.91767" lon="2.07192">
        <ele>65.2</ele>
        <time>2022-03-22T10:13:27Z</time>
      </trkpt>
      <trkpt lat="48.91766" lon="2.07185">
        <ele>65.1</ele>
        <time>2022-03-22T10:13:30Z</time>
      </trkpt>
      <trkpt lat="48.91767" lon="2.07176">
        <ele>65.5</ele>
        <time>2022-03-22T10:13:34Z</time>
      </trkpt>
      <trkpt lat="48.91768" lon="2.07169">
        <ele>66</ele>
        <time>2022-03-22T10:13:37Z</time>
      </trkpt>
      <trkpt lat="48.91768" lon="2.07162">
        <ele>66.5</ele>
        <time>2022-03-22T10:13:41Z</time>
      </trkpt>
      <trkpt lat="48.91768" lon="2.07154">
        <ele>67.3</ele>
        <time>2022-03-22T10:13:44Z</time>
      </trkpt>
      <trkpt lat="48.91768" lon="2.07146">
        <ele>67.5</ele>
        <time>2022-03-22T10:13:48Z</time>
      </trkpt>
      <trkpt lat="48.91768" lon="2.07139">
        <ele>67.2</ele>
        <time>2022-03-22T10:13:51Z</time>
      </trkpt>
      <trkpt lat="48.91767" lon="2.07131">
        <ele>66.4</ele>
        <time>2022-03-22T10:13:55Z</time>
      </trkpt>
      <trkpt lat="48.91767" lon="2.07124">
        <ele>65.4</ele>
        <time>2022-03-22T10:13:59Z</time>
      </trkpt>
      <trkpt lat="48.91767" lon="2.07116">
        <ele>64.1</ele>
        <time>2022-03-22T10:14:03Z</time>
      </trkpt>
      <trkpt lat="48.91767" lon="2.07109">
        <ele>63.1</ele>
        <time>2022-03-22T10:14:07Z</time>
      </trkpt>
      <trkpt lat="48.91768" lon="2.07099">
        <ele>62.5</ele>
        <time>2022-03-22T10:14:12Z</time>
      </trkpt>
      <trkpt lat="48.91769" lon="2.07091">
        <ele>62.3</ele>
        <time>2022-03-22T10:14:16Z</time>
      </trkpt>
      <trkpt lat="48.91769" lon="2.07082">
        <ele>62.6</ele>
        <time>2022-03-22T10:14:19Z</time>
      </trkpt>
      <trkpt lat="48.9177" lon="2.07073">
        <ele>63.1</ele>
        <time>2022-03-22T10:14:23Z</time>
      </trkpt>
      <trkpt lat="48.9177" lon="2.07065">
        <ele>63.4</ele>
        <time>2022-03-22T10:14:28Z</time>
      </trkpt>
      <trkpt lat="48.91771" lon="2.07057">
        <ele>64.7</ele>
        <time>2022-03-22T10:14:32Z</time>
      </trkpt>
      <trkpt lat="48.91772" lon="2.07049">
        <ele>66.2</ele>
        <time>2022-03-22T10:14:35Z</time>
      </trkpt>
      <trkpt lat="48.91772" lon="2.0704">
        <ele>68.5</ele>
        <time>2022-03-22T10:14:40Z</time>
      </trkpt>
      <trkpt lat="48.91771" lon="2.07032">
        <ele>69.8</ele>
        <time>2022-03-22T10:14:43Z</time>
      </trkpt>
      <trkpt lat="48.91772" lon="2.07023">
        <ele>69.5</ele>
        <time>2022-03-22T10:14:47Z</time>
      </trkpt>
      <trkpt lat="48.91774" lon="2.07015">
        <ele>69.1</ele>
        <time>2022-03-22T10:14:53Z</time>
      </trkpt>
      <trkpt lat="48.91769" lon="2.07009">
        <ele>71.6</ele>
        <time>2022-03-22T10:15:04Z</time>
      </trkpt>
      <trkpt lat="48.91765" lon="2.07003">
        <ele>71.7</ele>
        <time>2022-03-22T10:15:09Z</time>
      </trkpt>
      <trkpt lat="48.91766" lon="2.06995">
        <ele>72.5</ele>
        <time>2022-03-22T10:15:14Z</time>
      </trkpt>
      <trkpt lat="48.91769" lon="2.06989">
        <ele>73.7</ele>
        <time>2022-03-22T10:15:19Z</time>
      </trkpt>
      <trkpt lat="48.9177" lon="2.06982">
        <ele>74.1</ele>
        <time>2022-03-22T10:15:25Z</time>
      </trkpt>
      <trkpt lat="48.91771" lon="2.06974">
        <ele>72.9</ele>
        <time>2022-03-22T10:15:30Z</time>
      </trkpt>
      <trkpt lat="48.91772" lon="2.06966">
        <ele>71</ele>
        <time>2022-03-22T10:15:36Z</time>
      </trkpt>
      <trkpt lat="48.91773" lon="2.06959">
        <ele>69.7</ele>
        <time>2022-03-22T10:15:40Z</time>
      </trkpt>
      <trkpt lat="48.91774" lon="2.06952">
        <ele>69.1</ele>
        <time>2022-03-22T10:15:43Z</time>
      </trkpt>
      <trkpt lat="48.91775" lon="2.06945">
        <ele>68.5</ele>
        <time>2022-03-22T10:15:47Z</time>
      </trkpt>
      <trkpt lat="48.91775" lon="2.06937">
        <ele>68</ele>
        <time>2022-03-22T10:15:51Z</time>
      </trkpt>
      <trkpt lat="48.91775" lon="2.0693">
        <ele>68.6</ele>
        <time>2022-03-22T10:15:55Z</time>
      </trkpt>
      <trkpt lat="48.91775" lon="2.06922">
        <ele>69.2</ele>
        <time>2022-03-22T10:15:59Z</time>
      </trkpt>
      <trkpt lat="48.91775" lon="2.06914">
        <ele>68.6</ele>
        <time>2022-03-22T10:16:04Z</time>
      </trkpt>
      <trkpt lat="48.91777" lon="2.06906">
        <ele>67.9</ele>
        <time>2022-03-22T10:16:08Z</time>
      </trkpt>
      <trkpt lat="48.91779" lon="2.06898">
        <ele>67.9</ele>
        <time>2022-03-22T10:16:13Z</time>
      </trkpt>
      <trkpt lat="48.91781" lon="2.06892">
        <ele>67.3</ele>
        <time>2022-03-22T10:16:17Z</time>
      </trkpt>
      <trkpt lat="48.91781" lon="2.06884">
        <ele>66.8</ele>
        <time>2022-03-22T10:16:22Z</time>
      </trkpt>
      <trkpt lat="48.9178" lon="2.06877">
        <ele>66.6</ele>
        <time>2022-03-22T10:16:26Z</time>
      </trkpt>
      <trkpt lat="48.91778" lon="2.06868">
        <ele>66.4</ele>
        <time>2022-03-22T10:16:31Z</time>
      </trkpt>
      <trkpt lat="48.91777" lon="2.0686">
        <ele>67.1</ele>
        <time>2022-03-22T10:16:35Z</time>
      </trkpt>
      <trkpt lat="48.91777" lon="2.06851">
        <ele>68.3</ele>
        <time>2022-03-22T10:16:39Z</time>
      </trkpt>
      <trkpt lat="48.91777" lon="2.06843">
        <ele>68.9</ele>
        <time>2022-03-22T10:16:44Z</time>
      </trkpt>
      <trkpt lat="48.91777" lon="2.06834">
        <ele>69.1</ele>
        <time>2022-03-22T10:16:49Z</time>
      </trkpt>
      <trkpt lat="48.91777" lon="2.06825">
        <ele>69.5</ele>
        <time>2022-03-22T10:16:53Z</time>
      </trkpt>
      <trkpt lat="48.91779" lon="2.06816">
        <ele>69</ele>
        <time>2022-03-22T10:16:58Z</time>
      </trkpt>
      <trkpt lat="48.91779" lon="2.06808">
        <ele>68.2</ele>
        <time>2022-03-22T10:17:02Z</time>
      </trkpt>
      <trkpt lat="48.91779" lon="2.06799">
        <ele>67.2</ele>
        <time>2022-03-22T10:17:06Z</time>
      </trkpt>
      <trkpt lat="48.9178" lon="2.06792">
        <ele>67.6</ele>
        <time>2022-03-22T10:17:11Z</time>
      </trkpt>
      <trkpt lat="48.9178" lon="2.06783">
        <ele>69</ele>
        <time>2022-03-22T10:17:15Z</time>
      </trkpt>
      <trkpt lat="48.91779" lon="2.06775">
        <ele>69.1</ele>
        <time>2022-03-22T10:17:19Z</time>
      </trkpt>
      <trkpt lat="48.91779" lon="2.06767">
        <ele>68.1</ele>
        <time>2022-03-22T10:17:23Z</time>
      </trkpt>
      <trkpt lat="48.91779" lon="2.06759">
        <ele>67.5</ele>
        <time>2022-03-22T10:17:27Z</time>
      </trkpt>
      <trkpt lat="48.9178" lon="2.06751">
        <ele>68.2</ele>
        <time>2022-03-22T10:17:31Z</time>
      </trkpt>
      <trkpt lat="48.9178" lon="2.06744">
        <ele>69.8</ele>
        <time>2022-03-22T10:17:35Z</time>
      </trkpt>
      <trkpt lat="48.9178" lon="2.06736">
        <ele>72.3</ele>
        <time>2022-03-22T10:17:39Z</time>
      </trkpt>
      <trkpt lat="48.91781" lon="2.06729">
        <ele>72.8</ele>
        <time>2022-03-22T10:17:43Z</time>
      </trkpt>
      <trkpt lat="48.91782" lon="2.0672">
        <ele>72.5</ele>
        <time>2022-03-22T10:17:48Z</time>
      </trkpt>
      <trkpt lat="48.91783" lon="2.06711">
        <ele>71.1</ele>
        <time>2022-03-22T10:17:53Z</time>
      </trkpt>
      <trkpt lat="48.91783" lon="2.06703">
        <ele>70.1</ele>
        <time>2022-03-22T10:17:57Z</time>
      </trkpt>
      <trkpt lat="48.91783" lon="2.06694">
        <ele>69.8</ele>
        <time>2022-03-22T10:18:02Z</time>
      </trkpt>
      <trkpt lat="48.91784" lon="2.06687">
        <ele>69.2</ele>
        <time>2022-03-22T10:18:06Z</time>
      </trkpt>
      <trkpt lat="48.91785" lon="2.06679">
        <ele>69.4</ele>
        <time>2022-03-22T10:18:10Z</time>
      </trkpt>
      <trkpt lat="48.91785" lon="2.06671">
        <ele>70.2</ele>
        <time>2022-03-22T10:18:15Z</time>
      </trkpt>
      <trkpt lat="48.91784" lon="2.06664">
        <ele>69.9</ele>
        <time>2022-03-22T10:18:19Z</time>
      </trkpt>
      <trkpt lat="48.91783" lon="2.06656">
        <ele>70.3</ele>
        <time>2022-03-22T10:18:23Z</time>
      </trkpt>
      <trkpt lat="48.91784" lon="2.06649">
        <ele>71.1</ele>
        <time>2022-03-22T10:18:27Z</time>
      </trkpt>
      <trkpt lat="48.91783" lon="2.06642">
        <ele>71.9</ele>
        <time>2022-03-22T10:18:31Z</time>
      </trkpt>
      <trkpt lat="48.91783" lon="2.06634">
        <ele>72.1</ele>
        <time>2022-03-22T10:18:35Z</time>
      </trkpt>
      <trkpt lat="48.91785" lon="2.06627">
        <ele>72</ele>
        <time>2022-03-22T10:18:40Z</time>
      </trkpt>
      <trkpt lat="48.91786" lon="2.0662">
        <ele>72.3</ele>
        <time>2022-03-22T10:18:44Z</time>
      </trkpt>
      <trkpt lat="48.91786" lon="2.06612">
        <ele>73.1</ele>
        <time>2022-03-22T10:18:48Z</time>
      </trkpt>
      <trkpt lat="48.91785" lon="2.06605">
        <ele>73.8</ele>
        <time>2022-03-22T10:18:53Z</time>
      </trkpt>
      <trkpt lat="48.91785" lon="2.06597">
        <ele>73.8</ele>
        <time>2022-03-22T10:18:58Z</time>
      </trkpt>
      <trkpt lat="48.91785" lon="2.06589">
        <ele>71.9</ele>
        <time>2022-03-22T10:19:02Z</time>
      </trkpt>
      <trkpt lat="48.91785" lon="2.06581">
        <ele>70.6</ele>
        <time>2022-03-22T10:19:06Z</time>
      </trkpt>
      <trkpt lat="48.91785" lon="2.06574">
        <ele>70.6</ele>
        <time>2022-03-22T10:19:10Z</time>
      </trkpt>
      <trkpt lat="48.91785" lon="2.06566">
        <ele>70.6</ele>
        <time>2022-03-22T10:19:14Z</time>
      </trkpt>
      <trkpt lat="48.91785" lon="2.06559">
        <ele>69.7</ele>
        <time>2022-03-22T10:19:18Z</time>
      </trkpt>
      <trkpt lat="48.91786" lon="2.06552">
        <ele>68.7</ele>
        <time>2022-03-22T10:19:22Z</time>
      </trkpt>
      <trkpt lat="48.91785" lon="2.06544">
        <ele>67.6</ele>
        <time>2022-03-22T10:19:26Z</time>
      </trkpt>
      <trkpt lat="48.91785" lon="2.06537">
        <ele>66.3</ele>
        <time>2022-03-22T10:19:30Z</time>
      </trkpt>
      <trkpt lat="48.91785" lon="2.06528">
        <ele>66.2</ele>
        <time>2022-03-22T10:19:34Z</time>
      </trkpt>
      <trkpt lat="48.91785" lon="2.0652">
        <ele>66.9</ele>
        <time>2022-03-22T10:19:39Z</time>
      </trkpt>
      <trkpt lat="48.91785" lon="2.06512">
        <ele>67.6</ele>
        <time>2022-03-22T10:19:43Z</time>
      </trkpt>
      <trkpt lat="48.91785" lon="2.06503">
        <ele>68.1</ele>
        <time>2022-03-22T10:19:48Z</time>
      </trkpt>
      <trkpt lat="48.91785" lon="2.06495">
        <ele>68.3</ele>
        <time>2022-03-22T10:19:52Z</time>
      </trkpt>
      <trkpt lat="48.91785" lon="2.06487">
        <ele>68</ele>
        <time>2022-03-22T10:19:56Z</time>
      </trkpt>
      <trkpt lat="48.91786" lon="2.0648">
        <ele>66.9</ele>
        <time>2022-03-22T10:20:00Z</time>
      </trkpt>
      <trkpt lat="48.91786" lon="2.06473">
        <ele>65.5</ele>
        <time>2022-03-22T10:20:04Z</time>
      </trkpt>
      <trkpt lat="48.91787" lon="2.06466">
        <ele>64.8</ele>
        <time>2022-03-22T10:20:08Z</time>
      </trkpt>
      <trkpt lat="48.91787" lon="2.06458">
        <ele>64.9</ele>
        <time>2022-03-22T10:20:15Z</time>
      </trkpt>
      <trkpt lat="48.91789" lon="2.0645">
        <ele>64.2</ele>
        <time>2022-03-22T10:20:18Z</time>
      </trkpt>
      <trkpt lat="48.91789" lon="2.06443">
        <ele>63.3</ele>
        <time>2022-03-22T10:20:22Z</time>
      </trkpt>
      <trkpt lat="48.9179" lon="2.06435">
        <ele>63.1</ele>
        <time>2022-03-22T10:20:26Z</time>
      </trkpt>
      <trkpt lat="48.91791" lon="2.06428">
        <ele>64.1</ele>
        <time>2022-03-22T10:20:30Z</time>
      </trkpt>
      <trkpt lat="48.91791" lon="2.0642">
        <ele>65</ele>
        <time>2022-03-22T10:20:34Z</time>
      </trkpt>
      <trkpt lat="48.91791" lon="2.06413">
        <ele>65.4</ele>
        <time>2022-03-22T10:20:38Z</time>
      </trkpt>
      <trkpt lat="48.91791" lon="2.06405">
        <ele>64.8</ele>
        <time>2022-03-22T10:20:42Z</time>
      </trkpt>
      <trkpt lat="48.91791" lon="2.06397">
        <ele>65.2</ele>
        <time>2022-03-22T10:20:46Z</time>
      </trkpt>
      <trkpt lat="48.91791" lon="2.0639">
        <ele>66.7</ele>
        <time>2022-03-22T10:20:50Z</time>
      </trkpt>
      <trkpt lat="48.9179" lon="2.06383">
        <ele>67.9</ele>
        <time>2022-03-22T10:20:53Z</time>
      </trkpt>
      <trkpt lat="48.9179" lon="2.06376">
        <ele>68.2</ele>
        <time>2022-03-22T10:20:56Z</time>
      </trkpt>
      <trkpt lat="48.9179" lon="2.06367">
        <ele>68.7</ele>
        <time>2022-03-22T10:21:00Z</time>
      </trkpt>
      <trkpt lat="48.9179" lon="2.06359">
        <ele>69.3</ele>
        <time>2022-03-22T10:21:04Z</time>
      </trkpt>
      <trkpt lat="48.9179" lon="2.0635">
        <ele>69.4</ele>
        <time>2022-03-22T10:21:09Z</time>
      </trkpt>
      <trkpt lat="48.91791" lon="2.06342">
        <ele>68.3</ele>
        <time>2022-03-22T10:21:15Z</time>
      </trkpt>
      <trkpt lat="48.9179" lon="2.06334">
        <ele>67.5</ele>
        <time>2022-03-22T10:21:21Z</time>
      </trkpt>
      <trkpt lat="48.91789" lon="2.06327">
        <ele>67.5</ele>
        <time>2022-03-22T10:21:25Z</time>
      </trkpt>
      <trkpt lat="48.91786" lon="2.06319">
        <ele>67.4</ele>
        <time>2022-03-22T10:21:30Z</time>
      </trkpt>
      <trkpt lat="48.91788" lon="2.06311">
        <ele>64.5</ele>
        <time>2022-03-22T10:21:37Z</time>
      </trkpt>
      <trkpt lat="48.91793" lon="2.06311">
        <ele>61.9</ele>
        <time>2022-03-22T10:21:45Z</time>
      </trkpt>
      <trkpt lat="48.91797" lon="2.06305">
        <ele>62.9</ele>
        <time>2022-03-22T10:21:50Z</time>
      </trkpt>
      <trkpt lat="48.91799" lon="2.06298">
        <ele>65</ele>
        <time>2022-03-22T10:22:01Z</time>
      </trkpt>
      <trkpt lat="48.91794" lon="2.06297">
        <ele>66.5</ele>
        <time>2022-03-22T10:22:13Z</time>
      </trkpt>
      <trkpt lat="48.9179" lon="2.06302">
        <ele>66.1</ele>
        <time>2022-03-22T10:22:22Z</time>
      </trkpt>
      <trkpt lat="48.91787" lon="2.06308">
        <ele>66.2</ele>
        <time>2022-03-22T10:22:36Z</time>
      </trkpt>
      <trkpt lat="48.91783" lon="2.06312">
        <ele>64.8</ele>
        <time>2022-03-22T10:22:45Z</time>
      </trkpt>
      <trkpt lat="48.91788" lon="2.06311">
        <ele>64.6</ele>
        <time>2022-03-22T10:25:55Z</time>
      </trkpt>
      <trkpt lat="48.91794" lon="2.06306">
        <ele>64.8</ele>
        <time>2022-03-22T10:25:58Z</time>
      </trkpt>
      <trkpt lat="48.918" lon="2.06304">
        <ele>64.8</ele>
        <time>2022-03-22T10:26:02Z</time>
      </trkpt>
      <trkpt lat="48.91803" lon="2.0631">
        <ele>65.1</ele>
        <time>2022-03-22T10:26:05Z</time>
      </trkpt>
      <trkpt lat="48.91805" lon="2.06318">
        <ele>65.2</ele>
        <time>2022-03-22T10:26:10Z</time>
      </trkpt>
      <trkpt lat="48.91807" lon="2.06324">
        <ele>65</ele>
        <time>2022-03-22T10:26:14Z</time>
      </trkpt>
      <trkpt lat="48.91809" lon="2.0633">
        <ele>65.3</ele>
        <time>2022-03-22T10:26:18Z</time>
      </trkpt>
      <trkpt lat="48.91812" lon="2.06337">
        <ele>65.2</ele>
        <time>2022-03-22T10:26:23Z</time>
      </trkpt>
      <trkpt lat="48.91815" lon="2.06342">
        <ele>63.2</ele>
        <time>2022-03-22T10:26:36Z</time>
      </trkpt>
      <trkpt lat="48.91815" lon="2.06349">
        <ele>64.4</ele>
        <time>2022-03-22T10:26:39Z</time>
      </trkpt>
      <trkpt lat="48.91817" lon="2.06359">
        <ele>65.3</ele>
        <time>2022-03-22T10:26:43Z</time>
      </trkpt>
      <trkpt lat="48.9182" lon="2.06366">
        <ele>65.6</ele>
        <time>2022-03-22T10:26:47Z</time>
      </trkpt>
      <trkpt lat="48.91823" lon="2.06371">
        <ele>66.1</ele>
        <time>2022-03-22T10:26:52Z</time>
      </trkpt>
      <trkpt lat="48.91828" lon="2.06376">
        <ele>66.3</ele>
        <time>2022-03-22T10:26:58Z</time>
      </trkpt>
      <trkpt lat="48.9183" lon="2.06384">
        <ele>66</ele>
        <time>2022-03-22T10:27:02Z</time>
      </trkpt>
      <trkpt lat="48.91833" lon="2.06391">
        <ele>66.4</ele>
        <time>2022-03-22T10:27:06Z</time>
      </trkpt>
      <trkpt lat="48.91837" lon="2.06397">
        <ele>68.6</ele>
        <time>2022-03-22T10:27:12Z</time>
      </trkpt>
      <trkpt lat="48.91841" lon="2.06399">
        <ele>72</ele>
        <time>2022-03-22T10:27:17Z</time>
      </trkpt>
      <trkpt lat="48.91845" lon="2.06396">
        <ele>72.9</ele>
        <time>2022-03-22T10:27:22Z</time>
      </trkpt>
      <trkpt lat="48.9185" lon="2.06394">
        <ele>72.2</ele>
        <time>2022-03-22T10:27:28Z</time>
      </trkpt>
      <trkpt lat="48.91855" lon="2.06393">
        <ele>71.3</ele>
        <time>2022-03-22T10:27:33Z</time>
      </trkpt>
      <trkpt lat="48.9186" lon="2.0639">
        <ele>71.2</ele>
        <time>2022-03-22T10:27:39Z</time>
      </trkpt>
      <trkpt lat="48.91864" lon="2.06386">
        <ele>70.8</ele>
        <time>2022-03-22T10:27:44Z</time>
      </trkpt>
      <trkpt lat="48.91869" lon="2.06384">
        <ele>70.2</ele>
        <time>2022-03-22T10:27:49Z</time>
      </trkpt>
      <trkpt lat="48.91875" lon="2.06382">
        <ele>69.6</ele>
        <time>2022-03-22T10:27:54Z</time>
      </trkpt>
      <trkpt lat="48.9188" lon="2.06384">
        <ele>71</ele>
        <time>2022-03-22T10:29:03Z</time>
      </trkpt>
      <trkpt lat="48.91885" lon="2.06385">
        <ele>67.1</ele>
        <time>2022-03-22T10:29:16Z</time>
      </trkpt>
      <trkpt lat="48.9189" lon="2.06386">
        <ele>67.3</ele>
        <time>2022-03-22T10:29:19Z</time>
      </trkpt>
      <trkpt lat="48.91895" lon="2.06388">
        <ele>67.8</ele>
        <time>2022-03-22T10:29:24Z</time>
      </trkpt>
      <trkpt lat="48.91899" lon="2.06385">
        <ele>72.1</ele>
        <time>2022-03-22T10:30:07Z</time>
      </trkpt>
      <trkpt lat="48.91904" lon="2.06384">
        <ele>72</ele>
        <time>2022-03-22T10:30:23Z</time>
      </trkpt>
      <trkpt lat="48.92612" lon="2.06994">
        <ele>92.6</ele>
        <time>2022-03-22T10:41:35Z</time>
      </trkpt>
      <trkpt lat="48.92608" lon="2.06989">
        <ele>75.3</ele>
        <time>2022-03-22T10:41:35Z</time>
      </trkpt>
      <trkpt lat="48.92602" lon="2.06984">
        <ele>73.3</ele>
        <time>2022-03-22T10:41:37Z</time>
      </trkpt>
      <trkpt lat="48.92598" lon="2.06984">
        <ele>72.1</ele>
        <time>2022-03-22T10:41:42Z</time>
      </trkpt>
      <trkpt lat="48.92599" lon="2.06991">
        <ele>65.9</ele>
        <time>2022-03-22T10:42:17Z</time>
      </trkpt>
      <trkpt lat="48.926" lon="2.06999">
        <ele>63.6</ele>
        <time>2022-03-22T10:42:23Z</time>
      </trkpt>
      <trkpt lat="48.92605" lon="2.07005">
        <ele>62.6</ele>
        <time>2022-03-22T10:42:28Z</time>
      </trkpt>
      <trkpt lat="48.92608" lon="2.0701">
        <ele>62.5</ele>
        <time>2022-03-22T10:42:31Z</time>
      </trkpt>
      <trkpt lat="48.92613" lon="2.07014">
        <ele>62.3</ele>
        <time>2022-03-22T10:42:35Z</time>
      </trkpt>
      <trkpt lat="48.92618" lon="2.07018">
        <ele>62.3</ele>
        <time>2022-03-22T10:42:39Z</time>
      </trkpt>
      <trkpt lat="48.92623" lon="2.07021">
        <ele>62.1</ele>
        <time>2022-03-22T10:42:44Z</time>
      </trkpt>
      <trkpt lat="48.92628" lon="2.07025">
        <ele>62.4</ele>
        <time>2022-03-22T10:42:48Z</time>
      </trkpt>
      <trkpt lat="48.92631" lon="2.07031">
        <ele>62.3</ele>
        <time>2022-03-22T10:42:51Z</time>
      </trkpt>
      <trkpt lat="48.92635" lon="2.07036">
        <ele>62.5</ele>
        <time>2022-03-22T10:42:55Z</time>
      </trkpt>
      <trkpt lat="48.9264" lon="2.07038">
        <ele>63.5</ele>
        <time>2022-03-22T10:43:00Z</time>
      </trkpt>
      <trkpt lat="48.92643" lon="2.07045">
        <ele>65.1</ele>
        <time>2022-03-22T10:43:04Z</time>
      </trkpt>
      <trkpt lat="48.92647" lon="2.0705">
        <ele>65.6</ele>
        <time>2022-03-22T10:43:08Z</time>
      </trkpt>
      <trkpt lat="48.92651" lon="2.07055">
        <ele>65.1</ele>
        <time>2022-03-22T10:43:12Z</time>
      </trkpt>
      <trkpt lat="48.92656" lon="2.07059">
        <ele>64.6</ele>
        <time>2022-03-22T10:43:16Z</time>
      </trkpt>
      <trkpt lat="48.9266" lon="2.07062">
        <ele>64.4</ele>
        <time>2022-03-22T10:43:20Z</time>
      </trkpt>
      <trkpt lat="48.92664" lon="2.07067">
        <ele>64.3</ele>
        <time>2022-03-22T10:43:24Z</time>
      </trkpt>
      <trkpt lat="48.92668" lon="2.07072">
        <ele>64.5</ele>
        <time>2022-03-22T10:43:28Z</time>
      </trkpt>
      <trkpt lat="48.92672" lon="2.07075">
        <ele>64.7</ele>
        <time>2022-03-22T10:43:32Z</time>
      </trkpt>
      <trkpt lat="48.92676" lon="2.07079">
        <ele>64.7</ele>
        <time>2022-03-22T10:43:36Z</time>
      </trkpt>
      <trkpt lat="48.9268" lon="2.07083">
        <ele>64.7</ele>
        <time>2022-03-22T10:43:40Z</time>
      </trkpt>
      <trkpt lat="48.92685" lon="2.07087">
        <ele>64.6</ele>
        <time>2022-03-22T10:43:44Z</time>
      </trkpt>
      <trkpt lat="48.92689" lon="2.0709">
        <ele>64.5</ele>
        <time>2022-03-22T10:43:48Z</time>
      </trkpt>
      <trkpt lat="48.92693" lon="2.07094">
        <ele>64.3</ele>
        <time>2022-03-22T10:43:52Z</time>
      </trkpt>
      <trkpt lat="48.92697" lon="2.07098">
        <ele>64.2</ele>
        <time>2022-03-22T10:43:56Z</time>
      </trkpt>
      <trkpt lat="48.92701" lon="2.07102">
        <ele>63.8</ele>
        <time>2022-03-22T10:44:00Z</time>
      </trkpt>
      <trkpt lat="48.92705" lon="2.07107">
        <ele>63.5</ele>
        <time>2022-03-22T10:44:05Z</time>
      </trkpt>
      <trkpt lat="48.92709" lon="2.07111">
        <ele>63.4</ele>
        <time>2022-03-22T10:44:09Z</time>
      </trkpt>
      <trkpt lat="48.92713" lon="2.07116">
        <ele>63</ele>
        <time>2022-03-22T10:44:13Z</time>
      </trkpt>
      <trkpt lat="48.92717" lon="2.0712">
        <ele>62.3</ele>
        <time>2022-03-22T10:44:17Z</time>
      </trkpt>
      <trkpt lat="48.92722" lon="2.07123">
        <ele>61.2</ele>
        <time>2022-03-22T10:44:21Z</time>
      </trkpt>
      <trkpt lat="48.92726" lon="2.07127">
        <ele>60</ele>
        <time>2022-03-22T10:44:25Z</time>
      </trkpt>
      <trkpt lat="48.9273" lon="2.07132">
        <ele>59.2</ele>
        <time>2022-03-22T10:44:29Z</time>
      </trkpt>
      <trkpt lat="48.92734" lon="2.07137">
        <ele>59.2</ele>
        <time>2022-03-22T10:44:33Z</time>
      </trkpt>
      <trkpt lat="48.92738" lon="2.07141">
        <ele>60.7</ele>
        <time>2022-03-22T10:44:37Z</time>
      </trkpt>
      <trkpt lat="48.92743" lon="2.07145">
        <ele>62.7</ele>
        <time>2022-03-22T10:44:41Z</time>
      </trkpt>
      <trkpt lat="48.92747" lon="2.0715">
        <ele>63</ele>
        <time>2022-03-22T10:44:45Z</time>
      </trkpt>
      <trkpt lat="48.92751" lon="2.07154">
        <ele>62.6</ele>
        <time>2022-03-22T10:44:49Z</time>
      </trkpt>
      <trkpt lat="48.92755" lon="2.0716">
        <ele>62.9</ele>
        <time>2022-03-22T10:44:53Z</time>
      </trkpt>
      <trkpt lat="48.92759" lon="2.07164">
        <ele>63.5</ele>
        <time>2022-03-22T10:44:57Z</time>
      </trkpt>
      <trkpt lat="48.92764" lon="2.07168">
        <ele>63.8</ele>
        <time>2022-03-22T10:45:02Z</time>
      </trkpt>
      <trkpt lat="48.92768" lon="2.07172">
        <ele>63.9</ele>
        <time>2022-03-22T10:45:06Z</time>
      </trkpt>
      <trkpt lat="48.92772" lon="2.07176">
        <ele>63.9</ele>
        <time>2022-03-22T10:45:10Z</time>
      </trkpt>
      <trkpt lat="48.92776" lon="2.07179">
        <ele>63.9</ele>
        <time>2022-03-22T10:45:14Z</time>
      </trkpt>
      <trkpt lat="48.9278" lon="2.07184">
        <ele>64</ele>
        <time>2022-03-22T10:45:18Z</time>
      </trkpt>
      <trkpt lat="48.92785" lon="2.0719">
        <ele>63.9</ele>
        <time>2022-03-22T10:45:23Z</time>
      </trkpt>
      <trkpt lat="48.92789" lon="2.07195">
        <ele>63.5</ele>
        <time>2022-03-22T10:45:27Z</time>
      </trkpt>
      <trkpt lat="48.92793" lon="2.07198">
        <ele>63.1</ele>
        <time>2022-03-22T10:45:30Z</time>
      </trkpt>
      <trkpt lat="48.92797" lon="2.07201">
        <ele>63.1</ele>
        <time>2022-03-22T10:45:34Z</time>
      </trkpt>
      <trkpt lat="48.92802" lon="2.07205">
        <ele>63.4</ele>
        <time>2022-03-22T10:45:38Z</time>
      </trkpt>
      <trkpt lat="48.92806" lon="2.07211">
        <ele>64.3</ele>
        <time>2022-03-22T10:45:42Z</time>
      </trkpt>
      <trkpt lat="48.9281" lon="2.07215">
        <ele>65.4</ele>
        <time>2022-03-22T10:45:46Z</time>
      </trkpt>
      <trkpt lat="48.92813" lon="2.0721">
        <ele>65.6</ele>
        <time>2022-03-22T10:45:49Z</time>
      </trkpt>
      <trkpt lat="48.92812" lon="2.07203">
        <ele>65.6</ele>
        <time>2022-03-22T10:45:53Z</time>
      </trkpt>
      <trkpt lat="48.92807" lon="2.07198">
        <ele>65.9</ele>
        <time>2022-03-22T10:45:57Z</time>
      </trkpt>
      <trkpt lat="48.92806" lon="2.07191">
        <ele>65.8</ele>
        <time>2022-03-22T10:46:00Z</time>
      </trkpt>
      <trkpt lat="48.92805" lon="2.07182">
        <ele>65.5</ele>
        <time>2022-03-22T10:46:03Z</time>
      </trkpt>
      <trkpt lat="48.92804" lon="2.07174">
        <ele>64.4</ele>
        <time>2022-03-22T10:46:06Z</time>
      </trkpt>
      <trkpt lat="48.92803" lon="2.07165">
        <ele>62.3</ele>
        <time>2022-03-22T10:46:10Z</time>
      </trkpt>
      <trkpt lat="48.92801" lon="2.07158">
        <ele>59.9</ele>
        <time>2022-03-22T10:46:13Z</time>
      </trkpt>
      <trkpt lat="48.92798" lon="2.07151">
        <ele>57.5</ele>
        <time>2022-03-22T10:46:17Z</time>
      </trkpt>
      <trkpt lat="48.92794" lon="2.07145">
        <ele>56.4</ele>
        <time>2022-03-22T10:46:21Z</time>
      </trkpt>
      <trkpt lat="48.92791" lon="2.07139">
        <ele>56.2</ele>
        <time>2022-03-22T10:46:24Z</time>
      </trkpt>
      <trkpt lat="48.92788" lon="2.07133">
        <ele>56.5</ele>
        <time>2022-03-22T10:46:28Z</time>
      </trkpt>
      <trkpt lat="48.92785" lon="2.07127">
        <ele>56.5</ele>
        <time>2022-03-22T10:46:31Z</time>
      </trkpt>
      <trkpt lat="48.92782" lon="2.0712">
        <ele>56.7</ele>
        <time>2022-03-22T10:46:36Z</time>
      </trkpt>
      <trkpt lat="48.92778" lon="2.07114">
        <ele>56</ele>
        <time>2022-03-22T10:46:40Z</time>
      </trkpt>
      <trkpt lat="48.92775" lon="2.07108">
        <ele>55.5</ele>
        <time>2022-03-22T10:46:44Z</time>
      </trkpt>
      <trkpt lat="48.92772" lon="2.07102">
        <ele>55.6</ele>
        <time>2022-03-22T10:46:47Z</time>
      </trkpt>
      <trkpt lat="48.92768" lon="2.07097">
        <ele>56.2</ele>
        <time>2022-03-22T10:46:50Z</time>
      </trkpt>
      <trkpt lat="48.92765" lon="2.0709">
        <ele>57.2</ele>
        <time>2022-03-22T10:46:54Z</time>
      </trkpt>
      <trkpt lat="48.92762" lon="2.07083">
        <ele>58.5</ele>
        <time>2022-03-22T10:46:58Z</time>
      </trkpt>
      <trkpt lat="48.92759" lon="2.07075">
        <ele>58.7</ele>
        <time>2022-03-22T10:47:02Z</time>
      </trkpt>
      <trkpt lat="48.92756" lon="2.07068">
        <ele>57.2</ele>
        <time>2022-03-22T10:47:06Z</time>
      </trkpt>
      <trkpt lat="48.92753" lon="2.07062">
        <ele>57.2</ele>
        <time>2022-03-22T10:47:11Z</time>
      </trkpt>
      <trkpt lat="48.92749" lon="2.07055">
        <ele>59.1</ele>
        <time>2022-03-22T10:47:15Z</time>
      </trkpt>
      <trkpt lat="48.92745" lon="2.07049">
        <ele>59.7</ele>
        <time>2022-03-22T10:47:20Z</time>
      </trkpt>
      <trkpt lat="48.92742" lon="2.07043">
        <ele>59</ele>
        <time>2022-03-22T10:47:24Z</time>
      </trkpt>
      <trkpt lat="48.9274" lon="2.07037">
        <ele>59.6</ele>
        <time>2022-03-22T10:47:28Z</time>
      </trkpt>
      <trkpt lat="48.92737" lon="2.07031">
        <ele>60.6</ele>
        <time>2022-03-22T10:47:32Z</time>
      </trkpt>
      <trkpt lat="48.92733" lon="2.07025">
        <ele>60.9</ele>
        <time>2022-03-22T10:47:37Z</time>
      </trkpt>
      <trkpt lat="48.92731" lon="2.07017">
        <ele>60.9</ele>
        <time>2022-03-22T10:47:41Z</time>
      </trkpt>
      <trkpt lat="48.92728" lon="2.07011">
        <ele>61.3</ele>
        <time>2022-03-22T10:47:45Z</time>
      </trkpt>
      <trkpt lat="48.92726" lon="2.07003">
        <ele>61.8</ele>
        <time>2022-03-22T10:47:50Z</time>
      </trkpt>
      <trkpt lat="48.92724" lon="2.06995">
        <ele>61.7</ele>
        <time>2022-03-22T10:47:54Z</time>
      </trkpt>
      <trkpt lat="48.92721" lon="2.0699">
        <ele>61.4</ele>
        <time>2022-03-22T10:47:58Z</time>
      </trkpt>
      <trkpt lat="48.92718" lon="2.06983">
        <ele>61</ele>
        <time>2022-03-22T10:48:03Z</time>
      </trkpt>
      <trkpt lat="48.92715" lon="2.06975">
        <ele>61.6</ele>
        <time>2022-03-22T10:48:07Z</time>
      </trkpt>
      <trkpt lat="48.92713" lon="2.06966">
        <ele>62</ele>
        <time>2022-03-22T10:48:11Z</time>
      </trkpt>
      <trkpt lat="48.92712" lon="2.06959">
        <ele>62.2</ele>
        <time>2022-03-22T10:48:15Z</time>
      </trkpt>
      <trkpt lat="48.92708" lon="2.06952">
        <ele>61.6</ele>
        <time>2022-03-22T10:48:19Z</time>
      </trkpt>
      <trkpt lat="48.92705" lon="2.06947">
        <ele>60.3</ele>
        <time>2022-03-22T10:48:23Z</time>
      </trkpt>
      <trkpt lat="48.92701" lon="2.06941">
        <ele>59.9</ele>
        <time>2022-03-22T10:48:26Z</time>
      </trkpt>
      <trkpt lat="48.92698" lon="2.06936">
        <ele>60.5</ele>
        <time>2022-03-22T10:48:30Z</time>
      </trkpt>
      <trkpt lat="48.92695" lon="2.06929">
        <ele>61.9</ele>
        <time>2022-03-22T10:48:34Z</time>
      </trkpt>
      <trkpt lat="48.92694" lon="2.06922">
        <ele>62.2</ele>
        <time>2022-03-22T10:48:38Z</time>
      </trkpt>
      <trkpt lat="48.92692" lon="2.06916">
        <ele>61.2</ele>
        <time>2022-03-22T10:48:42Z</time>
      </trkpt>
      <trkpt lat="48.92688" lon="2.0691">
        <ele>60.8</ele>
        <time>2022-03-22T10:48:46Z</time>
      </trkpt>
      <trkpt lat="48.92686" lon="2.06904">
        <ele>60.8</ele>
        <time>2022-03-22T10:48:50Z</time>
      </trkpt>
      <trkpt lat="48.92683" lon="2.06898">
        <ele>61.1</ele>
        <time>2022-03-22T10:48:54Z</time>
      </trkpt>
      <trkpt lat="48.9268" lon="2.06889">
        <ele>60.4</ele>
        <time>2022-03-22T10:48:59Z</time>
      </trkpt>
      <trkpt lat="48.92677" lon="2.06882">
        <ele>60</ele>
        <time>2022-03-22T10:49:03Z</time>
      </trkpt>
      <trkpt lat="48.92675" lon="2.06876">
        <ele>59.9</ele>
        <time>2022-03-22T10:49:06Z</time>
      </trkpt>
      <trkpt lat="48.92673" lon="2.06869">
        <ele>60.2</ele>
        <time>2022-03-22T10:49:10Z</time>
      </trkpt>
      <trkpt lat="48.9267" lon="2.06862">
        <ele>62</ele>
        <time>2022-03-22T10:49:14Z</time>
      </trkpt>
      <trkpt lat="48.92666" lon="2.06857">
        <ele>63.3</ele>
        <time>2022-03-22T10:49:18Z</time>
      </trkpt>
      <trkpt lat="48.92663" lon="2.06852">
        <ele>62.6</ele>
        <time>2022-03-22T10:49:21Z</time>
      </trkpt>
      <trkpt lat="48.9266" lon="2.06846">
        <ele>61.6</ele>
        <time>2022-03-22T10:49:25Z</time>
      </trkpt>
      <trkpt lat="48.92657" lon="2.06839">
        <ele>61.5</ele>
        <time>2022-03-22T10:49:29Z</time>
      </trkpt>
      <trkpt lat="48.92654" lon="2.06832">
        <ele>61.3</ele>
        <time>2022-03-22T10:49:33Z</time>
      </trkpt>
      <trkpt lat="48.92652" lon="2.06826">
        <ele>60.6</ele>
        <time>2022-03-22T10:49:37Z</time>
      </trkpt>
      <trkpt lat="48.92651" lon="2.06819">
        <ele>59.9</ele>
        <time>2022-03-22T10:49:40Z</time>
      </trkpt>
      <trkpt lat="48.9265" lon="2.06811">
        <ele>60.1</ele>
        <time>2022-03-22T10:49:43Z</time>
      </trkpt>
      <trkpt lat="48.92648" lon="2.06805">
        <ele>60.6</ele>
        <time>2022-03-22T10:49:47Z</time>
      </trkpt>
      <trkpt lat="48.92645" lon="2.06796">
        <ele>61.8</ele>
        <time>2022-03-22T10:49:51Z</time>
      </trkpt>
      <trkpt lat="48.92643" lon="2.0679">
        <ele>61.9</ele>
        <time>2022-03-22T10:49:54Z</time>
      </trkpt>
      <trkpt lat="48.9264" lon="2.06784">
        <ele>61</ele>
        <time>2022-03-22T10:49:58Z</time>
      </trkpt>
      <trkpt lat="48.92637" lon="2.06777">
        <ele>60.2</ele>
        <time>2022-03-22T10:50:02Z</time>
      </trkpt>
      <trkpt lat="48.92635" lon="2.0677">
        <ele>60.4</ele>
        <time>2022-03-22T10:50:06Z</time>
      </trkpt>
      <trkpt lat="48.92632" lon="2.06764">
        <ele>60.2</ele>
        <time>2022-03-22T10:50:10Z</time>
      </trkpt>
      <trkpt lat="48.9263" lon="2.06756">
        <ele>60.2</ele>
        <time>2022-03-22T10:50:15Z</time>
      </trkpt>
      <trkpt lat="48.92628" lon="2.06749">
        <ele>60.2</ele>
        <time>2022-03-22T10:50:18Z</time>
      </trkpt>
      <trkpt lat="48.92626" lon="2.06742">
        <ele>60.8</ele>
        <time>2022-03-22T10:50:22Z</time>
      </trkpt>
      <trkpt lat="48.92622" lon="2.06735">
        <ele>62</ele>
        <time>2022-03-22T10:50:26Z</time>
      </trkpt>
      <trkpt lat="48.92619" lon="2.06728">
        <ele>62.9</ele>
        <time>2022-03-22T10:50:30Z</time>
      </trkpt>
      <trkpt lat="48.92616" lon="2.06721">
        <ele>62.4</ele>
        <time>2022-03-22T10:50:33Z</time>
      </trkpt>
      <trkpt lat="48.92613" lon="2.06714">
        <ele>61.9</ele>
        <time>2022-03-22T10:50:37Z</time>
      </trkpt>
      <trkpt lat="48.9261" lon="2.06707">
        <ele>61.3</ele>
        <time>2022-03-22T10:50:41Z</time>
      </trkpt>
      <trkpt lat="48.92607" lon="2.067">
        <ele>61.2</ele>
        <time>2022-03-22T10:50:45Z</time>
      </trkpt>
      <trkpt lat="48.92604" lon="2.06693">
        <ele>60.5</ele>
        <time>2022-03-22T10:50:50Z</time>
      </trkpt>
      <trkpt lat="48.92602" lon="2.06687">
        <ele>59.6</ele>
        <time>2022-03-22T10:50:53Z</time>
      </trkpt>
      <trkpt lat="48.92599" lon="2.0668">
        <ele>58.2</ele>
        <time>2022-03-22T10:50:58Z</time>
      </trkpt>
      <trkpt lat="48.92596" lon="2.06673">
        <ele>57.2</ele>
        <time>2022-03-22T10:51:02Z</time>
      </trkpt>
      <trkpt lat="48.92593" lon="2.06666">
        <ele>56.4</ele>
        <time>2022-03-22T10:51:05Z</time>
      </trkpt>
      <trkpt lat="48.92592" lon="2.06659">
        <ele>56.7</ele>
        <time>2022-03-22T10:51:09Z</time>
      </trkpt>
      <trkpt lat="48.92591" lon="2.06652">
        <ele>57.5</ele>
        <time>2022-03-22T10:51:12Z</time>
      </trkpt>
      <trkpt lat="48.92589" lon="2.06643">
        <ele>58</ele>
        <time>2022-03-22T10:51:16Z</time>
      </trkpt>
      <trkpt lat="48.92586" lon="2.06637">
        <ele>57.8</ele>
        <time>2022-03-22T10:51:20Z</time>
      </trkpt>
      <trkpt lat="48.92583" lon="2.06631">
        <ele>57.3</ele>
        <time>2022-03-22T10:51:24Z</time>
      </trkpt>
      <trkpt lat="48.9258" lon="2.06624">
        <ele>55.9</ele>
        <time>2022-03-22T10:51:28Z</time>
      </trkpt>
      <trkpt lat="48.92577" lon="2.06617">
        <ele>54</ele>
        <time>2022-03-22T10:51:33Z</time>
      </trkpt>
      <trkpt lat="48.92575" lon="2.0661">
        <ele>53</ele>
        <time>2022-03-22T10:51:36Z</time>
      </trkpt>
      <trkpt lat="48.92573" lon="2.06604">
        <ele>52.5</ele>
        <time>2022-03-22T10:51:40Z</time>
      </trkpt>
      <trkpt lat="48.9257" lon="2.06597">
        <ele>52.9</ele>
        <time>2022-03-22T10:51:44Z</time>
      </trkpt>
      <trkpt lat="48.92568" lon="2.06589">
        <ele>54</ele>
        <time>2022-03-22T10:51:47Z</time>
      </trkpt>
      <trkpt lat="48.92567" lon="2.06582">
        <ele>54.6</ele>
        <time>2022-03-22T10:51:50Z</time>
      </trkpt>
      <trkpt lat="48.92565" lon="2.06574">
        <ele>54.3</ele>
        <time>2022-03-22T10:51:54Z</time>
      </trkpt>
      <trkpt lat="48.92562" lon="2.06566">
        <ele>53.4</ele>
        <time>2022-03-22T10:51:58Z</time>
      </trkpt>
      <trkpt lat="48.9256" lon="2.0656">
        <ele>53.7</ele>
        <time>2022-03-22T10:52:02Z</time>
      </trkpt>
      <trkpt lat="48.92557" lon="2.06554">
        <ele>54.1</ele>
        <time>2022-03-22T10:52:06Z</time>
      </trkpt>
      <trkpt lat="48.92555" lon="2.06548">
        <ele>54.6</ele>
        <time>2022-03-22T10:52:10Z</time>
      </trkpt>
      <trkpt lat="48.92552" lon="2.06542">
        <ele>54.1</ele>
        <time>2022-03-22T10:52:14Z</time>
      </trkpt>
      <trkpt lat="48.92549" lon="2.06536">
        <ele>52.7</ele>
        <time>2022-03-22T10:52:17Z</time>
      </trkpt>
      <trkpt lat="48.92546" lon="2.06529">
        <ele>50.4</ele>
        <time>2022-03-22T10:52:22Z</time>
      </trkpt>
      <trkpt lat="48.92544" lon="2.06522">
        <ele>50.1</ele>
        <time>2022-03-22T10:52:26Z</time>
      </trkpt>
      <trkpt lat="48.9254" lon="2.06515">
        <ele>50.6</ele>
        <time>2022-03-22T10:52:31Z</time>
      </trkpt>
      <trkpt lat="48.92539" lon="2.06508">
        <ele>50.7</ele>
        <time>2022-03-22T10:52:35Z</time>
      </trkpt>
      <trkpt lat="48.92538" lon="2.06499">
        <ele>51.9</ele>
        <time>2022-03-22T10:52:38Z</time>
      </trkpt>
      <trkpt lat="48.92537" lon="2.06491">
        <ele>54.3</ele>
        <time>2022-03-22T10:52:42Z</time>
      </trkpt>
      <trkpt lat="48.92534" lon="2.06486">
        <ele>55</ele>
        <time>2022-03-22T10:52:46Z</time>
      </trkpt>
      <trkpt lat="48.92531" lon="2.06478">
        <ele>54.5</ele>
        <time>2022-03-22T10:52:50Z</time>
      </trkpt>
      <trkpt lat="48.92528" lon="2.06472">
        <ele>53.9</ele>
        <time>2022-03-22T10:52:55Z</time>
      </trkpt>
      <trkpt lat="48.92525" lon="2.06464">
        <ele>53.6</ele>
        <time>2022-03-22T10:53:00Z</time>
      </trkpt>
      <trkpt lat="48.92523" lon="2.06457">
        <ele>53.1</ele>
        <time>2022-03-22T10:53:03Z</time>
      </trkpt>
      <trkpt lat="48.92521" lon="2.06449">
        <ele>53.2</ele>
        <time>2022-03-22T10:53:06Z</time>
      </trkpt>
      <trkpt lat="48.92518" lon="2.0644">
        <ele>53.9</ele>
        <time>2022-03-22T10:53:10Z</time>
      </trkpt>
      <trkpt lat="48.92516" lon="2.06432">
        <ele>54.9</ele>
        <time>2022-03-22T10:53:14Z</time>
      </trkpt>
      <trkpt lat="48.92515" lon="2.06426">
        <ele>55.5</ele>
        <time>2022-03-22T10:53:18Z</time>
      </trkpt>
      <trkpt lat="48.92512" lon="2.0642">
        <ele>56.3</ele>
        <time>2022-03-22T10:53:21Z</time>
      </trkpt>
      <trkpt lat="48.9251" lon="2.06414">
        <ele>57</ele>
        <time>2022-03-22T10:53:25Z</time>
      </trkpt>
      <trkpt lat="48.92508" lon="2.06407">
        <ele>58</ele>
        <time>2022-03-22T10:53:28Z</time>
      </trkpt>
      <trkpt lat="48.92506" lon="2.064">
        <ele>59.7</ele>
        <time>2022-03-22T10:53:32Z</time>
      </trkpt>
      <trkpt lat="48.92503" lon="2.06393">
        <ele>61</ele>
        <time>2022-03-22T10:53:36Z</time>
      </trkpt>
      <trkpt lat="48.925" lon="2.06384">
        <ele>61.1</ele>
        <time>2022-03-22T10:53:41Z</time>
      </trkpt>
      <trkpt lat="48.92497" lon="2.06377">
        <ele>60.8</ele>
        <time>2022-03-22T10:53:45Z</time>
      </trkpt>
      <trkpt lat="48.92495" lon="2.06371">
        <ele>60.2</ele>
        <time>2022-03-22T10:53:49Z</time>
      </trkpt>
      <trkpt lat="48.92493" lon="2.06365">
        <ele>59.2</ele>
        <time>2022-03-22T10:53:52Z</time>
      </trkpt>
      <trkpt lat="48.9249" lon="2.06358">
        <ele>59.1</ele>
        <time>2022-03-22T10:53:55Z</time>
      </trkpt>
      <trkpt lat="48.92488" lon="2.06351">
        <ele>58.8</ele>
        <time>2022-03-22T10:53:59Z</time>
      </trkpt>
      <trkpt lat="48.92485" lon="2.06345">
        <ele>58.4</ele>
        <time>2022-03-22T10:54:03Z</time>
      </trkpt>
      <trkpt lat="48.92482" lon="2.06338">
        <ele>58</ele>
        <time>2022-03-22T10:54:07Z</time>
      </trkpt>
      <trkpt lat="48.9248" lon="2.0633">
        <ele>57.2</ele>
        <time>2022-03-22T10:54:11Z</time>
      </trkpt>
      <trkpt lat="48.92479" lon="2.06324">
        <ele>55.5</ele>
        <time>2022-03-22T10:54:14Z</time>
      </trkpt>
      <trkpt lat="48.92477" lon="2.06317">
        <ele>53.8</ele>
        <time>2022-03-22T10:54:18Z</time>
      </trkpt>
      <trkpt lat="48.92475" lon="2.0631">
        <ele>53.8</ele>
        <time>2022-03-22T10:54:21Z</time>
      </trkpt>
      <trkpt lat="48.92472" lon="2.06302">
        <ele>56</ele>
        <time>2022-03-22T10:54:26Z</time>
      </trkpt>
      <trkpt lat="48.9247" lon="2.06296">
        <ele>57.4</ele>
        <time>2022-03-22T10:54:29Z</time>
      </trkpt>
      <trkpt lat="48.92466" lon="2.06289">
        <ele>57</ele>
        <time>2022-03-22T10:54:33Z</time>
      </trkpt>
      <trkpt lat="48.92463" lon="2.06282">
        <ele>56.9</ele>
        <time>2022-03-22T10:54:37Z</time>
      </trkpt>
      <trkpt lat="48.92462" lon="2.06275">
        <ele>56.2</ele>
        <time>2022-03-22T10:54:41Z</time>
      </trkpt>
      <trkpt lat="48.9246" lon="2.06268">
        <ele>56.1</ele>
        <time>2022-03-22T10:54:44Z</time>
      </trkpt>
      <trkpt lat="48.92457" lon="2.0626">
        <ele>56.4</ele>
        <time>2022-03-22T10:54:49Z</time>
      </trkpt>
      <trkpt lat="48.92454" lon="2.06255">
        <ele>56.6</ele>
        <time>2022-03-22T10:54:52Z</time>
      </trkpt>
      <trkpt lat="48.92451" lon="2.0625">
        <ele>55.9</ele>
        <time>2022-03-22T10:54:56Z</time>
      </trkpt>
      <trkpt lat="48.92448" lon="2.06243">
        <ele>54.4</ele>
        <time>2022-03-22T10:55:00Z</time>
      </trkpt>
      <trkpt lat="48.92446" lon="2.06236">
        <ele>53.9</ele>
        <time>2022-03-22T10:55:03Z</time>
      </trkpt>
      <trkpt lat="48.92445" lon="2.06228">
        <ele>54.3</ele>
        <time>2022-03-22T10:55:07Z</time>
      </trkpt>
      <trkpt lat="48.92443" lon="2.06221">
        <ele>54.6</ele>
        <time>2022-03-22T10:55:11Z</time>
      </trkpt>
      <trkpt lat="48.92441" lon="2.06213">
        <ele>55.5</ele>
        <time>2022-03-22T10:55:15Z</time>
      </trkpt>
      <trkpt lat="48.92438" lon="2.06206">
        <ele>55.9</ele>
        <time>2022-03-22T10:55:19Z</time>
      </trkpt>
      <trkpt lat="48.92435" lon="2.06199">
        <ele>56.2</ele>
        <time>2022-03-22T10:55:23Z</time>
      </trkpt>
      <trkpt lat="48.92432" lon="2.06192">
        <ele>55.9</ele>
        <time>2022-03-22T10:55:27Z</time>
      </trkpt>
      <trkpt lat="48.9243" lon="2.06184">
        <ele>56.8</ele>
        <time>2022-03-22T10:55:32Z</time>
      </trkpt>
      <trkpt lat="48.92428" lon="2.06177">
        <ele>57</ele>
        <time>2022-03-22T10:55:35Z</time>
      </trkpt>
      <trkpt lat="48.92426" lon="2.0617">
        <ele>56.9</ele>
        <time>2022-03-22T10:55:39Z</time>
      </trkpt>
      <trkpt lat="48.92423" lon="2.06162">
        <ele>55.9</ele>
        <time>2022-03-22T10:55:43Z</time>
      </trkpt>
      <trkpt lat="48.92422" lon="2.06154">
        <ele>54</ele>
        <time>2022-03-22T10:55:47Z</time>
      </trkpt>
      <trkpt lat="48.92421" lon="2.06147">
        <ele>53.3</ele>
        <time>2022-03-22T10:55:50Z</time>
      </trkpt>
      <trkpt lat="48.92421" lon="2.06139">
        <ele>52.3</ele>
        <time>2022-03-22T10:55:55Z</time>
      </trkpt>
      <trkpt lat="48.92419" lon="2.06131">
        <ele>52.1</ele>
        <time>2022-03-22T10:55:59Z</time>
      </trkpt>
      <trkpt lat="48.92416" lon="2.06125">
        <ele>51.4</ele>
        <time>2022-03-22T10:56:03Z</time>
      </trkpt>
      <trkpt lat="48.92414" lon="2.06117">
        <ele>51.5</ele>
        <time>2022-03-22T10:56:08Z</time>
      </trkpt>
      <trkpt lat="48.92413" lon="2.06109">
        <ele>51.8</ele>
        <time>2022-03-22T10:56:12Z</time>
      </trkpt>
      <trkpt lat="48.92412" lon="2.06101">
        <ele>53</ele>
        <time>2022-03-22T10:56:17Z</time>
      </trkpt>
      <trkpt lat="48.92411" lon="2.06092">
        <ele>54.7</ele>
        <time>2022-03-22T10:56:22Z</time>
      </trkpt>
      <trkpt lat="48.9241" lon="2.06084">
        <ele>56.6</ele>
        <time>2022-03-22T10:56:27Z</time>
      </trkpt>
      <trkpt lat="48.92407" lon="2.06078">
        <ele>56.9</ele>
        <time>2022-03-22T10:56:31Z</time>
      </trkpt>
      <trkpt lat="48.92408" lon="2.0607">
        <ele>56.4</ele>
        <time>2022-03-22T10:56:37Z</time>
      </trkpt>
      <trkpt lat="48.92413" lon="2.06068">
        <ele>56.5</ele>
        <time>2022-03-22T10:56:41Z</time>
      </trkpt>
      <trkpt lat="48.92417" lon="2.06065">
        <ele>56.6</ele>
        <time>2022-03-22T10:56:45Z</time>
      </trkpt>
      <trkpt lat="48.92421" lon="2.06062">
        <ele>56.6</ele>
        <time>2022-03-22T10:56:49Z</time>
      </trkpt>
      <trkpt lat="48.92426" lon="2.06058">
        <ele>57.3</ele>
        <time>2022-03-22T10:56:55Z</time>
      </trkpt>
      <trkpt lat="48.92429" lon="2.06052">
        <ele>59.8</ele>
        <time>2022-03-22T10:56:59Z</time>
      </trkpt>
      <trkpt lat="48.92432" lon="2.06047">
        <ele>60.9</ele>
        <time>2022-03-22T10:57:03Z</time>
      </trkpt>
      <trkpt lat="48.92436" lon="2.06041">
        <ele>59.7</ele>
        <time>2022-03-22T10:57:08Z</time>
      </trkpt>
      <trkpt lat="48.92439" lon="2.06034">
        <ele>58.8</ele>
        <time>2022-03-22T10:57:12Z</time>
      </trkpt>
      <trkpt lat="48.92443" lon="2.06028">
        <ele>59.1</ele>
        <time>2022-03-22T10:57:17Z</time>
      </trkpt>
      <trkpt lat="48.92445" lon="2.06021">
        <ele>59.9</ele>
        <time>2022-03-22T10:57:28Z</time>
      </trkpt>
      <trkpt lat="48.92448" lon="2.06014">
        <ele>60.1</ele>
        <time>2022-03-22T10:57:33Z</time>
      </trkpt>
      <trkpt lat="48.9245" lon="2.06006">
        <ele>60.8</ele>
        <time>2022-03-22T10:57:37Z</time>
      </trkpt>
      <trkpt lat="48.92449" lon="2.05999">
        <ele>61.7</ele>
        <time>2022-03-22T10:57:41Z</time>
      </trkpt>
      <trkpt lat="48.92446" lon="2.05992">
        <ele>62</ele>
        <time>2022-03-22T10:57:45Z</time>
      </trkpt>
      <trkpt lat="48.92444" lon="2.05985">
        <ele>61</ele>
        <time>2022-03-22T10:57:49Z</time>
      </trkpt>
      <trkpt lat="48.92442" lon="2.05977">
        <ele>59.8</ele>
        <time>2022-03-22T10:57:54Z</time>
      </trkpt>
      <trkpt lat="48.92441" lon="2.05968">
        <ele>59.7</ele>
        <time>2022-03-22T10:57:58Z</time>
      </trkpt>
      <trkpt lat="48.92441" lon="2.05961">
        <ele>60.9</ele>
        <time>2022-03-22T10:58:03Z</time>
      </trkpt>
      <trkpt lat="48.92442" lon="2.05953">
        <ele>63.6</ele>
        <time>2022-03-22T10:58:08Z</time>
      </trkpt>
      <trkpt lat="48.92444" lon="2.05945">
        <ele>64.6</ele>
        <time>2022-03-22T10:58:12Z</time>
      </trkpt>
      <trkpt lat="48.92447" lon="2.0594">
        <ele>64.2</ele>
        <time>2022-03-22T10:58:17Z</time>
      </trkpt>
      <trkpt lat="48.92445" lon="2.05933">
        <ele>61.4</ele>
        <time>2022-03-22T10:58:30Z</time>
      </trkpt>
      <trkpt lat="48.92441" lon="2.05927">
        <ele>60.9</ele>
        <time>2022-03-22T10:58:34Z</time>
      </trkpt>
      <trkpt lat="48.92436" lon="2.05925">
        <ele>60.8</ele>
        <time>2022-03-22T10:58:38Z</time>
      </trkpt>
      <trkpt lat="48.92432" lon="2.0592">
        <ele>61.2</ele>
        <time>2022-03-22T10:58:42Z</time>
      </trkpt>
      <trkpt lat="48.92428" lon="2.05916">
        <ele>61.4</ele>
        <time>2022-03-22T10:58:46Z</time>
      </trkpt>
      <trkpt lat="48.92424" lon="2.05909">
        <ele>61.4</ele>
        <time>2022-03-22T10:58:51Z</time>
      </trkpt>
      <trkpt lat="48.9242" lon="2.05904">
        <ele>60.5</ele>
        <time>2022-03-22T10:58:55Z</time>
      </trkpt>
      <trkpt lat="48.92416" lon="2.059">
        <ele>59</ele>
        <time>2022-03-22T10:58:59Z</time>
      </trkpt>
      <trkpt lat="48.9241" lon="2.05896">
        <ele>58</ele>
        <time>2022-03-22T10:59:03Z</time>
      </trkpt>
      <trkpt lat="48.92406" lon="2.05892">
        <ele>57.6</ele>
        <time>2022-03-22T10:59:06Z</time>
      </trkpt>
      <trkpt lat="48.92402" lon="2.05887">
        <ele>56.5</ele>
        <time>2022-03-22T10:59:10Z</time>
      </trkpt>
      <trkpt lat="48.92398" lon="2.05881">
        <ele>55.3</ele>
        <time>2022-03-22T10:59:14Z</time>
      </trkpt>
      <trkpt lat="48.92394" lon="2.05875">
        <ele>54.4</ele>
        <time>2022-03-22T10:59:19Z</time>
      </trkpt>
      <trkpt lat="48.9239" lon="2.05869">
        <ele>53.2</ele>
        <time>2022-03-22T10:59:24Z</time>
      </trkpt>
      <trkpt lat="48.92386" lon="2.05865">
        <ele>50.9</ele>
        <time>2022-03-22T10:59:27Z</time>
      </trkpt>
      <trkpt lat="48.92383" lon="2.0586">
        <ele>49.3</ele>
        <time>2022-03-22T10:59:31Z</time>
      </trkpt>
      <trkpt lat="48.92379" lon="2.05853">
        <ele>49.1</ele>
        <time>2022-03-22T10:59:35Z</time>
      </trkpt>
      <trkpt lat="48.92376" lon="2.05848">
        <ele>50</ele>
        <time>2022-03-22T10:59:38Z</time>
      </trkpt>
      <trkpt lat="48.92373" lon="2.05842">
        <ele>50.8</ele>
        <time>2022-03-22T10:59:42Z</time>
      </trkpt>
      <trkpt lat="48.92369" lon="2.05837">
        <ele>51.3</ele>
        <time>2022-03-22T10:59:45Z</time>
      </trkpt>
      <trkpt lat="48.92365" lon="2.05832">
        <ele>52.7</ele>
        <time>2022-03-22T10:59:49Z</time>
      </trkpt>
      <trkpt lat="48.92361" lon="2.05827">
        <ele>54.4</ele>
        <time>2022-03-22T10:59:52Z</time>
      </trkpt>
      <trkpt lat="48.92357" lon="2.05821">
        <ele>54.7</ele>
        <time>2022-03-22T10:59:56Z</time>
      </trkpt>
      <trkpt lat="48.92354" lon="2.05816">
        <ele>54.4</ele>
        <time>2022-03-22T11:00:00Z</time>
      </trkpt>
      <trkpt lat="48.92351" lon="2.05811">
        <ele>54.1</ele>
        <time>2022-03-22T11:00:04Z</time>
      </trkpt>
      <trkpt lat="48.92347" lon="2.05807">
        <ele>53.2</ele>
        <time>2022-03-22T11:00:07Z</time>
      </trkpt>
      <trkpt lat="48.92343" lon="2.05803">
        <ele>52.6</ele>
        <time>2022-03-22T11:00:11Z</time>
      </trkpt>
      <trkpt lat="48.92338" lon="2.05798">
        <ele>52.7</ele>
        <time>2022-03-22T11:00:15Z</time>
      </trkpt>
      <trkpt lat="48.92334" lon="2.05793">
        <ele>53.6</ele>
        <time>2022-03-22T11:00:18Z</time>
      </trkpt>
      <trkpt lat="48.9233" lon="2.05788">
        <ele>54</ele>
        <time>2022-03-22T11:00:23Z</time>
      </trkpt>
      <trkpt lat="48.92326" lon="2.05784">
        <ele>53.8</ele>
        <time>2022-03-22T11:00:27Z</time>
      </trkpt>
      <trkpt lat="48.92322" lon="2.0578">
        <ele>53.2</ele>
        <time>2022-03-22T11:00:31Z</time>
      </trkpt>
      <trkpt lat="48.92317" lon="2.05775">
        <ele>52.5</ele>
        <time>2022-03-22T11:00:35Z</time>
      </trkpt>
      <trkpt lat="48.92313" lon="2.05772">
        <ele>52.3</ele>
        <time>2022-03-22T11:00:39Z</time>
      </trkpt>
      <trkpt lat="48.92309" lon="2.05766">
        <ele>52.4</ele>
        <time>2022-03-22T11:00:42Z</time>
      </trkpt>
      <trkpt lat="48.92308" lon="2.05759">
        <ele>52.8</ele>
        <time>2022-03-22T11:00:46Z</time>
      </trkpt>
      <trkpt lat="48.9231" lon="2.05751">
        <ele>53.6</ele>
        <time>2022-03-22T11:00:50Z</time>
      </trkpt>
      <trkpt lat="48.92312" lon="2.05743">
        <ele>55</ele>
        <time>2022-03-22T11:00:55Z</time>
      </trkpt>
      <trkpt lat="48.92314" lon="2.05736">
        <ele>55.3</ele>
        <time>2022-03-22T11:00:59Z</time>
      </trkpt>
      <trkpt lat="48.92315" lon="2.05729">
        <ele>55.8</ele>
        <time>2022-03-22T11:01:03Z</time>
      </trkpt>
      <trkpt lat="48.92317" lon="2.05721">
        <ele>56.7</ele>
        <time>2022-03-22T11:01:07Z</time>
      </trkpt>
      <trkpt lat="48.92319" lon="2.05714">
        <ele>57.9</ele>
        <time>2022-03-22T11:01:11Z</time>
      </trkpt>
      <trkpt lat="48.9232" lon="2.05707">
        <ele>57.9</ele>
        <time>2022-03-22T11:01:15Z</time>
      </trkpt>
      <trkpt lat="48.92322" lon="2.05699">
        <ele>56.4</ele>
        <time>2022-03-22T11:01:18Z</time>
      </trkpt>
      <trkpt lat="48.92323" lon="2.05692">
        <ele>55.7</ele>
        <time>2022-03-22T11:01:22Z</time>
      </trkpt>
      <trkpt lat="48.92325" lon="2.05685">
        <ele>56.2</ele>
        <time>2022-03-22T11:01:26Z</time>
      </trkpt>
      <trkpt lat="48.92327" lon="2.05677">
        <ele>57.3</ele>
        <time>2022-03-22T11:01:31Z</time>
      </trkpt>
      <trkpt lat="48.9233" lon="2.05671">
        <ele>57.7</ele>
        <time>2022-03-22T11:01:35Z</time>
      </trkpt>
      <trkpt lat="48.92332" lon="2.05663">
        <ele>57.8</ele>
        <time>2022-03-22T11:01:39Z</time>
      </trkpt>
      <trkpt lat="48.92335" lon="2.05655">
        <ele>58.5</ele>
        <time>2022-03-22T11:01:44Z</time>
      </trkpt>
      <trkpt lat="48.92335" lon="2.05648">
        <ele>56.5</ele>
        <time>2022-03-22T11:01:48Z</time>
      </trkpt>
      <trkpt lat="48.92337" lon="2.0564">
        <ele>53.9</ele>
        <time>2022-03-22T11:01:53Z</time>
      </trkpt>
      <trkpt lat="48.92339" lon="2.05633">
        <ele>55.6</ele>
        <time>2022-03-22T11:01:57Z</time>
      </trkpt>
      <trkpt lat="48.9234" lon="2.05624">
        <ele>57.4</ele>
        <time>2022-03-22T11:02:01Z</time>
      </trkpt>
      <trkpt lat="48.92341" lon="2.05617">
        <ele>58</ele>
        <time>2022-03-22T11:02:04Z</time>
      </trkpt>
      <trkpt lat="48.92341" lon="2.05609">
        <ele>58.3</ele>
        <time>2022-03-22T11:02:08Z</time>
      </trkpt>
      <trkpt lat="48.92341" lon="2.05602">
        <ele>58.7</ele>
        <time>2022-03-22T11:02:12Z</time>
      </trkpt>
      <trkpt lat="48.92339" lon="2.05594">
        <ele>58.6</ele>
        <time>2022-03-22T11:02:16Z</time>
      </trkpt>
      <trkpt lat="48.92339" lon="2.05586">
        <ele>58.3</ele>
        <time>2022-03-22T11:02:20Z</time>
      </trkpt>
      <trkpt lat="48.92339" lon="2.05579">
        <ele>58.2</ele>
        <time>2022-03-22T11:02:24Z</time>
      </trkpt>
      <trkpt lat="48.92341" lon="2.05571">
        <ele>59</ele>
        <time>2022-03-22T11:02:28Z</time>
      </trkpt>
      <trkpt lat="48.92342" lon="2.05563">
        <ele>60.1</ele>
        <time>2022-03-22T11:02:32Z</time>
      </trkpt>
      <trkpt lat="48.92343" lon="2.05556">
        <ele>60.7</ele>
        <time>2022-03-22T11:02:36Z</time>
      </trkpt>
      <trkpt lat="48.92345" lon="2.05548">
        <ele>61.8</ele>
        <time>2022-03-22T11:02:40Z</time>
      </trkpt>
      <trkpt lat="48.92345" lon="2.05539">
        <ele>62.5</ele>
        <time>2022-03-22T11:02:44Z</time>
      </trkpt>
      <trkpt lat="48.92346" lon="2.05532">
        <ele>62.3</ele>
        <time>2022-03-22T11:02:48Z</time>
      </trkpt>
      <trkpt lat="48.92347" lon="2.05524">
        <ele>61.4</ele>
        <time>2022-03-22T11:02:52Z</time>
      </trkpt>
      <trkpt lat="48.9235" lon="2.05518">
        <ele>60.2</ele>
        <time>2022-03-22T11:02:56Z</time>
      </trkpt>
      <trkpt lat="48.92352" lon="2.05512">
        <ele>59</ele>
        <time>2022-03-22T11:03:01Z</time>
      </trkpt>
      <trkpt lat="48.92354" lon="2.05505">
        <ele>58.4</ele>
        <time>2022-03-22T11:03:05Z</time>
      </trkpt>
      <trkpt lat="48.92357" lon="2.055">
        <ele>58</ele>
        <time>2022-03-22T11:03:09Z</time>
      </trkpt>
      <trkpt lat="48.92359" lon="2.05492">
        <ele>58</ele>
        <time>2022-03-22T11:03:13Z</time>
      </trkpt>
      <trkpt lat="48.92363" lon="2.05485">
        <ele>58.9</ele>
        <time>2022-03-22T11:03:18Z</time>
      </trkpt>
      <trkpt lat="48.92365" lon="2.05477">
        <ele>60.3</ele>
        <time>2022-03-22T11:03:22Z</time>
      </trkpt>
      <trkpt lat="48.92367" lon="2.0547">
        <ele>61.1</ele>
        <time>2022-03-22T11:03:26Z</time>
      </trkpt>
      <trkpt lat="48.92368" lon="2.05463">
        <ele>61.1</ele>
        <time>2022-03-22T11:03:30Z</time>
      </trkpt>
      <trkpt lat="48.92367" lon="2.05455">
        <ele>60.8</ele>
        <time>2022-03-22T11:03:35Z</time>
      </trkpt>
      <trkpt lat="48.92364" lon="2.05448">
        <ele>60.3</ele>
        <time>2022-03-22T11:03:39Z</time>
      </trkpt>
      <trkpt lat="48.9236" lon="2.05443">
        <ele>59.2</ele>
        <time>2022-03-22T11:03:45Z</time>
      </trkpt>
      <trkpt lat="48.92359" lon="2.05436">
        <ele>57.9</ele>
        <time>2022-03-22T11:03:50Z</time>
      </trkpt>
      <trkpt lat="48.92363" lon="2.0543">
        <ele>57.2</ele>
        <time>2022-03-22T11:03:54Z</time>
      </trkpt>
      <trkpt lat="48.92367" lon="2.05425">
        <ele>56.8</ele>
        <time>2022-03-22T11:03:58Z</time>
      </trkpt>
      <trkpt lat="48.92371" lon="2.0542">
        <ele>55.6</ele>
        <time>2022-03-22T11:04:04Z</time>
      </trkpt>
      <trkpt lat="48.92375" lon="2.05415">
        <ele>55</ele>
        <time>2022-03-22T11:04:10Z</time>
      </trkpt>
      <trkpt lat="48.92379" lon="2.05409">
        <ele>55.6</ele>
        <time>2022-03-22T11:04:15Z</time>
      </trkpt>
      <trkpt lat="48.92377" lon="2.05401">
        <ele>55.4</ele>
        <time>2022-03-22T11:04:20Z</time>
      </trkpt>
      <trkpt lat="48.92372" lon="2.05395">
        <ele>54.9</ele>
        <time>2022-03-22T11:04:24Z</time>
      </trkpt>
      <trkpt lat="48.92368" lon="2.05391">
        <ele>54.7</ele>
        <time>2022-03-22T11:04:29Z</time>
      </trkpt>
      <trkpt lat="48.92363" lon="2.05391">
        <ele>55.5</ele>
        <time>2022-03-22T11:04:34Z</time>
      </trkpt>
      <trkpt lat="48.9236" lon="2.05397">
        <ele>55.1</ele>
        <time>2022-03-22T11:04:38Z</time>
      </trkpt>
      <trkpt lat="48.92357" lon="2.05403">
        <ele>54.4</ele>
        <time>2022-03-22T11:04:43Z</time>
      </trkpt>
      <trkpt lat="48.92352" lon="2.05406">
        <ele>53.9</ele>
        <time>2022-03-22T11:04:48Z</time>
      </trkpt>
      <trkpt lat="48.92348" lon="2.05401">
        <ele>54</ele>
        <time>2022-03-22T11:04:53Z</time>
      </trkpt>
      <trkpt lat="48.92347" lon="2.05394">
        <ele>54.1</ele>
        <time>2022-03-22T11:04:58Z</time>
      </trkpt>
    </trkseg>
  </trk>
</gpx>